Darstellungsparameter: Aktuell verwendete Einstellungen:
Skalierung der Graphiken ... ?
xyx+y,   Skalierungsfaktor:      Skalierung: Modus: x, Faktor: 1
Darstellungszeitraum ... ?
Vom - - bis: - -   Zeitraum: 11.12.2014 - 31.12.2014
Min/Max/Avg-Anzeige ... ?
Zeige MMA aktuell
Zeige MMA Monat
Zeige MMA alles
Zeige --A aktuell
Zeige --A Monat
Zeige --A alles
Keine MMA-Anzeige
MMA:
Average (ber die Originaldaten)
MMA-Basis: 11.12.2014 - 31.12.2014
Quicknavigation für Darstellung... ?
Tage:      1T, 2T, 3T, 5T -1T -2T -3T -5T +1T +2T +3T +5T
Wochen: 1W, 2W, 3W -1W -2W -3W +1W +2W +3W
Monate: 1M, 3M, 6M -1M -3M -6M +1M +3M +6M
Jahre:    1J, 3J, 5J, 10J -1J -3J -5J -10J +1J +3J +5J +10J
Nutze für die Darstellung ... ?
Originaldaten oder Mittelwerte auf ...
Stundenbasis Tagesbasis Wochenbasis
Monatsbasis Jahresbasis      Datenbasis: Original-Daten
Darstellen als:
Statistik (Auto) Statistik J:M      Darstellung:
Zur Graphik,    zurück zur Übersicht aller Sensoren.
 
Tabellarische Datenbersicht: ?
 
Sensor: Nr:Datum:Temp:Feuchte:
Aussen-T/F 1 11-12-2014 00:11:17 4.2 C 88 %
2 11-12-2014 00:23:17 4.3 C 89 %
3 11-12-2014 00:35:17 4 C 89 %
4 11-12-2014 00:47:17 4.4 C 89 %
5 11-12-2014 00:59:17 4.8 C 90 %
6 11-12-2014 01:11:17 4.6 C 90 %
7 11-12-2014 01:23:17 4.7 C 90 %
8 11-12-2014 01:35:17 4.1 C 90 %
9 11-12-2014 01:47:17 4.1 C 91 %
10 11-12-2014 01:59:17 3.9 C 92 %
11 11-12-2014 02:11:17 4.1 C 91 %
12 11-12-2014 02:23:17 4.1 C 92 %
13 11-12-2014 02:35:17 4.2 C 92 %
14 11-12-2014 02:47:17 4.2 C 92 %
15 11-12-2014 02:59:17 4 C 92 %
16 11-12-2014 03:11:17 4.1 C 92 %
17 11-12-2014 03:23:17 4.3 C 92 %
18 11-12-2014 03:35:17 4.3 C 91 %
19 11-12-2014 03:47:17 4.5 C 91 %
20 11-12-2014 03:59:17 4.5 C 90 %
21 11-12-2014 04:11:17 4.9 C 88 %
22 11-12-2014 04:23:17 5.1 C 84 %
23 11-12-2014 04:35:17 5.1 C 82 %
24 11-12-2014 04:47:17 5.2 C 80 %
25 11-12-2014 04:59:17 5 C 79 %
Sensor: Nr:Datum:Temp:Feuchte:
Aussen-T/F 26 11-12-2014 05:11:17 5.2 C 79 %
27 11-12-2014 05:23:17 5.4 C 78 %
28 11-12-2014 05:35:17 5.6 C 76 %
29 11-12-2014 05:47:17 5.6 C 76 %
30 11-12-2014 05:59:17 5.6 C 76 %
31 11-12-2014 06:11:17 5.7 C 75 %
32 11-12-2014 06:23:17 5.5 C 77 %
33 11-12-2014 06:35:16 5.7 C 77 %
34 11-12-2014 06:47:17 5.8 C 77 %
35 11-12-2014 06:59:17 5.4 C 80 %
36 11-12-2014 07:11:17 5.1 C 82 %
37 11-12-2014 07:23:17 5.4 C 83 %
38 11-12-2014 07:35:16 5.5 C 82 %
39 11-12-2014 07:47:17 5.6 C 82 %
40 11-12-2014 07:59:17 5.5 C 81 %
41 11-12-2014 08:11:17 5.7 C 79 %
42 11-12-2014 08:23:17 6 C 77 %
43 11-12-2014 08:35:17 6 C 75 %
44 11-12-2014 08:47:17 6.2 C 74 %
45 11-12-2014 08:59:17 6.2 C 74 %
46 11-12-2014 09:11:17 6.1 C 74 %
47 11-12-2014 09:23:17 6 C 75 %
48 11-12-2014 09:35:17 6 C 75 %
49 11-12-2014 09:47:17 5.8 C 79 %
50 11-12-2014 09:59:17 5.7 C 80 %
Sensor: Nr:Datum:Temp:Feuchte:
Aussen-T/F 51 11-12-2014 10:11:17 5.9 C 80 %
52 11-12-2014 10:23:17 6 C 78 %
53 11-12-2014 10:35:17 6.1 C 77 %
54 11-12-2014 10:47:17 6.3 C 75 %
55 11-12-2014 10:59:17 6.4 C 75 %
56 11-12-2014 11:11:17 6.6 C 73 %
57 11-12-2014 11:23:17 6.4 C 74 %
58 11-12-2014 11:35:16 6.3 C 75 %
59 11-12-2014 11:47:17 6.2 C 76 %
60 11-12-2014 11:59:17 6.3 C 77 %
61 11-12-2014 12:11:17 6.4 C 76 %
62 11-12-2014 12:23:17 6.5 C 75 %
63 11-12-2014 12:35:17 6.7 C 74 %
64 11-12-2014 12:47:17 6.7 C 73 %
65 11-12-2014 12:59:17 6.7 C 74 %
66 11-12-2014 13:11:17 6.6 C 75 %
67 11-12-2014 13:23:17 6.4 C 76 %
68 11-12-2014 13:35:17 5.8 C 81 %
69 11-12-2014 13:47:17 5.5 C 83 %
70 11-12-2014 13:59:17 5.2 C 85 %
71 11-12-2014 14:11:17 5 C 87 %
72 11-12-2014 14:23:17 4.9 C 89 %
73 11-12-2014 14:35:17 5.1 C 89 %
74 11-12-2014 14:47:17 5.2 C 90 %
75 11-12-2014 14:59:17 5.4 C 90 %
Sensor: Nr:Datum:Temp:Feuchte:
Aussen-T/F 76 11-12-2014 15:11:17 5.3 C 87 %
77 11-12-2014 15:23:17 5.2 C 86 %
78 11-12-2014 15:35:17 5.1 C 85 %
79 11-12-2014 15:47:17 5.3 C 82 %
80 11-12-2014 15:59:17 5.1 C 79 %
81 11-12-2014 16:11:17 5.1 C 79 %
82 11-12-2014 16:23:17 5.1 C 78 %
83 11-12-2014 16:35:17 5.5 C 77 %
84 11-12-2014 16:47:17 5.1 C 78 %
85 11-12-2014 16:59:17 4.8 C 81 %
86 11-12-2014 17:11:17 4.6 C 83 %
87 11-12-2014 17:23:17 4.4 C 84 %
88 11-12-2014 17:35:17 4.2 C 85 %
89 11-12-2014 17:47:17 3.9 C 88 %
90 11-12-2014 17:59:17 3.9 C 90 %
91 11-12-2014 18:11:17 4.1 C 90 %
92 11-12-2014 18:23:17 4.5 C 91 %
93 11-12-2014 18:35:17 4.2 C 90 %
94 11-12-2014 18:47:17 4.6 C 89 %
95 11-12-2014 18:59:17 5 C 87 %
96 11-12-2014 19:11:17 5.1 C 83 %
97 11-12-2014 19:23:17 4.8 C 83 %
98 11-12-2014 19:35:17 4.7 C 82 %
99 11-12-2014 19:47:17 4.9 C 82 %
100 11-12-2014 19:59:17 5.3 C 81 %
Sensor: Nr:Datum:Temp:Feuchte:
Aussen-T/F 101 11-12-2014 20:11:17 5.2 C 80 %
102 11-12-2014 20:23:17 5.1 C 81 %
103 11-12-2014 20:35:17 5.1 C 82 %
104 11-12-2014 20:47:17 5.2 C 81 %
105 11-12-2014 20:59:17 5.4 C 80 %
106 11-12-2014 21:11:17 5.4 C 79 %
107 11-12-2014 21:23:17 5.5 C 79 %
108 11-12-2014 21:35:17 5.8 C 78 %
109 11-12-2014 21:47:17 5.8 C 78 %
110 11-12-2014 21:59:17 5.8 C 78 %
111 11-12-2014 22:11:17 6.1 C 77 %
112 11-12-2014 22:23:17 6.2 C 76 %
113 11-12-2014 22:35:17 5.9 C 77 %
114 11-12-2014 22:47:17 5.9 C 78 %
115 11-12-2014 22:59:17 6.2 C 77 %
116 11-12-2014 23:11:17 6.5 C 76 %
117 11-12-2014 23:23:17 6.7 C 75 %
118 11-12-2014 23:35:17 6.8 C 73 %
119 11-12-2014 23:47:17 6.8 C 73 %
120 11-12-2014 23:59:17 6.6 C 74 %
121 12-12-2014 00:11:17 6.5 C 75 %
122 12-12-2014 00:23:17 6.6 C 75 %
123 12-12-2014 00:35:17 6.3 C 77 %
124 12-12-2014 00:47:17 6.2 C 78 %
125 12-12-2014 00:59:17 6.5 C 79 %
Sensor: Nr:Datum:Temp:Feuchte:
Aussen-T/F 126 12-12-2014 01:11:17 6.7 C 79 %
127 12-12-2014 01:23:17 7 C 77 %
128 12-12-2014 01:35:17 7.3 C 76 %
129 12-12-2014 01:47:17 7.4 C 75 %
130 12-12-2014 01:59:17 7.4 C 75 %
131 12-12-2014 02:11:17 7.4 C 75 %
132 12-12-2014 02:23:17 7.4 C 75 %
133 12-12-2014 02:35:17 7.6 C 74 %
134 12-12-2014 02:47:17 7.7 C 74 %
135 12-12-2014 02:59:17 7.5 C 75 %
136 12-12-2014 03:11:17 7.4 C 77 %
137 12-12-2014 03:23:17 7.4 C 77 %
138 12-12-2014 03:35:17 7.1 C 79 %
139 12-12-2014 03:47:16 7.4 C 78 %
140 12-12-2014 03:59:17 7.3 C 78 %
141 12-12-2014 04:11:17 7.4 C 77 %
142 12-12-2014 04:23:17 7.3 C 75 %
143 12-12-2014 04:35:17 7.4 C 75 %
144 12-12-2014 04:47:17 7.4 C 75 %
145 12-12-2014 04:59:17 7.6 C 73 %
146 12-12-2014 05:11:17 7.7 C 73 %
147 12-12-2014 05:23:17 7.6 C 72 %
148 12-12-2014 05:35:17 7.3 C 74 %
149 12-12-2014 05:47:17 7.3 C 75 %
150 12-12-2014 05:59:17 7.6 C 74 %
Sensor: Nr:Datum:Temp:Feuchte:
Aussen-T/F 151 12-12-2014 06:11:17 7.6 C 72 %
152 12-12-2014 06:23:17 7.8 C 70 %
153 12-12-2014 06:35:17 7.9 C 69 %
154 12-12-2014 06:47:17 8.1 C 66 %
155 12-12-2014 06:59:17 8.2 C 66 %
156 12-12-2014 07:11:17 8.2 C 65 %
157 12-12-2014 07:23:17 8.1 C 66 %
158 12-12-2014 07:35:17 7.9 C 69 %
159 12-12-2014 07:47:17 7.9 C 70 %
160 12-12-2014 07:59:17 7.8 C 70 %
161 12-12-2014 08:11:17 7.6 C 73 %
162 12-12-2014 08:23:17 7.6 C 72 %
163 12-12-2014 08:35:17 8.1 C 69 %
164 12-12-2014 08:47:17 8 C 69 %
165 12-12-2014 08:59:17 7.7 C 72 %
166 12-12-2014 09:11:17 7.6 C 74 %
167 12-12-2014 09:23:17 7.6 C 74 %
168 12-12-2014 09:35:17 7.8 C 74 %
169 12-12-2014 09:47:17 7.9 C 73 %
170 12-12-2014 09:59:17 8 C 72 %
171 12-12-2014 10:11:17 8.1 C 70 %
172 12-12-2014 10:23:17 8.4 C 69 %
173 12-12-2014 10:35:17 8.5 C 69 %
174 12-12-2014 10:47:17 8.5 C 68 %
175 12-12-2014 10:59:17 8.7 C 68 %
Sensor: Nr:Datum:Temp:Feuchte:
Aussen-T/F 176 12-12-2014 11:11:17 8.8 C 67 %
177 12-12-2014 11:23:17 9 C 66 %
178 12-12-2014 11:35:17 9 C 66 %
179 12-12-2014 11:47:16 9.2 C 66 %
180 12-12-2014 11:59:17 9.3 C 65 %
181 12-12-2014 12:11:17 9.1 C 66 %
182 12-12-2014 12:23:17 8.8 C 68 %
183 12-12-2014 12:35:17 8.8 C 69 %
184 12-12-2014 12:47:17 8.9 C 69 %
185 12-12-2014 12:59:17 9 C 68 %
186 12-12-2014 13:11:17 9.1 C 67 %
187 12-12-2014 13:23:17 9.1 C 67 %
188 12-12-2014 13:35:17 9.2 C 67 %
189 12-12-2014 13:47:17 9.4 C 66 %
190 12-12-2014 13:59:17 9.5 C 66 %
191 12-12-2014 14:11:17 9.6 C 65 %
192 12-12-2014 14:23:17 9.6 C 66 %
193 12-12-2014 14:35:17 9.7 C 65 %
194 12-12-2014 14:47:17 9.8 C 65 %
195 12-12-2014 14:59:17 9.7 C 66 %
196 12-12-2014 15:11:17 9.8 C 66 %
197 12-12-2014 15:23:17 9.7 C 67 %
198 12-12-2014 15:35:17 9.8 C 67 %
199 12-12-2014 15:47:17 9.8 C 67 %
200 12-12-2014 15:59:17 9.8 C 67 %
Sensor: Nr:Datum:Temp:Feuchte:
Aussen-T/F 201 12-12-2014 16:11:17 9.8 C 68 %
202 12-12-2014 16:23:17 9.8 C 69 %
203 12-12-2014 16:35:17 9.8 C 69 %
204 12-12-2014 16:47:17 9.7 C 69 %
205 12-12-2014 16:59:17 9.7 C 70 %
206 12-12-2014 17:11:17 9.6 C 71 %
207 12-12-2014 17:23:17 9.7 C 71 %
208 12-12-2014 17:35:17 9.6 C 72 %
209 12-12-2014 17:47:17 9.7 C 71 %
210 12-12-2014 17:59:17 9.6 C 71 %
211 12-12-2014 18:11:17 9.6 C 71 %
212 12-12-2014 18:23:17 9.5 C 71 %
213 12-12-2014 18:35:17 9.4 C 72 %
214 12-12-2014 18:47:17 9.4 C 72 %
215 12-12-2014 18:59:17 9.3 C 73 %
216 12-12-2014 19:11:17 9.3 C 73 %
217 12-12-2014 19:23:17 9.4 C 72 %
218 12-12-2014 19:35:17 9.4 C 73 %
219 12-12-2014 19:47:17 9.3 C 74 %
220 12-12-2014 19:59:17 9.4 C 74 %
221 12-12-2014 20:11:17 9.5 C 73 %
222 12-12-2014 20:23:17 9.4 C 74 %
223 12-12-2014 20:35:17 9.3 C 75 %
224 12-12-2014 20:47:17 8.8 C 79 %
225 12-12-2014 20:59:17 8.6 C 82 %
Sensor: Nr:Datum:Temp:Feuchte:
Aussen-T/F 226 12-12-2014 21:11:17 8.4 C 84 %
227 12-12-2014 21:23:17 8.2 C 86 %
228 12-12-2014 21:35:17 8.1 C 88 %
229 12-12-2014 21:47:17 8 C 89 %
230 12-12-2014 21:59:17 8 C 90 %
231 12-12-2014 22:11:17 8 C 90 %
232 12-12-2014 22:23:17 7.9 C 92 %
233 12-12-2014 22:35:17 7.9 C 92 %
234 12-12-2014 22:47:17 7.7 C 93 %
235 12-12-2014 22:59:17 7.5 C 92 %
236 12-12-2014 23:11:17 7.2 C 92 %
237 12-12-2014 23:23:17 7 C 92 %
238 12-12-2014 23:35:17 6.9 C 92 %
239 12-12-2014 23:47:17 6.8 C 92 %
240 12-12-2014 23:59:17 6.5 C 92 %
241 13-12-2014 00:11:17 6.5 C 92 %
242 13-12-2014 00:23:17 6.4 C 92 %
243 13-12-2014 00:35:17 6.3 C 92 %
244 13-12-2014 00:47:17 6.3 C 92 %
245 13-12-2014 00:59:17 6.3 C 92 %
246 13-12-2014 01:11:17 6.2 C 93 %
247 13-12-2014 01:23:17 6.2 C 92 %
248 13-12-2014 01:35:17 5.9 C 92 %
249 13-12-2014 01:47:17 5.9 C 92 %
250 13-12-2014 01:59:17 5.9 C 93 %
Sensor: Nr:Datum:Temp:Feuchte:
Aussen-T/F 251 13-12-2014 02:11:17 5.9 C 93 %
252 13-12-2014 02:23:17 5.9 C 93 %
253 13-12-2014 02:35:16 5.9 C 93 %
254 13-12-2014 02:47:17 5.8 C 93 %
255 13-12-2014 02:59:17 5.8 C 94 %
256 13-12-2014 03:11:17 5.7 C 94 %
257 13-12-2014 03:23:17 5.7 C 94 %
258 13-12-2014 03:35:17 5.6 C 94 %
259 13-12-2014 03:47:17 5.6 C 94 %
260 13-12-2014 03:59:17 5.5 C 94 %
261 13-12-2014 04:11:17 5.4 C 94 %
262 13-12-2014 04:23:17 5.5 C 95 %
263 13-12-2014 04:35:17 5.5 C 95 %
264 13-12-2014 04:47:17 5.4 C 95 %
265 13-12-2014 04:59:17 5.4 C 95 %
266 13-12-2014 05:11:17 5.4 C 95 %
267 13-12-2014 05:23:17 5.3 C 95 %
268 13-12-2014 05:35:17 5.3 C 95 %
269 13-12-2014 05:47:17 5.3 C 95 %
270 13-12-2014 05:59:17 5.3 C 95 %
271 13-12-2014 06:11:17 5.3 C 95 %
272 13-12-2014 06:23:17 5.3 C 95 %
273 13-12-2014 06:35:17 5.3 C 95 %
274 13-12-2014 06:47:17 5.3 C 95 %
275 13-12-2014 06:59:17 5.1 C 95 %
Sensor: Nr:Datum:Temp:Feuchte:
Aussen-T/F 276 13-12-2014 07:11:17 5.1 C 95 %
277 13-12-2014 07:23:17 5.1 C 95 %
278 13-12-2014 07:35:17 5.2 C 95 %
279 13-12-2014 07:47:17 5.1 C 95 %
280 13-12-2014 07:59:17 4.7 C 95 %
281 13-12-2014 08:11:17 4.8 C 95 %
282 13-12-2014 08:23:17 4.8 C 95 %
283 13-12-2014 08:35:17 4.8 C 95 %
284 13-12-2014 08:47:17 4.5 C 95 %
285 13-12-2014 08:59:17 4.5 C 95 %
286 13-12-2014 09:11:17 4.3 C 95 %
287 13-12-2014 09:23:17 4.2 C 95 %
288 13-12-2014 09:35:17 4.3 C 95 %
289 13-12-2014 09:47:16 4.1 C 95 %
290 13-12-2014 09:59:16 4.2 C 95 %
291 13-12-2014 10:11:17 4.1 C 95 %
292 13-12-2014 10:23:17 4.3 C 95 %
293 13-12-2014 10:35:17 4.1 C 95 %
294 13-12-2014 10:47:17 4.1 C 95 %
295 13-12-2014 10:59:17 4.1 C 95 %
296 13-12-2014 11:11:17 4.1 C 95 %
297 13-12-2014 11:23:17 4.1 C 95 %
298 13-12-2014 11:35:17 4.3 C 95 %
299 13-12-2014 11:47:17 3.9 C 95 %
300 13-12-2014 11:59:17 3.8 C 95 %
Sensor: Nr:Datum:Temp:Feuchte:
Aussen-T/F 301 13-12-2014 12:11:17 4 C 94 %
302 13-12-2014 12:23:17 3.8 C 95 %
303 13-12-2014 12:35:16 3.8 C 94 %
304 13-12-2014 12:47:16 3.9 C 94 %
305 13-12-2014 12:59:17 3.9 C 94 %
306 13-12-2014 13:11:17 3.8 C 94 %
307 13-12-2014 13:23:17 3.8 C 94 %
308 13-12-2014 13:35:17 3.7 C 94 %
309 13-12-2014 13:47:17 3.7 C 93 %
310 13-12-2014 13:59:17 3.7 C 93 %
311 13-12-2014 14:11:17 3.6 C 93 %
312 13-12-2014 14:23:16 3.5 C 93 %
313 13-12-2014 14:35:17 3.4 C 93 %
314 13-12-2014 14:47:17 3.5 C 93 %
315 13-12-2014 14:59:17 3.4 C 93 %
316 13-12-2014 15:11:17 3.2 C 93 %
317 13-12-2014 15:23:17 3.1 C 93 %
318 13-12-2014 15:35:17 3.1 C 93 %
319 13-12-2014 15:47:17 3.1 C 93 %
320 13-12-2014 15:59:17 3 C 93 %
321 13-12-2014 16:11:17 2.9 C 94 %
322 13-12-2014 16:23:17 2.7 C 94 %
323 13-12-2014 16:35:16 2.6 C 94 %
324 13-12-2014 16:47:17 2.6 C 94 %
325 13-12-2014 16:59:17 2.5 C 94 %
Sensor: Nr:Datum:Temp:Feuchte:
Aussen-T/F 326 13-12-2014 17:11:17 2.4 C 94 %
327 13-12-2014 17:23:17 2.4 C 94 %
328 13-12-2014 17:35:17 2.5 C 94 %
329 13-12-2014 17:47:17 2.4 C 94 %
330 13-12-2014 17:59:17 2.4 C 94 %
331 13-12-2014 18:11:17 2.4 C 94 %
332 13-12-2014 18:23:17 2.4 C 94 %
333 13-12-2014 18:35:17 2.4 C 94 %
334 13-12-2014 18:47:17 2.3 C 95 %
335 13-12-2014 18:59:17 2.3 C 95 %
336 13-12-2014 19:11:17 2.3 C 95 %
337 13-12-2014 19:23:17 2.1 C 95 %
338 13-12-2014 19:35:17 2.1 C 95 %
339 13-12-2014 19:47:17 2.1 C 95 %
340 13-12-2014 19:59:17 2.1 C 95 %
341 13-12-2014 20:11:17 2.1 C 95 %
342 13-12-2014 20:23:17 2.1 C 95 %
343 13-12-2014 20:35:17 2.1 C 95 %
344 13-12-2014 20:47:17 2.1 C 95 %
345 13-12-2014 20:59:17 2.1 C 95 %
346 13-12-2014 21:11:17 2.1 C 95 %
347 13-12-2014 21:23:17 2.1 C 95 %
348 13-12-2014 21:35:17 2.1 C 95 %
349 13-12-2014 21:47:17 2.2 C 95 %
350 13-12-2014 21:59:17 2.2 C 95 %
Sensor: Nr:Datum:Temp:Feuchte:
Aussen-T/F 351 13-12-2014 22:11:17 2.2 C 95 %
352 13-12-2014 22:23:17 2.2 C 95 %
353 13-12-2014 22:35:17 2.1 C 95 %
354 13-12-2014 22:47:17 2.2 C 95 %
355 13-12-2014 22:59:17 2.1 C 95 %
356 13-12-2014 23:11:17 2.1 C 95 %
357 13-12-2014 23:23:17 2.1 C 95 %
358 13-12-2014 23:35:17 2.2 C 95 %
359 13-12-2014 23:47:17 2.2 C 95 %
360 13-12-2014 23:59:17 2.2 C 95 %
361 14-12-2014 00:11:17 2.2 C 95 %
362 14-12-2014 00:23:17 2.2 C 95 %
363 14-12-2014 00:35:17 2.2 C 95 %
364 14-12-2014 00:47:17 2.3 C 95 %
365 14-12-2014 00:59:17 2.3 C 95 %
366 14-12-2014 01:11:17 2.3 C 95 %
367 14-12-2014 01:23:17 2.2 C 95 %
368 14-12-2014 01:35:17 2.3 C 95 %
369 14-12-2014 01:47:17 2.3 C 95 %
370 14-12-2014 01:59:17 2.3 C 95 %
371 14-12-2014 02:11:17 2.3 C 95 %
372 14-12-2014 02:23:16 2.2 C 95 %
373 14-12-2014 02:35:17 2.1 C 95 %
374 14-12-2014 02:47:17 2.1 C 95 %
375 14-12-2014 02:59:17 2 C 95 %
Sensor: Nr:Datum:Temp:Feuchte:
Aussen-T/F 376 14-12-2014 03:11:17 1.9 C 95 %
377 14-12-2014 03:23:17 2 C 95 %
378 14-12-2014 03:35:17 2 C 95 %
379 14-12-2014 03:47:17 1.9 C 95 %
380 14-12-2014 03:59:17 1.9 C 95 %
381 14-12-2014 04:11:17 1.7 C 95 %
382 14-12-2014 04:23:17 1.7 C 95 %
383 14-12-2014 04:35:17 1.6 C 95 %
384 14-12-2014 04:47:17 1.6 C 95 %
385 14-12-2014 04:59:17 1.5 C 95 %
386 14-12-2014 05:11:17 1.5 C 95 %
387 14-12-2014 05:23:17 1.6 C 95 %
388 14-12-2014 05:35:17 1.6 C 95 %
389 14-12-2014 05:47:16 1.7 C 95 %
390 14-12-2014 05:59:17 1.7 C 95 %
391 14-12-2014 06:11:17 1.8 C 95 %
392 14-12-2014 06:23:17 1.8 C 95 %
393 14-12-2014 06:35:17 1.9 C 95 %
394 14-12-2014 06:47:17 1.9 C 95 %
395 14-12-2014 06:59:17 2 C 95 %
396 14-12-2014 07:11:17 2 C 95 %
397 14-12-2014 07:23:17 2.1 C 95 %
398 14-12-2014 07:35:17 2 C 95 %
399 14-12-2014 07:47:17 2 C 95 %
400 14-12-2014 07:59:17 2 C 95 %
Sensor: Nr:Datum:Temp:Feuchte:
Aussen-T/F 401 14-12-2014 08:11:17 2 C 95 %
402 14-12-2014 08:23:17 2.1 C 95 %
403 14-12-2014 08:35:17 2.1 C 95 %
404 14-12-2014 08:47:17 2.1 C 95 %
405 14-12-2014 08:59:17 2.2 C 95 %
406 14-12-2014 09:11:17 2.3 C 95 %
407 14-12-2014 09:23:17 2.4 C 95 %
408 14-12-2014 09:35:17 2.5 C 95 %
409 14-12-2014 09:47:17 2.5 C 95 %
410 14-12-2014 09:59:17 2.5 C 95 %
411 14-12-2014 10:11:17 2.7 C 95 %
412 14-12-2014 10:23:17 2.8 C 95 %
413 14-12-2014 10:35:18 2.9 C 95 %
414 14-12-2014 10:47:17 3.1 C 95 %
415 14-12-2014 10:59:17 3.2 C 95 %
416 14-12-2014 11:11:17 3.3 C 95 %
417 14-12-2014 11:23:17 3.3 C 95 %
418 14-12-2014 11:35:17 3.5 C 95 %
419 14-12-2014 11:47:17 3.7 C 95 %
420 14-12-2014 11:47:17 3.7 C 95 %
421 14-12-2014 11:59:17 3.7 C 95 %
422 14-12-2014 11:59:17 3.7 C 95 %
423 14-12-2014 12:11:17 3.7 C 95 %
424 14-12-2014 12:23:17 4 C 95 %
425 14-12-2014 12:35:17 4.1 C 94 %
Sensor: Nr:Datum:Temp:Feuchte:
Aussen-T/F 426 14-12-2014 12:47:17 4.1 C 93 %
427 14-12-2014 12:59:17 4.2 C 92 %
428 14-12-2014 13:11:17 4.2 C 90 %
429 14-12-2014 13:23:17 4.4 C 88 %
430 14-12-2014 13:35:17 4.3 C 87 %
431 14-12-2014 13:47:17 4.4 C 85 %
432 14-12-2014 13:59:17 4.5 C 85 %
433 14-12-2014 14:11:17 4.5 C 84 %
434 14-12-2014 14:23:17 4.3 C 81 %
435 14-12-2014 14:35:17 4.4 C 81 %
436 14-12-2014 14:47:17 4.4 C 82 %
437 14-12-2014 14:59:17 4.3 C 83 %
438 14-12-2014 15:11:17 4 C 83 %
439 14-12-2014 15:23:17 3.6 C 84 %
440 14-12-2014 15:35:17 3.1 C 85 %
441 14-12-2014 15:47:17 2.5 C 87 %
442 14-12-2014 15:59:17 2.4 C 88 %
443 14-12-2014 16:11:17 2.2 C 89 %
444 14-12-2014 16:23:17 2.1 C 90 %
445 14-12-2014 16:35:17 2.1 C 91 %
446 14-12-2014 16:47:17 1.8 C 92 %
447 14-12-2014 16:59:17 1.4 C 92 %
448 14-12-2014 17:11:17 1.1 C 92 %
449 14-12-2014 17:23:17 1 C 93 %
450 14-12-2014 17:35:17 1 C 93 %
Sensor: Nr:Datum:Temp:Feuchte:
Aussen-T/F 451 14-12-2014 17:47:17 1.2 C 94 %
452 14-12-2014 17:59:17 1.3 C 94 %
453 14-12-2014 18:11:17 1.2 C 94 %
454 14-12-2014 18:23:17 1.2 C 94 %
455 14-12-2014 18:35:17 1.2 C 94 %
456 14-12-2014 18:47:17 1 C 95 %
457 14-12-2014 18:59:17 0.9 C 95 %
458 14-12-2014 19:11:17 0.6 C 95 %
459 14-12-2014 19:23:17 0.5 C 95 %
460 14-12-2014 19:35:17 0.3 C 95 %
461 14-12-2014 19:47:17 0.2 C 95 %
462 14-12-2014 19:59:17 0 C 95 %
463 14-12-2014 20:11:17 -0.2 C 95 %
464 14-12-2014 20:23:17 -0.2 C 95 %
465 14-12-2014 20:35:17 -0.4 C 95 %
466 14-12-2014 20:47:17 0 C 95 %
467 14-12-2014 20:59:17 -0.2 C 95 %
468 14-12-2014 21:11:17 0.1 C 95 %
469 14-12-2014 21:23:17 -0.1 C 95 %
470 14-12-2014 21:35:17 0.2 C 95 %
471 14-12-2014 21:47:17 0.4 C 95 %
472 14-12-2014 21:59:17 0.7 C 95 %
473 14-12-2014 22:11:17 0.8 C 95 %
474 14-12-2014 22:23:17 1 C 95 %
475 14-12-2014 22:35:17 1 C 95 %
Sensor: Nr:Datum:Temp:Feuchte:
Aussen-T/F 476 14-12-2014 22:47:17 1.2 C 95 %
477 14-12-2014 22:59:17 1.3 C 95 %
478 14-12-2014 23:11:17 1.3 C 95 %
479 14-12-2014 23:23:17 1.3 C 95 %
480 14-12-2014 23:35:17 1.5 C 95 %
481 14-12-2014 23:47:17 1.5 C 95 %
482 14-12-2014 23:59:17 1.5 C 95 %
483 15-12-2014 00:11:17 1.4 C 95 %
484 15-12-2014 00:23:17 1.3 C 95 %
485 15-12-2014 00:35:17 1.4 C 95 %
486 15-12-2014 00:47:17 1.4 C 95 %
487 15-12-2014 00:59:17 1.4 C 95 %
488 15-12-2014 01:11:17 1.5 C 95 %
489 15-12-2014 01:23:17 1.2 C 95 %
490 15-12-2014 01:35:17 0.9 C 95 %
491 15-12-2014 01:47:17 0.6 C 95 %
492 15-12-2014 01:59:17 0.7 C 95 %
493 15-12-2014 02:11:17 0.6 C 95 %
494 15-12-2014 02:23:17 0.7 C 95 %
495 15-12-2014 02:35:17 0.8 C 95 %
496 15-12-2014 02:47:17 1 C 95 %
497 15-12-2014 02:59:17 1 C 95 %
498 15-12-2014 03:11:17 1.1 C 95 %
499 15-12-2014 03:23:17 1 C 95 %
500 15-12-2014 03:35:17 1.3 C 95 %
Sensor: Nr:Datum:Temp:Feuchte:
Aussen-T/F 501 15-12-2014 03:47:17 1.3 C 95 %
502 15-12-2014 03:59:17 1.5 C 95 %
503 15-12-2014 04:11:17 1.4 C 95 %
504 15-12-2014 04:23:17 1.3 C 95 %
505 15-12-2014 04:35:17 1.2 C 95 %
506 15-12-2014 04:47:16 1.3 C 95 %
507 15-12-2014 04:59:17 1.2 C 95 %
508 15-12-2014 05:11:17 0.7 C 95 %
509 15-12-2014 05:23:17 0.6 C 95 %
510 15-12-2014 05:35:18 0.5 C 95 %
511 15-12-2014 05:47:17 0.3 C 95 %
512 15-12-2014 05:59:17 0.3 C 95 %
513 15-12-2014 06:11:17 0.1 C 95 %
514 15-12-2014 06:23:17 -0.1 C 95 %
515 15-12-2014 06:35:17 -0.3 C 95 %
516 15-12-2014 06:47:17 -0.3 C 95 %
517 15-12-2014 06:59:17 -0.4 C 95 %
518 15-12-2014 07:11:17 0.1 C 95 %
519 15-12-2014 07:23:17 0.4 C 95 %
520 15-12-2014 07:35:17 0.5 C 95 %
521 15-12-2014 07:47:17 0.6 C 95 %
522 15-12-2014 07:59:17 0.7 C 95 %
523 15-12-2014 08:11:17 0.7 C 95 %
524 15-12-2014 08:23:17 0.7 C 95 %
525 15-12-2014 08:35:17 0.7 C 95 %
Sensor: Nr:Datum:Temp:Feuchte:
Aussen-T/F 526 15-12-2014 08:47:17 0.9 C 95 %
527 15-12-2014 08:59:17 1.2 C 94 %
528 15-12-2014 09:11:17 1.5 C 94 %
529 15-12-2014 09:23:17 1.7 C 92 %
530 15-12-2014 09:35:17 1.8 C 89 %
531 15-12-2014 09:47:17 2.2 C 85 %
532 15-12-2014 09:59:17 2.4 C 83 %
533 15-12-2014 10:11:17 2.6 C 81 %
534 15-12-2014 10:23:17 2.5 C 81 %
535 15-12-2014 10:35:17 2.7 C 79 %
536 15-12-2014 10:47:17 3 C 78 %
537 15-12-2014 10:59:17 3.5 C 77 %
538 15-12-2014 11:11:17 3.7 C 77 %
539 15-12-2014 11:23:17 4 C 75 %
540 15-12-2014 11:35:17 4 C 75 %
541 15-12-2014 11:47:17 4 C 76 %
542 15-12-2014 11:59:17 3.9 C 77 %
543 15-12-2014 12:11:17 3.8 C 77 %
544 15-12-2014 12:23:17 3.9 C 76 %
545 15-12-2014 12:35:17 3.9 C 77 %
546 15-12-2014 12:47:17 3.9 C 77 %
547 15-12-2014 12:59:17 3.9 C 78 %
548 15-12-2014 13:11:17 3.6 C 79 %
549 15-12-2014 13:23:17 3.3 C 83 %
550 15-12-2014 13:35:17 3.2 C 85 %
Sensor: Nr:Datum:Temp:Feuchte:
Aussen-T/F 551 15-12-2014 13:47:17 3.3 C 86 %
552 15-12-2014 13:59:17 3.4 C 87 %
553 15-12-2014 14:11:17 3.4 C 86 %
554 15-12-2014 14:23:17 3.5 C 85 %
555 15-12-2014 14:35:17 3.6 C 85 %
556 15-12-2014 14:47:17 3.7 C 84 %
557 15-12-2014 14:59:17 3.7 C 84 %
558 15-12-2014 15:11:17 3.8 C 83 %
559 15-12-2014 15:23:17 3.8 C 83 %
560 15-12-2014 15:35:17 3.9 C 82 %
561 15-12-2014 15:47:17 3.8 C 83 %
562 15-12-2014 15:59:17 3.9 C 83 %
563 15-12-2014 16:11:17 3.9 C 83 %
564 15-12-2014 16:23:17 4 C 82 %
565 15-12-2014 16:35:17 3.8 C 84 %
566 15-12-2014 16:59:17 3.9 C 84 %
567 15-12-2014 16:59:17 3.9 C 85 %
568 15-12-2014 17:11:18 3.8 C 85 %
569 15-12-2014 17:23:17 4 C 85 %
570 15-12-2014 17:35:17 3.9 C 86 %
571 15-12-2014 17:47:17 3.9 C 87 %
572 15-12-2014 17:59:17 4 C 86 %
573 15-12-2014 18:11:17 4 C 86 %
574 15-12-2014 18:23:17 4 C 86 %
575 15-12-2014 18:35:17 4 C 87 %
Sensor: Nr:Datum:Temp:Feuchte:
Aussen-T/F 576 15-12-2014 18:48:17 4.1 C 87 %
577 15-12-2014 18:59:17 4.2 C 87 %
578 15-12-2014 19:11:17 4.1 C 87 %
579 15-12-2014 19:23:17 4.2 C 87 %
580 15-12-2014 19:35:17 4.2 C 86 %
581 15-12-2014 19:59:17 4.2 C 87 %
582 15-12-2014 19:59:17 4.2 C 87 %
583 15-12-2014 20:11:17 4.3 C 87 %
584 15-12-2014 20:23:17 4.3 C 87 %
585 15-12-2014 20:35:17 4.2 C 87 %
586 15-12-2014 20:48:17 4.2 C 88 %
587 15-12-2014 20:59:17 4.1 C 88 %
588 15-12-2014 21:11:17 4.2 C 89 %
589 15-12-2014 21:24:17 4.2 C 89 %
590 15-12-2014 21:36:17 4.2 C 90 %
591 15-12-2014 21:47:17 4.2 C 90 %
592 15-12-2014 21:59:17 4.2 C 91 %
593 15-12-2014 22:11:17 4.2 C 91 %
594 15-12-2014 22:23:17 4.2 C 91 %
595 15-12-2014 22:36:17 4.2 C 92 %
596 15-12-2014 22:59:17 4.2 C 92 %
597 15-12-2014 22:59:17 4.2 C 92 %
598 15-12-2014 23:11:18 4 C 93 %
599 15-12-2014 23:23:17 4 C 93 %
600 15-12-2014 23:35:17 4.3 C 93 %
Sensor: Nr:Datum:Temp:Feuchte:
Aussen-T/F 601 15-12-2014 23:47:17 4.2 C 94 %
602 15-12-2014 23:59:17 4.2 C 94 %
603 16-12-2014 00:11:17 4.2 C 94 %
604 16-12-2014 00:23:17 4.2 C 94 %
605 16-12-2014 00:35:17 4.1 C 95 %
606 16-12-2014 00:59:17 4 C 95 %
607 16-12-2014 01:00:17 4.1 C 95 %
608 16-12-2014 01:12:17 4.2 C 95 %
609 16-12-2014 01:24:16 4.2 C 95 %
610 16-12-2014 01:36:17 4.3 C 95 %
611 16-12-2014 01:48:17 4.4 C 95 %
612 16-12-2014 02:00:17 4.4 C 95 %
613 16-12-2014 02:12:17 4.5 C 95 %
614 16-12-2014 02:24:17 4.5 C 95 %
615 16-12-2014 02:36:17 4.6 C 95 %
616 16-12-2014 02:48:17 4.6 C 95 %
617 16-12-2014 03:00:17 4.7 C 95 %
618 16-12-2014 03:12:17 4.8 C 95 %
619 16-12-2014 03:24:17 4.8 C 95 %
620 16-12-2014 03:36:17 4.8 C 95 %
621 16-12-2014 03:48:17 4.8 C 95 %
622 16-12-2014 04:00:17 4.6 C 95 %
623 16-12-2014 04:12:17 4.9 C 95 %
624 16-12-2014 04:24:17 5 C 95 %
625 16-12-2014 04:36:17 5.1 C 95 %
Sensor: Nr:Datum:Temp:Feuchte:
Aussen-T/F 626 16-12-2014 04:48:17 5.1 C 95 %
627 16-12-2014 05:00:17 5.1 C 95 %
628 16-12-2014 05:12:17 5.2 C 94 %
629 16-12-2014 05:24:17 5.3 C 94 %
630 16-12-2014 05:36:17 5.3 C 94 %
631 16-12-2014 05:48:17 5.4 C 94 %
632 16-12-2014 06:00:17 5.4 C 93 %
633 16-12-2014 06:12:17 5.3 C 93 %
634 16-12-2014 06:24:17 5.3 C 93 %
635 16-12-2014 06:36:17 5.3 C 93 %
636 16-12-2014 06:48:17 5.4 C 93 %
637 16-12-2014 07:00:17 5.6 C 93 %
638 16-12-2014 07:12:17 5.6 C 92 %
639 16-12-2014 07:24:17 5.5 C 91 %
640 16-12-2014 07:36:17 5.6 C 91 %
641 16-12-2014 07:48:17 5.6 C 90 %
642 16-12-2014 08:00:17 5.6 C 89 %
643 16-12-2014 08:12:17 5.6 C 88 %
644 16-12-2014 08:24:17 5.4 C 88 %
645 16-12-2014 08:36:17 5.2 C 88 %
646 16-12-2014 08:48:17 5.6 C 89 %
647 16-12-2014 09:00:17 6 C 87 %
648 16-12-2014 09:12:17 6.1 C 86 %
649 16-12-2014 09:24:16 6.2 C 84 %
650 16-12-2014 09:36:17 6.2 C 83 %
Sensor: Nr:Datum:Temp:Feuchte:
Aussen-T/F 651 16-12-2014 09:48:17 6.3 C 83 %
652 16-12-2014 10:00:17 6.4 C 82 %
653 16-12-2014 10:12:17 6.7 C 81 %
654 16-12-2014 10:24:17 6.7 C 80 %
655 16-12-2014 10:36:17 6.8 C 79 %
656 16-12-2014 10:48:17 6.9 C 78 %
657 16-12-2014 11:00:17 7 C 76 %
658 16-12-2014 11:12:17 7.1 C 75 %
659 16-12-2014 11:24:17 7.2 C 76 %
660 16-12-2014 11:36:17 7.2 C 76 %
661 16-12-2014 11:48:17 7.2 C 76 %
662 16-12-2014 12:00:17 7.1 C 76 %
663 16-12-2014 12:12:17 7.1 C 76 %
664 16-12-2014 12:24:17 7.1 C 78 %
665 16-12-2014 12:36:17 6.8 C 82 %
666 16-12-2014 12:48:16 6.7 C 84 %
667 16-12-2014 13:00:17 6.7 C 86 %
668 16-12-2014 13:12:17 6.7 C 87 %
669 16-12-2014 13:24:17 6.9 C 88 %
670 16-12-2014 13:36:17 6.9 C 88 %
671 16-12-2014 13:48:17 6.8 C 87 %
672 16-12-2014 14:00:17 6.8 C 86 %
673 16-12-2014 14:12:17 6.8 C 85 %
674 16-12-2014 14:24:17 7 C 82 %
675 16-12-2014 14:36:18 6.9 C 81 %
Sensor: Nr:Datum:Temp:Feuchte:
Aussen-T/F 676 16-12-2014 14:48:17 6.8 C 80 %
677 16-12-2014 15:00:17 6.8 C 79 %
678 16-12-2014 15:12:17 6.7 C 76 %
679 16-12-2014 15:24:17 6.7 C 75 %
680 16-12-2014 15:36:17 6.7 C 72 %
681 16-12-2014 15:48:17 6.4 C 69 %
682 16-12-2014 16:00:17 5.9 C 69 %
683 16-12-2014 16:12:17 4.9 C 73 %
684 16-12-2014 16:24:17 4.8 C 78 %
685 16-12-2014 16:36:17 4.7 C 79 %
686 16-12-2014 16:48:17 5.2 C 76 %
687 16-12-2014 17:00:17 5.2 C 75 %
688 16-12-2014 17:12:17 5.2 C 76 %
689 16-12-2014 17:24:17 5.2 C 77 %
690 16-12-2014 17:36:17 5.1 C 77 %
691 16-12-2014 17:48:17 5.2 C 76 %
692 16-12-2014 18:00:17 5.2 C 75 %
693 16-12-2014 18:12:17 5.1 C 75 %
694 16-12-2014 18:24:17 5 C 76 %
695 16-12-2014 18:36:17 5 C 76 %
696 16-12-2014 18:48:17 5.1 C 77 %
697 16-12-2014 19:00:17 5.1 C 75 %
698 16-12-2014 19:12:17 4.8 C 77 %
699 16-12-2014 19:24:16 5.2 C 75 %
700 16-12-2014 19:36:17 5.1 C 73 %
Sensor: Nr:Datum:Temp:Feuchte:
Aussen-T/F 701 16-12-2014 19:48:17 4.8 C 75 %
702 16-12-2014 20:00:17 4.8 C 77 %
703 16-12-2014 20:12:17 4.8 C 77 %
704 16-12-2014 20:24:17 4.6 C 77 %
705 16-12-2014 20:36:17 4.3 C 79 %
706 16-12-2014 20:48:17 4.2 C 80 %
707 16-12-2014 21:00:17 4.1 C 81 %
708 16-12-2014 21:12:17 4 C 83 %
709 16-12-2014 21:24:17 4 C 84 %
710 16-12-2014 21:36:17 4 C 84 %
711 16-12-2014 21:48:17 3.7 C 84 %
712 16-12-2014 22:00:17 3.6 C 85 %
713 16-12-2014 22:12:17 3.5 C 86 %
714 16-12-2014 22:24:17 3.9 C 86 %
715 16-12-2014 22:36:17 4.2 C 84 %
716 16-12-2014 22:48:17 4.3 C 83 %
717 16-12-2014 23:00:17 4 C 83 %
718 16-12-2014 23:12:17 3.5 C 84 %
719 16-12-2014 23:24:17 3.6 C 85 %
720 16-12-2014 23:36:17 3.7 C 86 %
721 16-12-2014 23:48:17 3.8 C 86 %
722 17-12-2014 00:00:17 4 C 84 %
723 17-12-2014 00:12:17 4 C 85 %
724 17-12-2014 00:24:17 3.9 C 86 %
725 17-12-2014 00:36:17 4 C 85 %
Sensor: Nr:Datum:Temp:Feuchte:
Aussen-T/F 726 17-12-2014 00:48:17 3.9 C 86 %
727 17-12-2014 01:00:17 3.9 C 86 %
728 17-12-2014 01:12:17 3.9 C 85 %
729 17-12-2014 01:24:17 3.7 C 84 %
730 17-12-2014 01:36:17 3.6 C 84 %
731 17-12-2014 01:48:17 3.3 C 84 %
732 17-12-2014 02:00:17 3.3 C 84 %
733 17-12-2014 02:12:17 2.9 C 85 %
734 17-12-2014 02:24:17 3 C 85 %
735 17-12-2014 02:36:17 2.8 C 87 %
736 17-12-2014 02:48:17 2.7 C 87 %
737 17-12-2014 03:00:17 2.4 C 87 %
738 17-12-2014 03:12:17 2.3 C 88 %
739 17-12-2014 03:24:17 2 C 89 %
740 17-12-2014 03:36:17 2 C 89 %
741 17-12-2014 03:48:17 2.1 C 90 %
742 17-12-2014 04:00:17 2.2 C 90 %
743 17-12-2014 04:12:17 2 C 91 %
744 17-12-2014 04:24:17 2 C 91 %
745 17-12-2014 04:36:17 2 C 91 %
746 17-12-2014 04:48:17 2.2 C 92 %
747 17-12-2014 05:00:17 2.5 C 92 %
748 17-12-2014 05:12:17 2.7 C 93 %
749 17-12-2014 05:24:17 2.9 C 93 %
750 17-12-2014 05:36:17 3.2 C 92 %
Sensor: Nr:Datum:Temp:Feuchte:
Aussen-T/F 751 17-12-2014 05:48:17 3.3 C 92 %
752 17-12-2014 06:00:17 3.4 C 92 %
753 17-12-2014 06:12:17 3.5 C 91 %
754 17-12-2014 06:24:17 3.8 C 91 %
755 17-12-2014 06:36:17 3.8 C 89 %
756 17-12-2014 06:48:17 3.8 C 89 %
757 17-12-2014 07:00:17 3.9 C 88 %
758 17-12-2014 07:12:17 4.1 C 86 %
759 17-12-2014 07:24:17 4 C 85 %
760 17-12-2014 07:36:17 4 C 84 %
761 17-12-2014 07:48:17 4.3 C 83 %
762 17-12-2014 08:00:17 4.1 C 83 %
763 17-12-2014 08:12:17 4.2 C 82 %
764 17-12-2014 08:24:17 4.3 C 82 %
765 17-12-2014 08:36:17 4.3 C 82 %
766 17-12-2014 08:48:17 4.3 C 81 %
767 17-12-2014 09:00:17 4.6 C 79 %
768 17-12-2014 09:12:17 4.8 C 78 %
769 17-12-2014 09:24:17 4.8 C 78 %
770 17-12-2014 09:36:17 4.7 C 79 %
771 17-12-2014 09:48:17 4.7 C 80 %
772 17-12-2014 10:00:17 4.7 C 80 %
773 17-12-2014 10:12:17 4.9 C 80 %
774 17-12-2014 10:24:17 5 C 79 %
775 17-12-2014 10:36:17 5.2 C 78 %
Sensor: Nr:Datum:Temp:Feuchte:
Aussen-T/F 776 17-12-2014 10:48:17 5.3 C 77 %
777 17-12-2014 11:00:17 5.4 C 76 %
778 17-12-2014 11:12:17 5.3 C 76 %
779 17-12-2014 11:24:17 5.4 C 76 %
780 17-12-2014 11:36:17 5.3 C 76 %
781 17-12-2014 11:48:17 5.2 C 78 %
782 17-12-2014 12:00:17 5.1 C 80 %
783 17-12-2014 12:12:17 5 C 82 %
784 17-12-2014 12:24:16 5 C 83 %
785 17-12-2014 12:36:17 5 C 84 %
786 17-12-2014 12:48:17 5.1 C 84 %
787 17-12-2014 13:00:17 5.1 C 85 %
788 17-12-2014 13:12:17 5.2 C 86 %
789 17-12-2014 13:24:17 5.2 C 86 %
790 17-12-2014 13:36:17 5.3 C 87 %
791 17-12-2014 13:48:17 5.4 C 87 %
792 17-12-2014 14:00:17 5.6 C 87 %
793 17-12-2014 14:12:17 5.6 C 87 %
794 17-12-2014 14:24:17 5.7 C 87 %
795 17-12-2014 14:36:17 5.8 C 87 %
796 17-12-2014 14:48:17 5.9 C 87 %
797 17-12-2014 15:00:17 6 C 86 %
798 17-12-2014 15:12:17 6 C 85 %
799 17-12-2014 15:24:17 6 C 85 %
800 17-12-2014 15:36:17 6.2 C 85 %
Sensor: Nr:Datum:Temp:Feuchte:
Aussen-T/F 801 17-12-2014 15:48:17 6.3 C 85 %
802 17-12-2014 16:00:17 6.2 C 85 %
803 17-12-2014 16:12:17 6.2 C 86 %
804 17-12-2014 16:24:17 6.3 C 86 %
805 17-12-2014 16:36:17 6.3 C 87 %
806 17-12-2014 16:48:16 6.3 C 87 %
807 17-12-2014 17:00:17 6.6 C 88 %
808 17-12-2014 17:12:17 6.8 C 87 %
809 17-12-2014 17:24:17 6.8 C 86 %
810 17-12-2014 17:36:17 6.9 C 86 %
811 17-12-2014 17:48:17 6.9 C 86 %
812 17-12-2014 18:00:17 7.1 C 84 %
813 17-12-2014 18:12:17 7.1 C 84 %
814 17-12-2014 18:24:17 7.1 C 84 %
815 17-12-2014 18:36:17 7.1 C 84 %
816 17-12-2014 18:48:17 7.2 C 84 %
817 17-12-2014 19:00:17 7.1 C 85 %
818 17-12-2014 19:12:17 7.1 C 86 %
819 17-12-2014 19:24:17 7.2 C 86 %
820 17-12-2014 19:36:17 7.2 C 87 %
821 17-12-2014 19:48:17 7.3 C 87 %
822 17-12-2014 20:00:17 7.4 C 87 %
823 17-12-2014 20:12:17 7.5 C 86 %
824 17-12-2014 20:24:17 7.6 C 86 %
825 17-12-2014 20:36:17 7.7 C 86 %
Sensor: Nr:Datum:Temp:Feuchte:
Aussen-T/F 826 17-12-2014 20:48:17 7.7 C 86 %
827 17-12-2014 21:00:17 7.8 C 87 %
828 17-12-2014 21:12:17 7.9 C 86 %
829 17-12-2014 21:24:17 7.9 C 86 %
830 17-12-2014 21:36:17 8 C 85 %
831 17-12-2014 21:48:17 8 C 85 %
832 17-12-2014 22:00:17 8 C 85 %
833 17-12-2014 22:12:17 8.2 C 85 %
834 17-12-2014 22:24:17 8.1 C 85 %
835 17-12-2014 22:36:17 7.9 C 86 %
836 17-12-2014 22:48:17 8.3 C 86 %
837 17-12-2014 23:00:17 8.1 C 85 %
838 17-12-2014 23:12:17 8.3 C 86 %
839 17-12-2014 23:24:17 8.4 C 86 %
840 17-12-2014 23:36:17 8.5 C 86 %
841 17-12-2014 23:48:17 8.5 C 85 %
842 18-12-2014 00:00:17 8.7 C 86 %
843 18-12-2014 00:12:17 9 C 84 %
844 18-12-2014 00:24:17 8.9 C 84 %
845 18-12-2014 00:36:17 8.9 C 85 %
846 18-12-2014 00:48:17 8.7 C 86 %
847 18-12-2014 01:00:17 8.7 C 86 %
848 18-12-2014 01:12:17 8.7 C 87 %
849 18-12-2014 01:24:17 8.6 C 88 %
850 18-12-2014 01:36:17 8.6 C 89 %
Sensor: Nr:Datum:Temp:Feuchte:
Aussen-T/F 851 18-12-2014 01:48:17 8.5 C 89 %
852 18-12-2014 02:00:17 8.5 C 90 %
853 18-12-2014 02:12:17 8.4 C 90 %
854 18-12-2014 02:24:17 8.6 C 91 %
855 18-12-2014 02:36:17 9 C 90 %
856 18-12-2014 02:48:17 9.1 C 89 %
857 18-12-2014 03:00:17 9.2 C 89 %
858 18-12-2014 03:12:17 9 C 88 %
859 18-12-2014 03:24:16 9 C 88 %
860 18-12-2014 03:36:17 9.3 C 88 %
861 18-12-2014 03:48:17 9.4 C 88 %
862 18-12-2014 04:00:17 9.2 C 87 %
863 18-12-2014 04:12:17 9.1 C 87 %
864 18-12-2014 04:24:17 9.1 C 88 %
865 18-12-2014 04:36:17 9 C 88 %
866 18-12-2014 04:48:17 9 C 88 %
867 18-12-2014 05:00:17 9.1 C 88 %
868 18-12-2014 05:12:17 9.2 C 88 %
869 18-12-2014 05:24:17 9.2 C 88 %
870 18-12-2014 05:36:17 9.2 C 88 %
871 18-12-2014 05:48:17 9.2 C 89 %
872 18-12-2014 06:00:17 9.1 C 90 %
873 18-12-2014 06:12:17 9.1 C 90 %
874 18-12-2014 06:24:17 9.2 C 91 %
875 18-12-2014 06:36:17 9.2 C 91 %
Sensor: Nr:Datum:Temp:Feuchte:
Aussen-T/F 876 18-12-2014 06:48:17 9.3 C 92 %
877 18-12-2014 07:00:17 9.3 C 92 %
878 18-12-2014 07:12:17 9.4 C 92 %
879 18-12-2014 07:24:17 9.6 C 92 %
880 18-12-2014 07:36:17 9.7 C 93 %
881 18-12-2014 07:48:17 9.8 C 92 %
882 18-12-2014 08:00:17 9.8 C 92 %
883 18-12-2014 08:12:17 10 C 90 %
884 18-12-2014 08:24:17 9.9 C 90 %
885 18-12-2014 08:36:17 10.2 C 88 %
886 18-12-2014 08:48:17 10.5 C 87 %
887 18-12-2014 09:00:17 10.5 C 84 %
888 18-12-2014 09:12:17 10.5 C 83 %
889 18-12-2014 09:24:17 10.7 C 83 %
890 18-12-2014 09:36:17 11.1 C 81 %
891 18-12-2014 09:48:17 11.1 C 80 %
892 18-12-2014 10:00:17 11.2 C 80 %
893 18-12-2014 10:12:17 11.4 C 79 %
894 18-12-2014 10:24:17 11.6 C 78 %
895 18-12-2014 10:36:17 11.6 C 78 %
896 18-12-2014 10:48:17 11.6 C 78 %
897 18-12-2014 11:00:17 11.7 C 79 %
898 18-12-2014 11:12:17 11.8 C 79 %
899 18-12-2014 11:24:17 11.7 C 79 %
900 18-12-2014 11:36:17 11.9 C 79 %
Sensor: Nr:Datum:Temp:Feuchte:
Aussen-T/F 901 18-12-2014 11:48:17 11.9 C 79 %
902 18-12-2014 12:00:17 12 C 78 %
903 18-12-2014 12:12:17 11.8 C 81 %
904 18-12-2014 12:24:17 11.7 C 82 %
905 18-12-2014 12:36:17 11.8 C 82 %
906 18-12-2014 12:48:17 12.1 C 80 %
907 18-12-2014 13:00:17 12.5 C 79 %
908 18-12-2014 13:12:17 12.9 C 76 %
909 18-12-2014 13:24:17 13 C 73 %
910 18-12-2014 13:36:17 13 C 72 %
911 18-12-2014 13:48:17 12.9 C 73 %
912 18-12-2014 14:00:17 12.7 C 74 %
913 18-12-2014 14:12:17 12.9 C 74 %
914 18-12-2014 14:24:17 13 C 73 %
915 18-12-2014 14:36:17 12.8 C 73 %
916 18-12-2014 14:48:17 13 C 72 %
917 18-12-2014 15:00:17 12.6 C 74 %
918 18-12-2014 15:12:17 12.8 C 74 %
919 18-12-2014 15:24:17 12.5 C 75 %
920 18-12-2014 15:36:17 12.6 C 75 %
921 18-12-2014 15:48:17 12.7 C 75 %
922 18-12-2014 16:00:17 12.9 C 75 %
923 18-12-2014 16:12:17 13 C 74 %
924 18-12-2014 16:24:17 12.8 C 75 %
925 18-12-2014 16:36:17 12.8 C 75 %
Sensor: Nr:Datum:Temp:Feuchte:
Aussen-T/F 926 18-12-2014 16:48:17 12.8 C 75 %
927 18-12-2014 17:00:17 13 C 74 %
928 18-12-2014 17:12:17 13 C 74 %
929 18-12-2014 17:24:17 13 C 75 %
930 18-12-2014 17:36:17 13.1 C 75 %
931 18-12-2014 17:48:17 13.1 C 74 %
932 18-12-2014 18:00:17 13.3 C 74 %
933 18-12-2014 18:12:17 13.3 C 74 %
934 18-12-2014 18:24:17 13.1 C 74 %
935 18-12-2014 18:36:17 13.2 C 73 %
936 18-12-2014 18:48:17 13.3 C 73 %
937 18-12-2014 19:00:17 13.3 C 73 %
938 18-12-2014 19:12:17 13.4 C 73 %
939 18-12-2014 19:24:17 13.3 C 73 %
940 18-12-2014 19:36:17 13.2 C 72 %
941 18-12-2014 19:48:17 13.4 C 71 %
942 18-12-2014 20:00:17 13.1 C 71 %
943 18-12-2014 20:12:17 13.1 C 68 %
944 18-12-2014 20:24:17 13 C 64 %
945 18-12-2014 20:36:17 12.8 C 64 %
946 18-12-2014 20:48:17 12.9 C 63 %
947 18-12-2014 21:00:17 12.5 C 65 %
948 18-12-2014 21:12:17 12.7 C 67 %
949 18-12-2014 21:24:17 12.6 C 66 %
950 18-12-2014 21:36:17 12.4 C 66 %
Sensor: Nr:Datum:Temp:Feuchte:
Aussen-T/F 951 18-12-2014 21:48:17 12.5 C 66 %
952 18-12-2014 22:00:17 12.4 C 66 %
953 18-12-2014 22:12:17 12.2 C 67 %
954 18-12-2014 22:24:17 12.2 C 68 %
955 18-12-2014 22:36:17 12.2 C 68 %
956 18-12-2014 22:48:17 12.1 C 69 %
957 18-12-2014 23:00:17 12.1 C 70 %
958 18-12-2014 23:12:18 12 C 70 %
959 18-12-2014 23:24:17 12.1 C 70 %
960 18-12-2014 23:36:17 12 C 70 %
961 18-12-2014 23:48:17 11.9 C 71 %
962 19-12-2014 00:00:17 12.1 C 70 %
963 19-12-2014 00:12:17 11.9 C 71 %
964 19-12-2014 00:24:17 11.9 C 71 %
965 19-12-2014 00:36:17 11.7 C 72 %
966 19-12-2014 00:48:17 11.7 C 72 %
967 19-12-2014 01:00:17 11.8 C 72 %
968 19-12-2014 01:12:17 11.7 C 72 %
969 19-12-2014 01:24:17 11.6 C 72 %
970 19-12-2014 01:36:17 11.6 C 72 %
971 19-12-2014 01:48:17 11.5 C 73 %
972 19-12-2014 02:00:17 11.2 C 74 %
973 19-12-2014 02:12:17 11.1 C 75 %
974 19-12-2014 02:24:17 11.2 C 75 %
975 19-12-2014 02:36:17 11.2 C 75 %
Sensor: Nr:Datum:Temp:Feuchte:
Aussen-T/F 976 19-12-2014 02:48:17 11.4 C 73 %
977 19-12-2014 03:00:17 11.4 C 73 %
978 19-12-2014 03:12:17 11.5 C 72 %
979 19-12-2014 03:24:17 11.5 C 71 %
980 19-12-2014 03:36:17 11.6 C 70 %
981 19-12-2014 03:48:17 11.5 C 70 %
982 19-12-2014 04:00:17 11.6 C 70 %
983 19-12-2014 04:12:17 11.5 C 70 %
984 19-12-2014 04:24:17 11.7 C 70 %
985 19-12-2014 04:36:17 11.4 C 70 %
986 19-12-2014 04:48:17 11.5 C 71 %
987 19-12-2014 05:00:17 11.4 C 71 %
988 19-12-2014 05:12:17 11.4 C 70 %
989 19-12-2014 05:24:17 11.4 C 70 %
990 19-12-2014 05:36:17 11.3 C 70 %
991 19-12-2014 05:48:17 11.1 C 70 %
992 19-12-2014 06:00:17 11.2 C 69 %
993 19-12-2014 06:12:17 11.1 C 70 %
994 19-12-2014 06:24:17 11 C 70 %
995 19-12-2014 06:36:17 11 C 71 %
996 19-12-2014 06:48:17 10.8 C 72 %
997 19-12-2014 07:00:17 10.8 C 73 %
998 19-12-2014 07:12:17 10.9 C 72 %
999 19-12-2014 07:24:17 10.9 C 72 %
1000 19-12-2014 07:36:17 11 C 72 %
Sensor: Nr:Datum:Temp:Feuchte:
Aussen-T/F 1001 19-12-2014 07:48:17 10.8 C 73 %
1002 19-12-2014 08:00:17 10.7 C 73 %
1003 19-12-2014 08:12:17 10.8 C 73 %
1004 19-12-2014 08:24:17 10.8 C 73 %
1005 19-12-2014 08:36:17 10.9 C 72 %
1006 19-12-2014 08:48:17 11 C 71 %
1007 19-12-2014 09:00:17 11 C 70 %
1008 19-12-2014 09:12:17 11.1 C 70 %
1009 19-12-2014 09:24:17 11.2 C 70 %
1010 19-12-2014 09:36:17 11.2 C 70 %
1011 19-12-2014 09:48:17 11.3 C 69 %
1012 19-12-2014 10:00:17 11.4 C 69 %
1013 19-12-2014 10:12:17 11.4 C 69 %
1014 19-12-2014 10:24:17 11.4 C 70 %
1015 19-12-2014 10:36:17 11.3 C 70 %
1016 19-12-2014 10:48:17 11.4 C 70 %
1017 19-12-2014 11:00:17 11.4 C 71 %
1018 19-12-2014 11:12:17 11.2 C 73 %
1019 19-12-2014 11:24:17 11 C 74 %
1020 19-12-2014 11:36:17 11 C 75 %
1021 19-12-2014 11:48:17 11 C 74 %
1022 19-12-2014 12:00:17 11 C 74 %
1023 19-12-2014 12:12:17 11.3 C 74 %
1024 19-12-2014 12:24:17 11.4 C 73 %
1025 19-12-2014 12:36:17 11.5 C 73 %
Sensor: Nr:Datum:Temp:Feuchte:
Aussen-T/F 1026 19-12-2014 12:48:17 11.4 C 73 %
1027 19-12-2014 13:00:17 11.5 C 73 %
1028 19-12-2014 13:12:17 11.5 C 73 %
1029 19-12-2014 13:24:17 11.4 C 73 %
1030 19-12-2014 13:36:17 11.5 C 73 %
1031 19-12-2014 13:48:17 11.5 C 73 %
1032 19-12-2014 14:00:17 11.5 C 73 %
1033 19-12-2014 14:12:17 11.5 C 73 %
1034 19-12-2014 14:24:17 11.6 C 73 %
1035 19-12-2014 14:36:17 11.6 C 73 %
1036 19-12-2014 14:48:16 11.7 C 72 %
1037 19-12-2014 15:00:17 11.7 C 72 %
1038 19-12-2014 15:12:17 11.6 C 73 %
1039 19-12-2014 15:24:17 11.4 C 74 %
1040 19-12-2014 15:36:17 11.4 C 75 %
1041 19-12-2014 15:48:17 11.3 C 76 %
1042 19-12-2014 16:00:17 10.8 C 79 %
1043 19-12-2014 16:12:17 9.7 C 82 %
1044 19-12-2014 16:24:17 9.5 C 84 %
1045 19-12-2014 16:36:17 9.2 C 86 %
1046 19-12-2014 16:48:17 8.7 C 86 %
1047 19-12-2014 17:00:17 8.4 C 85 %
1048 19-12-2014 17:12:17 8 C 84 %
1049 19-12-2014 17:24:17 7.8 C 85 %
1050 19-12-2014 17:36:17 7.8 C 86 %
Sensor: Nr:Datum:Temp:Feuchte:
Aussen-T/F 1051 19-12-2014 17:48:17 7.9 C 85 %
1052 19-12-2014 18:00:17 7.8 C 82 %
1053 19-12-2014 18:12:17 7.8 C 81 %
1054 19-12-2014 18:24:17 7.5 C 81 %
1055 19-12-2014 18:36:17 7.4 C 82 %
1056 19-12-2014 18:48:17 7.6 C 82 %
1057 19-12-2014 19:00:17 7.7 C 78 %
1058 19-12-2014 19:12:18 7.9 C 74 %
1059 19-12-2014 19:24:17 7.6 C 75 %
1060 19-12-2014 19:36:17 7.6 C 72 %
1061 19-12-2014 19:48:17 7.4 C 70 %
1062 19-12-2014 20:00:17 6.8 C 73 %
1063 19-12-2014 20:12:17 6 C 75 %
1064 19-12-2014 20:24:17 6.4 C 74 %
1065 19-12-2014 20:36:17 5.9 C 76 %
1066 19-12-2014 20:48:17 5.4 C 78 %
1067 19-12-2014 21:00:17 5.4 C 79 %
1068 19-12-2014 21:12:17 5.6 C 79 %
1069 19-12-2014 21:24:17 6.2 C 74 %
1070 19-12-2014 21:36:17 6 C 72 %
1071 19-12-2014 21:48:17 5.7 C 74 %
1072 19-12-2014 22:00:18 5.8 C 73 %
1073 19-12-2014 22:12:18 5.9 C 71 %
1074 19-12-2014 22:24:17 5.7 C 72 %
1075 19-12-2014 22:36:17 5.6 C 72 %
Sensor: Nr:Datum:Temp:Feuchte:
Aussen-T/F 1076 19-12-2014 22:48:17 5.4 C 73 %
1077 19-12-2014 23:00:17 5.2 C 75 %
1078 19-12-2014 23:12:17 4.8 C 78 %
1079 19-12-2014 23:24:17 4.5 C 81 %
1080 19-12-2014 23:36:17 4.5 C 81 %
1081 19-12-2014 23:48:17 4.7 C 79 %
1082 20-12-2014 00:00:17 4.3 C 79 %
1083 20-12-2014 00:12:17 4.2 C 81 %
1084 20-12-2014 00:24:17 3.8 C 83 %
1085 20-12-2014 00:36:17 3.7 C 84 %
1086 20-12-2014 00:48:17 3.4 C 86 %
1087 20-12-2014 01:00:17 3.6 C 87 %
1088 20-12-2014 01:12:17 3.8 C 88 %
1089 20-12-2014 01:24:17 4.2 C 86 %
1090 20-12-2014 01:36:17 4.2 C 83 %
1091 20-12-2014 01:48:17 4.2 C 82 %
1092 20-12-2014 02:00:17 4.1 C 81 %
1093 20-12-2014 02:12:17 4.3 C 81 %
1094 20-12-2014 02:24:17 3.8 C 81 %
1095 20-12-2014 02:36:17 3.8 C 82 %
1096 20-12-2014 02:48:17 4 C 80 %
1097 20-12-2014 03:00:17 3.5 C 81 %
1098 20-12-2014 03:12:17 3.6 C 83 %
1099 20-12-2014 03:24:17 3.9 C 82 %
1100 20-12-2014 03:36:17 3.7 C 81 %
Sensor: Nr:Datum:Temp:Feuchte:
Aussen-T/F 1101 20-12-2014 03:48:17 3.9 C 80 %
1102 20-12-2014 04:00:17 4.1 C 78 %
1103 20-12-2014 04:12:17 3.8 C 78 %
1104 20-12-2014 04:24:17 3.6 C 80 %
1105 20-12-2014 04:36:17 3.7 C 80 %
1106 20-12-2014 04:48:17 3.6 C 81 %
1107 20-12-2014 05:00:17 3.5 C 81 %
1108 20-12-2014 05:12:17 3.6 C 81 %
1109 20-12-2014 05:24:17 3.6 C 80 %
1110 20-12-2014 05:36:17 3.6 C 80 %
1111 20-12-2014 05:48:17 3.5 C 80 %
1112 20-12-2014 06:00:17 3.3 C 80 %
1113 20-12-2014 06:12:17 3.3 C 80 %
1114 20-12-2014 06:24:17 3.5 C 80 %
1115 20-12-2014 06:36:17 3.6 C 79 %
1116 20-12-2014 06:48:17 3.6 C 79 %
1117 20-12-2014 07:00:17 3.8 C 78 %
1118 20-12-2014 07:12:17 3.8 C 77 %
1119 20-12-2014 07:24:17 3.7 C 77 %
1120 20-12-2014 07:36:17 3.7 C 77 %
1121 20-12-2014 07:48:17 3.8 C 77 %
1122 20-12-2014 08:00:17 3.9 C 77 %
1123 20-12-2014 08:12:17 4 C 75 %
1124 20-12-2014 08:24:17 4 C 76 %
1125 20-12-2014 08:36:17 4.1 C 75 %
Sensor: Nr:Datum:Temp:Feuchte:
Aussen-T/F 1126 20-12-2014 08:48:17 4.3 C 75 %
1127 20-12-2014 09:00:17 4.5 C 75 %
1128 20-12-2014 09:12:17 4.6 C 75 %
1129 20-12-2014 09:24:17 4.9 C 75 %
1130 20-12-2014 09:36:17 5 C 73 %
1131 20-12-2014 09:48:17 5.1 C 73 %
1132 20-12-2014 10:00:17 5.3 C 73 %
1133 20-12-2014 10:12:17 5.4 C 73 %
1134 20-12-2014 10:24:17 5.6 C 72 %
1135 20-12-2014 10:36:17 5.8 C 71 %
1136 20-12-2014 10:48:17 5.9 C 71 %
1137 20-12-2014 11:00:17 6.2 C 69 %
1138 20-12-2014 11:12:17 6 C 69 %
1139 20-12-2014 11:24:17 6 C 70 %
1140 20-12-2014 11:36:17 6 C 71 %
1141 20-12-2014 11:48:17 6 C 71 %
1142 20-12-2014 12:00:17 6.1 C 71 %
1143 20-12-2014 12:12:17 6.1 C 71 %
1144 20-12-2014 12:24:17 6.3 C 69 %
1145 20-12-2014 12:36:17 6.4 C 68 %
1146 20-12-2014 12:48:18 6.5 C 66 %
1147 20-12-2014 13:00:17 6.2 C 69 %
1148 20-12-2014 13:12:17 6.1 C 71 %
1149 20-12-2014 13:24:17 6 C 73 %
1150 20-12-2014 13:36:17 6 C 74 %
Sensor: Nr:Datum:Temp:Feuchte:
Aussen-T/F 1151 20-12-2014 13:48:17 6 C 74 %
1152 20-12-2014 14:00:17 6.1 C 74 %
1153 20-12-2014 14:12:17 6.2 C 72 %
1154 20-12-2014 14:24:17 6.4 C 70 %
1155 20-12-2014 14:36:17 6.7 C 66 %
1156 20-12-2014 14:48:17 6.6 C 67 %
1157 20-12-2014 15:00:17 6.7 C 66 %
1158 20-12-2014 15:12:17 6.8 C 65 %
1159 20-12-2014 15:24:17 6.6 C 67 %
1160 20-12-2014 15:36:17 6.8 C 66 %
1161 20-12-2014 15:48:16 6.9 C 64 %
1162 20-12-2014 16:00:17 6.9 C 64 %
1163 20-12-2014 16:12:17 6.9 C 64 %
1164 20-12-2014 16:24:17 6.9 C 63 %
1165 20-12-2014 16:36:17 6.8 C 63 %
1166 20-12-2014 16:48:17 6.7 C 63 %
1167 20-12-2014 17:00:17 6.5 C 63 %
1168 20-12-2014 17:12:17 6.4 C 65 %
1169 20-12-2014 17:24:17 6.4 C 66 %
1170 20-12-2014 17:36:17 6.5 C 66 %
1171 20-12-2014 17:48:17 6.6 C 65 %
1172 20-12-2014 18:00:17 6.6 C 66 %
1173 20-12-2014 18:12:17 6.6 C 65 %
1174 20-12-2014 18:24:17 6.7 C 65 %
1175 20-12-2014 18:36:17 6.4 C 65 %
Sensor: Nr:Datum:Temp:Feuchte:
Aussen-T/F 1176 20-12-2014 18:48:17 6.7 C 63 %
1177 20-12-2014 19:00:17 6.6 C 64 %
1178 20-12-2014 19:12:17 6.4 C 65 %
1179 20-12-2014 19:24:17 6.5 C 62 %
1180 20-12-2014 19:36:17 6.2 C 63 %
1181 20-12-2014 19:48:17 6.4 C 63 %
1182 20-12-2014 20:00:17 6.8 C 61 %
1183 20-12-2014 20:12:17 7 C 59 %
1184 20-12-2014 20:24:17 6.9 C 60 %
1185 20-12-2014 20:36:18 5.9 C 71 %
1186 20-12-2014 20:48:17 5 C 79 %
1187 20-12-2014 21:00:17 4.7 C 83 %
1188 20-12-2014 21:12:17 4.7 C 86 %
1189 20-12-2014 21:24:17 4.7 C 88 %
1190 20-12-2014 21:36:17 4.5 C 88 %
1191 20-12-2014 21:48:17 4.4 C 87 %
1192 20-12-2014 22:00:17 4.4 C 87 %
1193 20-12-2014 22:12:17 4.5 C 87 %
1194 20-12-2014 22:24:17 4.4 C 87 %
1195 20-12-2014 22:36:17 4.4 C 87 %
1196 20-12-2014 22:48:17 4 C 88 %
1197 20-12-2014 23:00:17 4 C 88 %
1198 20-12-2014 23:12:17 3.8 C 89 %
1199 20-12-2014 23:24:17 4.1 C 88 %
1200 20-12-2014 23:36:17 4.2 C 87 %
Sensor: Nr:Datum:Temp:Feuchte:
Aussen-T/F 1201 20-12-2014 23:48:17 4.6 C 86 %
1202 21-12-2014 00:00:17 4.8 C 84 %
1203 21-12-2014 00:12:17 4.9 C 83 %
1204 21-12-2014 00:24:17 4.7 C 83 %
1205 21-12-2014 00:36:17 4.3 C 83 %
1206 21-12-2014 00:48:17 4.3 C 83 %
1207 21-12-2014 01:00:17 4.4 C 84 %
1208 21-12-2014 01:12:17 4.5 C 84 %
1209 21-12-2014 01:24:17 4.9 C 83 %
1210 21-12-2014 01:36:17 4.8 C 82 %
1211 21-12-2014 01:48:17 4.7 C 82 %
1212 21-12-2014 02:00:17 4.6 C 84 %
1213 21-12-2014 02:12:17 4.4 C 86 %
1214 21-12-2014 02:24:17 4.2 C 87 %
1215 21-12-2014 02:36:17 4.3 C 88 %
1216 21-12-2014 02:48:17 4.4 C 90 %
1217 21-12-2014 03:00:17 4.4 C 91 %
1218 21-12-2014 03:12:17 4.4 C 92 %
1219 21-12-2014 03:24:17 4.3 C 92 %
1220 21-12-2014 03:36:17 4.4 C 92 %
1221 21-12-2014 03:48:17 4.5 C 91 %
1222 21-12-2014 04:00:17 4.5 C 91 %
1223 21-12-2014 04:12:17 4.4 C 92 %
1224 21-12-2014 04:24:17 4.5 C 92 %
1225 21-12-2014 04:36:17 4.5 C 92 %
Sensor: Nr:Datum:Temp:Feuchte:
Aussen-T/F 1226 21-12-2014 04:48:17 4.6 C 91 %
1227 21-12-2014 05:00:17 4.6 C 91 %
1228 21-12-2014 05:12:17 4.7 C 90 %
1229 21-12-2014 05:24:17 4.6 C 90 %
1230 21-12-2014 05:36:17 4.6 C 89 %
1231 21-12-2014 05:48:17 5 C 85 %
1232 21-12-2014 06:00:17 4.9 C 83 %
1233 21-12-2014 06:12:17 4.3 C 83 %
1234 21-12-2014 06:24:17 3.9 C 85 %
1235 21-12-2014 06:36:18 3.7 C 86 %
1236 21-12-2014 06:48:17 3.7 C 87 %
1237 21-12-2014 07:00:17 3.6 C 87 %
1238 21-12-2014 07:12:17 3.5 C 88 %
1239 21-12-2014 07:24:17 3.3 C 88 %
1240 21-12-2014 07:36:17 3.5 C 88 %
1241 21-12-2014 07:48:17 4.1 C 86 %
1242 21-12-2014 08:00:17 4.1 C 84 %
1243 21-12-2014 08:12:17 4.1 C 84 %
1244 21-12-2014 08:24:17 4 C 84 %
1245 21-12-2014 08:36:17 4 C 83 %
1246 21-12-2014 08:48:17 4 C 83 %
1247 21-12-2014 09:00:17 3.9 C 84 %
1248 21-12-2014 09:12:17 3.8 C 85 %
1249 21-12-2014 09:24:17 4 C 84 %
1250 21-12-2014 09:36:17 4.2 C 84 %
Sensor: Nr:Datum:Temp:Feuchte:
Aussen-T/F 1251 21-12-2014 09:48:17 4.2 C 83 %
1252 21-12-2014 10:00:17 4.1 C 83 %
1253 21-12-2014 10:12:17 4.2 C 84 %
1254 21-12-2014 10:24:17 4.8 C 84 %
1255 21-12-2014 10:36:17 5.4 C 79 %
1256 21-12-2014 10:48:17 5.7 C 75 %
1257 21-12-2014 11:00:16 5.6 C 74 %
1258 21-12-2014 11:12:17 5.6 C 74 %
1259 21-12-2014 11:24:17 5.7 C 74 %
1260 21-12-2014 11:36:17 5.8 C 73 %
1261 21-12-2014 11:48:17 6 C 72 %
1262 21-12-2014 12:00:17 6.2 C 71 %
1263 21-12-2014 12:12:17 6.3 C 70 %
1264 21-12-2014 12:24:17 6.2 C 71 %
1265 21-12-2014 12:36:17 6.3 C 71 %
1266 21-12-2014 12:48:17 6.2 C 72 %
1267 21-12-2014 13:00:17 6.3 C 72 %
1268 21-12-2014 13:12:17 6.4 C 73 %
1269 21-12-2014 13:24:17 6.4 C 73 %
1270 21-12-2014 13:36:17 6.5 C 73 %
1271 21-12-2014 13:48:17 6.6 C 73 %
1272 21-12-2014 14:00:17 6.6 C 73 %
1273 21-12-2014 14:12:17 6.9 C 73 %
1274 21-12-2014 14:24:17 6.7 C 72 %
1275 21-12-2014 14:36:17 6.8 C 72 %
Sensor: Nr:Datum:Temp:Feuchte:
Aussen-T/F 1276 21-12-2014 14:48:17 6.8 C 72 %
1277 21-12-2014 15:00:17 6.7 C 72 %
1278 21-12-2014 15:12:17 6.8 C 72 %
1279 21-12-2014 15:24:17 6.7 C 72 %
1280 21-12-2014 15:36:17 6.6 C 73 %
1281 21-12-2014 15:48:17 6.7 C 73 %
1282 21-12-2014 16:00:17 6.7 C 73 %
1283 21-12-2014 16:12:17 6.8 C 73 %
1284 21-12-2014 16:24:17 6.8 C 73 %
1285 21-12-2014 16:36:17 6.8 C 72 %
1286 21-12-2014 16:48:17 6.8 C 73 %
1287 21-12-2014 17:00:17 6.6 C 73 %
1288 21-12-2014 17:12:17 6.7 C 73 %
1289 21-12-2014 17:24:17 6.8 C 72 %
1290 21-12-2014 17:36:17 6.9 C 72 %
1291 21-12-2014 17:48:17 7 C 71 %
1292 21-12-2014 18:00:17 6.9 C 72 %
1293 21-12-2014 18:12:17 7 C 71 %
1294 21-12-2014 18:24:17 7 C 71 %
1295 21-12-2014 18:36:17 6.9 C 73 %
1296 21-12-2014 18:48:17 7 C 72 %
1297 21-12-2014 19:00:17 6.9 C 73 %
1298 21-12-2014 19:12:17 6.9 C 74 %
1299 21-12-2014 19:24:17 6.9 C 74 %
1300 21-12-2014 19:36:17 6.8 C 74 %
Sensor: Nr:Datum:Temp:Feuchte:
Aussen-T/F 1301 21-12-2014 19:48:17 6.9 C 74 %
1302 21-12-2014 20:00:17 6.9 C 74 %
1303 21-12-2014 20:12:17 6.8 C 75 %
1304 21-12-2014 20:24:17 6.8 C 75 %
1305 21-12-2014 20:36:17 6.8 C 75 %
1306 21-12-2014 20:48:17 6.9 C 75 %
1307 21-12-2014 21:00:17 6.9 C 76 %
1308 21-12-2014 21:12:18 6.8 C 76 %
1309 21-12-2014 21:24:17 7 C 74 %
1310 21-12-2014 21:36:17 7 C 74 %
1311 21-12-2014 21:48:17 7 C 74 %
1312 21-12-2014 22:00:17 7 C 74 %
1313 21-12-2014 22:12:17 7 C 73 %
1314 21-12-2014 22:24:17 7.1 C 72 %
1315 21-12-2014 22:36:17 7.1 C 72 %
1316 21-12-2014 22:48:17 7.1 C 72 %
1317 21-12-2014 23:00:17 7 C 72 %
1318 21-12-2014 23:12:17 7 C 73 %
1319 21-12-2014 23:24:17 7 C 72 %
1320 21-12-2014 23:48:17 6.9 C 73 %
1321 22-12-2014 00:00:17 7 C 72 %
1322 22-12-2014 00:12:17 7 C 72 %
1323 22-12-2014 00:24:17 6.9 C 73 %
1324 22-12-2014 00:36:17 6.9 C 73 %
1325 22-12-2014 00:48:17 7 C 72 %
Sensor: Nr:Datum:Temp:Feuchte:
Aussen-T/F 1326 22-12-2014 01:00:17 6.9 C 74 %
1327 22-12-2014 01:12:17 7 C 72 %
1328 22-12-2014 01:24:17 7 C 72 %
1329 22-12-2014 01:36:17 7 C 72 %
1330 22-12-2014 01:48:17 7 C 72 %
1331 22-12-2014 02:00:17 7 C 72 %
1332 22-12-2014 02:12:17 6.9 C 74 %
1333 22-12-2014 02:24:17 6.8 C 75 %
1334 22-12-2014 02:36:17 6.8 C 75 %
1335 22-12-2014 02:48:17 6.8 C 75 %
1336 22-12-2014 03:00:17 6.8 C 75 %
1337 22-12-2014 03:12:17 6.9 C 76 %
1338 22-12-2014 03:24:17 6.8 C 77 %
1339 22-12-2014 03:36:17 6.9 C 77 %
1340 22-12-2014 03:48:17 7.1 C 74 %
1341 22-12-2014 04:00:17 7.2 C 73 %
1342 22-12-2014 04:12:17 7.2 C 73 %
1343 22-12-2014 04:24:17 7.1 C 73 %
1344 22-12-2014 04:36:17 7.1 C 73 %
1345 22-12-2014 04:48:17 7.2 C 73 %
1346 22-12-2014 05:00:17 7.1 C 73 %
1347 22-12-2014 05:12:17 7.2 C 73 %
1348 22-12-2014 05:24:17 7.2 C 73 %
1349 22-12-2014 05:36:17 7.2 C 73 %
1350 22-12-2014 05:48:17 7.2 C 73 %
Sensor: Nr:Datum:Temp:Feuchte:
Aussen-T/F 1351 22-12-2014 06:00:17 7.2 C 73 %
1352 22-12-2014 06:12:17 7.1 C 74 %
1353 22-12-2014 06:24:17 7.1 C 75 %
1354 22-12-2014 06:36:17 7.2 C 74 %
1355 22-12-2014 06:48:17 7.2 C 74 %
1356 22-12-2014 07:00:17 7.3 C 75 %
1357 22-12-2014 07:12:17 7.2 C 75 %
1358 22-12-2014 07:24:17 7.2 C 75 %
1359 22-12-2014 07:36:17 7.3 C 75 %
1360 22-12-2014 07:48:17 7.3 C 75 %
1361 22-12-2014 08:00:17 7.3 C 75 %
1362 22-12-2014 08:12:17 7.4 C 74 %
1363 22-12-2014 08:24:17 7.4 C 74 %
1364 22-12-2014 08:36:17 7.4 C 74 %
1365 22-12-2014 08:48:17 7.4 C 73 %
1366 22-12-2014 09:00:17 7.4 C 74 %
1367 22-12-2014 09:12:17 7.4 C 73 %
1368 22-12-2014 09:24:17 7.4 C 73 %
1369 22-12-2014 09:36:17 7.5 C 73 %
1370 22-12-2014 09:48:17 7.5 C 72 %
1371 22-12-2014 10:00:17 7.6 C 72 %
1372 22-12-2014 10:12:17 7.5 C 72 %
1373 22-12-2014 10:24:17 7.5 C 72 %
1374 22-12-2014 10:36:17 7.6 C 72 %
1375 22-12-2014 10:48:17 7.6 C 72 %
Sensor: Nr:Datum:Temp:Feuchte:
Aussen-T/F 1376 22-12-2014 11:00:17 7.7 C 72 %
1377 22-12-2014 11:12:17 7.7 C 72 %
1378 22-12-2014 11:24:17 7.6 C 72 %
1379 22-12-2014 11:36:17 7.6 C 72 %
1380 22-12-2014 11:48:17 7.7 C 72 %
1381 22-12-2014 12:00:17 7.7 C 72 %
1382 22-12-2014 12:12:17 7.8 C 72 %
1383 22-12-2014 12:24:17 7.7 C 72 %
1384 22-12-2014 12:36:17 7.7 C 73 %
1385 22-12-2014 12:48:17 7.8 C 73 %
1386 22-12-2014 13:00:17 7.8 C 73 %
1387 22-12-2014 13:12:17 7.8 C 73 %
1388 22-12-2014 13:24:17 7.8 C 73 %
1389 22-12-2014 13:36:17 7.8 C 73 %
1390 22-12-2014 13:48:17 7.9 C 74 %
1391 22-12-2014 14:00:17 7.9 C 74 %
1392 22-12-2014 14:12:17 8 C 73 %
1393 22-12-2014 14:24:17 8.1 C 72 %
1394 22-12-2014 14:36:17 8.2 C 72 %
1395 22-12-2014 14:48:17 8.2 C 72 %
1396 22-12-2014 15:00:17 8.1 C 73 %
1397 22-12-2014 15:12:17 8.3 C 73 %
1398 22-12-2014 15:24:17 8.3 C 72 %
1399 22-12-2014 15:36:17 8.3 C 73 %
1400 22-12-2014 15:48:17 8.2 C 73 %
Sensor: Nr:Datum:Temp:Feuchte:
Aussen-T/F 1401 22-12-2014 16:00:18 8.1 C 74 %
1402 22-12-2014 16:12:18 8.1 C 74 %
1403 22-12-2014 16:24:17 8.3 C 74 %
1404 22-12-2014 16:36:17 8.3 C 74 %
1405 22-12-2014 16:48:17 8.2 C 75 %
1406 22-12-2014 17:00:17 8.4 C 75 %
1407 22-12-2014 17:12:17 8.3 C 75 %
1408 22-12-2014 17:24:17 8.4 C 75 %
1409 22-12-2014 17:36:17 8.4 C 76 %
1410 22-12-2014 17:48:17 8.3 C 76 %
1411 22-12-2014 18:00:17 8.4 C 77 %
1412 22-12-2014 18:12:17 8.5 C 76 %
1413 22-12-2014 18:24:17 8.6 C 76 %
1414 22-12-2014 18:36:17 8.6 C 76 %
1415 22-12-2014 18:48:17 8.7 C 76 %
1416 22-12-2014 19:00:17 8.8 C 76 %
1417 22-12-2014 19:12:17 8.7 C 76 %
1418 22-12-2014 19:24:17 8.7 C 76 %
1419 22-12-2014 19:36:17 8.8 C 76 %
1420 22-12-2014 19:48:17 8.7 C 76 %
1421 22-12-2014 20:00:17 8.7 C 75 %
1422 22-12-2014 20:12:17 8.8 C 75 %
1423 22-12-2014 20:24:17 8.7 C 75 %
1424 22-12-2014 20:36:17 8.7 C 76 %
1425 22-12-2014 20:48:17 8.6 C 76 %
Sensor: Nr:Datum:Temp:Feuchte:
Aussen-T/F 1426 22-12-2014 21:00:17 8.5 C 76 %
1427 22-12-2014 21:12:17 8.5 C 76 %
1428 22-12-2014 21:24:17 8.5 C 76 %
1429 22-12-2014 21:36:17 8.6 C 77 %
1430 22-12-2014 21:48:17 8.6 C 77 %
1431 22-12-2014 22:00:17 8.5 C 77 %
1432 22-12-2014 22:12:17 8.6 C 77 %
1433 22-12-2014 22:24:17 8.6 C 78 %
1434 22-12-2014 22:36:17 8.7 C 78 %
1435 22-12-2014 22:48:17 8.8 C 78 %
1436 22-12-2014 23:00:17 8.8 C 78 %
1437 22-12-2014 23:12:17 8.9 C 77 %
1438 22-12-2014 23:24:17 9 C 76 %
1439 22-12-2014 23:36:17 9 C 76 %
1440 22-12-2014 23:48:17 9.1 C 76 %
1441 23-12-2014 00:00:17 9.1 C 76 %
1442 23-12-2014 00:12:17 9.2 C 75 %
1443 23-12-2014 00:24:17 9.5 C 75 %
1444 23-12-2014 00:36:17 9.3 C 75 %
1445 23-12-2014 00:48:17 9.3 C 75 %
1446 23-12-2014 01:00:17 9.4 C 75 %
1447 23-12-2014 01:12:17 9.4 C 74 %
1448 23-12-2014 01:24:17 9.4 C 75 %
1449 23-12-2014 01:36:17 9.4 C 74 %
1450 23-12-2014 01:48:17 9.4 C 74 %
Sensor: Nr:Datum:Temp:Feuchte:
Aussen-T/F 1451 23-12-2014 02:00:17 9.5 C 74 %
1452 23-12-2014 02:12:17 9.5 C 74 %
1453 23-12-2014 02:24:17 9.6 C 74 %
1454 23-12-2014 02:36:17 9.6 C 74 %
1455 23-12-2014 02:48:17 9.6 C 73 %
1456 23-12-2014 03:00:17 9.7 C 73 %
1457 23-12-2014 03:12:17 9.6 C 73 %
1458 23-12-2014 03:24:17 9.3 C 74 %
1459 23-12-2014 03:36:17 9.2 C 74 %
1460 23-12-2014 03:48:17 9.7 C 74 %
1461 23-12-2014 04:00:17 9.7 C 73 %
1462 23-12-2014 04:12:17 9.3 C 74 %
1463 23-12-2014 04:24:17 9.7 C 73 %
1464 23-12-2014 04:36:17 9.8 C 72 %
1465 23-12-2014 04:48:17 9.8 C 72 %
1466 23-12-2014 05:00:17 9.9 C 72 %
1467 23-12-2014 05:12:17 9.8 C 71 %
1468 23-12-2014 05:24:17 9.7 C 72 %
1469 23-12-2014 05:36:17 9.7 C 72 %
1470 23-12-2014 05:48:17 9.7 C 72 %
1471 23-12-2014 06:00:17 9.7 C 71 %
1472 23-12-2014 06:12:17 9.8 C 71 %
1473 23-12-2014 06:24:17 10 C 69 %
1474 23-12-2014 06:36:17 9.8 C 70 %
1475 23-12-2014 06:48:17 10 C 69 %
Sensor: Nr:Datum:Temp:Feuchte:
Aussen-T/F 1476 23-12-2014 07:00:17 10 C 69 %
1477 23-12-2014 07:12:17 9.8 C 71 %
1478 23-12-2014 07:24:17 9.9 C 70 %
1479 23-12-2014 07:36:17 9.8 C 70 %
1480 23-12-2014 07:48:17 9.8 C 70 %
1481 23-12-2014 08:00:17 9.9 C 70 %
1482 23-12-2014 08:12:17 9.8 C 70 %
1483 23-12-2014 08:24:17 9.7 C 71 %
1484 23-12-2014 08:36:17 9.8 C 70 %
1485 23-12-2014 08:48:17 9.7 C 70 %
1486 23-12-2014 09:00:17 9.8 C 70 %
1487 23-12-2014 09:12:17 9.7 C 70 %
1488 23-12-2014 09:24:17 9.8 C 69 %
1489 23-12-2014 09:36:17 9.8 C 69 %
1490 23-12-2014 09:48:17 9.8 C 70 %
1491 23-12-2014 10:00:17 9.8 C 70 %
1492 23-12-2014 10:12:17 9.9 C 70 %
1493 23-12-2014 10:24:17 9.9 C 69 %
1494 23-12-2014 10:36:17 9.9 C 70 %
1495 23-12-2014 10:48:17 9.9 C 70 %
1496 23-12-2014 11:00:17 9.9 C 70 %
1497 23-12-2014 11:12:17 9.9 C 70 %
1498 23-12-2014 11:24:17 9.9 C 70 %
1499 23-12-2014 11:36:17 9.9 C 70 %
1500 23-12-2014 11:48:17 9.9 C 70 %
Sensor: Nr:Datum:Temp:Feuchte:
Aussen-T/F 1501 23-12-2014 12:00:17 9.8 C 70 %
1502 23-12-2014 12:12:17 9.8 C 71 %
1503 23-12-2014 12:24:17 9.8 C 71 %
1504 23-12-2014 12:36:17 9.9 C 71 %
1505 23-12-2014 12:48:17 10 C 70 %
1506 23-12-2014 13:00:17 9.9 C 70 %
1507 23-12-2014 13:12:17 9.9 C 71 %
1508 23-12-2014 13:24:17 10 C 70 %
1509 23-12-2014 13:36:17 9.9 C 71 %
1510 23-12-2014 13:48:17 10 C 70 %
1511 23-12-2014 14:00:17 10 C 70 %
1512 23-12-2014 14:12:17 10.2 C 69 %
1513 23-12-2014 14:24:16 10.2 C 69 %
1514 23-12-2014 14:36:17 10.2 C 69 %
1515 23-12-2014 14:48:17 10.1 C 69 %
1516 23-12-2014 15:00:17 10.1 C 69 %
1517 23-12-2014 15:12:17 10 C 70 %
1518 23-12-2014 15:24:17 9.9 C 71 %
1519 23-12-2014 15:36:17 9.9 C 71 %
1520 23-12-2014 15:48:17 9.9 C 71 %
1521 23-12-2014 16:00:17 9.8 C 71 %
1522 23-12-2014 16:12:17 9.7 C 71 %
1523 23-12-2014 16:24:17 9.7 C 71 %
1524 23-12-2014 16:36:17 9.6 C 71 %
1525 23-12-2014 16:48:17 9.6 C 71 %
Sensor: Nr:Datum:Temp:Feuchte:
Aussen-T/F 1526 23-12-2014 17:00:17 9.6 C 71 %
1527 23-12-2014 17:12:17 9.5 C 71 %
1528 23-12-2014 17:24:17 9.5 C 71 %
1529 23-12-2014 17:36:17 9.4 C 71 %
1530 23-12-2014 17:48:17 9.4 C 71 %
1531 23-12-2014 18:00:17 9.3 C 71 %
1532 23-12-2014 18:12:17 9.3 C 70 %
1533 23-12-2014 18:24:17 9.3 C 71 %
1534 23-12-2014 18:36:17 9.2 C 70 %
1535 23-12-2014 18:48:17 9.3 C 70 %
1536 23-12-2014 19:00:17 9.2 C 71 %
1537 23-12-2014 19:12:17 9.1 C 71 %
1538 23-12-2014 19:24:17 9.2 C 70 %
1539 23-12-2014 19:36:17 9.2 C 70 %
1540 23-12-2014 19:48:17 9.1 C 70 %
1541 23-12-2014 20:00:17 9 C 70 %
1542 23-12-2014 20:12:17 9 C 70 %
1543 23-12-2014 20:24:17 8.9 C 72 %
1544 23-12-2014 20:36:17 8.9 C 71 %
1545 23-12-2014 20:48:17 8.9 C 71 %
1546 23-12-2014 21:00:17 8.8 C 70 %
1547 23-12-2014 21:12:17 8.8 C 70 %
1548 23-12-2014 21:24:17 8.8 C 70 %
1549 23-12-2014 21:36:17 8.7 C 69 %
1550 23-12-2014 21:48:17 8.8 C 67 %
Sensor: Nr:Datum:Temp:Feuchte:
Aussen-T/F 1551 23-12-2014 22:00:17 8.7 C 67 %
1552 23-12-2014 22:12:17 8.6 C 67 %
1553 23-12-2014 22:24:17 8.6 C 67 %
1554 23-12-2014 22:36:17 8.5 C 67 %
1555 23-12-2014 22:48:17 8.5 C 67 %
1556 23-12-2014 23:00:17 8.5 C 66 %
1557 23-12-2014 23:12:17 8.3 C 67 %
1558 23-12-2014 23:24:17 8.3 C 66 %
1559 23-12-2014 23:36:17 8.2 C 66 %
1560 23-12-2014 23:48:17 8.2 C 66 %
1561 24-12-2014 00:00:17 8.2 C 66 %
1562 24-12-2014 00:12:17 8.1 C 66 %
1563 24-12-2014 00:24:17 8 C 66 %
1564 24-12-2014 00:36:17 8 C 67 %
1565 24-12-2014 00:48:17 7.9 C 68 %
1566 24-12-2014 01:00:18 7.8 C 69 %
1567 24-12-2014 01:12:18 7.7 C 69 %
1568 24-12-2014 01:24:17 7.7 C 68 %
1569 24-12-2014 01:36:17 7.6 C 68 %
1570 24-12-2014 01:48:17 7.6 C 68 %
1571 24-12-2014 02:00:17 7.5 C 68 %
1572 24-12-2014 02:12:17 7.5 C 68 %
1573 24-12-2014 02:24:17 7.4 C 68 %
1574 24-12-2014 02:36:17 7.3 C 68 %
1575 24-12-2014 02:48:17 7.2 C 68 %
Sensor: Nr:Datum:Temp:Feuchte:
Aussen-T/F 1576 24-12-2014 03:00:17 7.2 C 68 %
1577 24-12-2014 03:12:17 7.1 C 68 %
1578 24-12-2014 03:24:17 7 C 68 %
1579 24-12-2014 03:36:17 6.9 C 69 %
1580 24-12-2014 03:48:17 6.9 C 69 %
1581 24-12-2014 04:00:17 6.9 C 68 %
1582 24-12-2014 04:12:17 6.9 C 69 %
1583 24-12-2014 04:24:17 6.9 C 68 %
1584 24-12-2014 04:36:17 6.9 C 68 %
1585 24-12-2014 04:48:17 6.9 C 67 %
1586 24-12-2014 05:00:17 6.9 C 67 %
1587 24-12-2014 05:12:17 6.9 C 68 %
1588 24-12-2014 05:24:17 7 C 66 %
1589 24-12-2014 05:36:17 6.9 C 67 %
1590 24-12-2014 05:48:17 6.9 C 68 %
1591 24-12-2014 06:00:17 6.9 C 68 %
1592 24-12-2014 06:12:17 6.8 C 69 %
1593 24-12-2014 06:24:17 6.7 C 69 %
1594 24-12-2014 06:36:17 6.6 C 69 %
1595 24-12-2014 06:48:17 6.6 C 69 %
1596 24-12-2014 07:00:17 6.6 C 69 %
1597 24-12-2014 07:12:17 6.6 C 70 %
1598 24-12-2014 07:24:17 6.6 C 70 %
1599 24-12-2014 07:36:17 6.7 C 70 %
1600 24-12-2014 07:48:17 6.8 C 70 %
Sensor: Nr:Datum:Temp:Feuchte:
Aussen-T/F 1601 24-12-2014 08:00:17 6.9 C 70 %
1602 24-12-2014 08:12:17 6.9 C 70 %
1603 24-12-2014 08:24:17 6.9 C 69 %
1604 24-12-2014 08:36:17 7 C 68 %
1605 24-12-2014 08:48:17 7.1 C 68 %
1606 24-12-2014 09:00:17 7.1 C 68 %
1607 24-12-2014 09:12:17 7.3 C 68 %
1608 24-12-2014 09:24:17 7.3 C 68 %
1609 24-12-2014 09:36:17 7.5 C 67 %
1610 24-12-2014 09:48:17 7.5 C 68 %
1611 24-12-2014 10:00:17 7.6 C 68 %
1612 24-12-2014 10:12:17 7.6 C 68 %
1613 24-12-2014 10:24:17 7.8 C 68 %
1614 24-12-2014 10:36:17 7.9 C 68 %
1615 24-12-2014 10:48:17 7.9 C 68 %
1616 24-12-2014 11:00:17 8 C 67 %
1617 24-12-2014 11:12:17 8.1 C 67 %
1618 24-12-2014 11:24:17 8.1 C 67 %
1619 24-12-2014 11:36:17 8.2 C 68 %
1620 24-12-2014 11:48:17 8.3 C 68 %
1621 24-12-2014 12:00:17 8.6 C 68 %
1622 24-12-2014 12:12:17 8.9 C 67 %
1623 24-12-2014 12:24:17 9 C 66 %
1624 24-12-2014 12:36:17 9 C 67 %
1625 24-12-2014 12:48:17 8.8 C 68 %
Sensor: Nr:Datum:Temp:Feuchte:
Aussen-T/F 1626 24-12-2014 13:00:17 8.8 C 69 %
1627 24-12-2014 13:12:17 8.9 C 69 %
1628 24-12-2014 13:24:16 8.9 C 70 %
1629 24-12-2014 13:36:17 9 C 68 %
1630 24-12-2014 13:48:17 9.3 C 67 %
1631 24-12-2014 14:00:17 9.5 C 66 %
1632 24-12-2014 14:12:17 9.8 C 65 %
1633 24-12-2014 14:24:17 9.9 C 65 %
1634 24-12-2014 14:36:17 9.8 C 66 %
1635 24-12-2014 14:48:17 9.7 C 66 %
1636 24-12-2014 15:00:17 9.5 C 68 %
1637 24-12-2014 15:12:17 9.4 C 68 %
1638 24-12-2014 15:24:16 9.2 C 69 %
1639 24-12-2014 15:36:17 9.1 C 70 %
1640 24-12-2014 15:48:17 9 C 70 %
1641 24-12-2014 16:00:17 9 C 71 %
1642 24-12-2014 16:12:18 8.9 C 73 %
1643 24-12-2014 16:24:17 8.8 C 74 %
1644 24-12-2014 16:36:17 8.7 C 75 %
1645 24-12-2014 16:48:17 8.3 C 78 %
1646 24-12-2014 17:00:17 8.2 C 80 %
1647 24-12-2014 17:12:17 8.3 C 80 %
1648 24-12-2014 17:24:17 8.3 C 80 %
1649 24-12-2014 17:36:17 8.4 C 80 %
1650 24-12-2014 17:48:17 8.5 C 79 %
Sensor: Nr:Datum:Temp:Feuchte:
Aussen-T/F 1651 24-12-2014 18:00:17 8.6 C 78 %
1652 24-12-2014 18:12:17 8.6 C 78 %
1653 24-12-2014 18:24:17 8.7 C 77 %
1654 24-12-2014 18:36:17 8.7 C 78 %
1655 24-12-2014 18:48:17 8.7 C 78 %
1656 24-12-2014 19:00:17 8.6 C 78 %
1657 24-12-2014 19:12:17 8.5 C 79 %
1658 24-12-2014 19:24:17 8.6 C 79 %
1659 24-12-2014 19:36:17 8.7 C 78 %
1660 24-12-2014 19:48:17 8.7 C 78 %
1661 24-12-2014 20:00:17 8.9 C 78 %
1662 24-12-2014 20:12:17 8.8 C 78 %
1663 24-12-2014 20:24:17 9 C 77 %
1664 24-12-2014 20:36:17 8.6 C 79 %
1665 24-12-2014 20:48:17 8.4 C 83 %
1666 24-12-2014 21:00:17 8.2 C 85 %
1667 24-12-2014 21:12:17 7.7 C 87 %
1668 24-12-2014 21:24:17 7.5 C 88 %
1669 24-12-2014 21:36:17 7.3 C 88 %
1670 24-12-2014 21:48:17 7.2 C 89 %
1671 24-12-2014 22:00:17 7 C 89 %
1672 24-12-2014 22:12:17 6.4 C 88 %
1673 24-12-2014 22:24:17 6.2 C 88 %
1674 24-12-2014 22:36:17 6.2 C 88 %
1675 24-12-2014 22:48:17 6.2 C 89 %
Sensor: Nr:Datum:Temp:Feuchte:
Aussen-T/F 1676 24-12-2014 23:00:17 6.1 C 89 %
1677 24-12-2014 23:12:17 6.1 C 89 %
1678 24-12-2014 23:24:17 6 C 90 %
1679 24-12-2014 23:36:17 5.9 C 91 %
1680 24-12-2014 23:48:16 5.8 C 91 %
1681 25-12-2014 00:00:17 5.7 C 90 %
1682 25-12-2014 00:12:17 5.7 C 89 %
1683 25-12-2014 00:24:17 5.9 C 89 %
1684 25-12-2014 00:36:18 5.8 C 86 %
1685 25-12-2014 00:48:17 5.8 C 83 %
1686 25-12-2014 01:00:17 5.6 C 82 %
1687 25-12-2014 01:12:17 5.7 C 80 %
1688 25-12-2014 01:24:17 5.6 C 79 %
1689 25-12-2014 01:36:17 5.2 C 80 %
1690 25-12-2014 01:48:17 5 C 79 %
1691 25-12-2014 02:00:17 4.9 C 78 %
1692 25-12-2014 02:12:17 5.2 C 69 %
1693 25-12-2014 02:24:17 4.7 C 71 %
1694 25-12-2014 02:36:17 4.6 C 70 %
1695 25-12-2014 02:48:17 4.5 C 69 %
1696 25-12-2014 03:00:17 4.4 C 72 %
1697 25-12-2014 03:12:17 4.1 C 75 %
1698 25-12-2014 03:24:17 4.1 C 76 %
1699 25-12-2014 03:36:17 4.6 C 70 %
1700 25-12-2014 03:48:17 4.5 C 70 %
Sensor: Nr:Datum:Temp:Feuchte:
Aussen-T/F 1701 25-12-2014 04:00:17 4.3 C 72 %
1702 25-12-2014 04:12:17 4.4 C 71 %
1703 25-12-2014 04:24:17 4.3 C 71 %
1704 25-12-2014 04:36:17 4.2 C 72 %
1705 25-12-2014 04:48:17 4.1 C 73 %
1706 25-12-2014 05:00:17 4.2 C 73 %
1707 25-12-2014 05:12:17 4.2 C 73 %
1708 25-12-2014 05:24:17 4.1 C 74 %
1709 25-12-2014 05:36:17 3.8 C 76 %
1710 25-12-2014 05:48:17 3.7 C 77 %
1711 25-12-2014 06:00:17 3.6 C 77 %
1712 25-12-2014 06:12:17 3.5 C 77 %
1713 25-12-2014 06:24:17 3 C 78 %
1714 25-12-2014 06:36:17 2.7 C 81 %
1715 25-12-2014 06:48:17 2.7 C 82 %
1716 25-12-2014 07:00:17 2.7 C 83 %
1717 25-12-2014 07:12:17 2.8 C 83 %
1718 25-12-2014 07:24:17 2.6 C 83 %
1719 25-12-2014 07:36:17 2.9 C 81 %
1720 25-12-2014 07:48:17 3.1 C 80 %
1721 25-12-2014 08:00:17 3.4 C 77 %
1722 25-12-2014 08:12:17 3.1 C 77 %
1723 25-12-2014 08:24:17 3.3 C 76 %
1724 25-12-2014 08:36:17 3.5 C 74 %
1725 25-12-2014 08:48:17 3.4 C 74 %
Sensor: Nr:Datum:Temp:Feuchte:
Aussen-T/F 1726 25-12-2014 09:00:17 3.3 C 75 %
1727 25-12-2014 09:12:17 3.2 C 75 %
1728 25-12-2014 09:24:17 3 C 78 %
1729 25-12-2014 09:36:17 3.5 C 78 %
1730 25-12-2014 09:48:17 3.7 C 76 %
1731 25-12-2014 10:00:17 3.8 C 76 %
1732 25-12-2014 10:12:17 4.3 C 73 %
1733 25-12-2014 10:24:17 4.6 C 70 %
1734 25-12-2014 10:36:17 4.7 C 71 %
1735 25-12-2014 10:48:17 4.9 C 69 %
1736 25-12-2014 11:00:17 5 C 68 %
1737 25-12-2014 11:12:17 4.9 C 69 %
1738 25-12-2014 11:24:17 4.9 C 69 %
1739 25-12-2014 11:36:17 5.3 C 67 %
1740 25-12-2014 11:48:17 5.4 C 68 %
1741 25-12-2014 12:00:17 5.5 C 67 %
1742 25-12-2014 12:12:17 5.4 C 67 %
1743 25-12-2014 12:24:17 5.4 C 68 %
1744 25-12-2014 12:36:17 5.3 C 68 %
1745 25-12-2014 12:48:17 5.3 C 69 %
1746 25-12-2014 13:00:17 5.2 C 71 %
1747 25-12-2014 13:12:17 5.3 C 73 %
1748 25-12-2014 13:24:17 5.5 C 72 %
1749 25-12-2014 13:36:17 5.7 C 71 %
1750 25-12-2014 13:48:17 5.7 C 73 %
Sensor: Nr:Datum:Temp:Feuchte:
Aussen-T/F 1751 25-12-2014 14:00:17 5.8 C 71 %
1752 25-12-2014 14:12:17 6.1 C 69 %
1753 25-12-2014 14:24:17 6.2 C 67 %
1754 25-12-2014 14:36:17 6.2 C 67 %
1755 25-12-2014 14:48:17 6.4 C 65 %
1756 25-12-2014 15:00:17 6.4 C 65 %
1757 25-12-2014 15:12:17 6.3 C 64 %
1758 25-12-2014 15:24:17 6.2 C 64 %
1759 25-12-2014 15:36:18 6.1 C 65 %
1760 25-12-2014 15:48:17 5.9 C 67 %
1761 25-12-2014 16:00:17 5.5 C 70 %
1762 25-12-2014 16:12:17 5.4 C 73 %
1763 25-12-2014 16:24:17 5.6 C 71 %
1764 25-12-2014 16:36:17 5.8 C 69 %
1765 25-12-2014 16:48:17 5.6 C 70 %
1766 25-12-2014 17:00:17 4.2 C 76 %
1767 25-12-2014 17:12:17 3.8 C 83 %
1768 25-12-2014 17:24:17 3.7 C 86 %
1769 25-12-2014 17:36:17 3.5 C 87 %
1770 25-12-2014 17:48:17 3.5 C 88 %
1771 25-12-2014 18:00:17 3.6 C 89 %
1772 25-12-2014 18:12:17 3.5 C 89 %
1773 25-12-2014 18:24:17 3.5 C 89 %
1774 25-12-2014 18:36:17 3.5 C 89 %
1775 25-12-2014 18:48:17 3.6 C 90 %
Sensor: Nr:Datum:Temp:Feuchte:
Aussen-T/F 1776 25-12-2014 19:00:17 3.5 C 90 %
1777 25-12-2014 19:12:17 3.5 C 90 %
1778 25-12-2014 19:24:17 3.5 C 90 %
1779 25-12-2014 19:36:17 3.5 C 90 %
1780 25-12-2014 19:48:17 3.7 C 90 %
1781 25-12-2014 20:00:17 3.7 C 89 %
1782 25-12-2014 20:12:17 3.6 C 88 %
1783 25-12-2014 20:24:17 3.5 C 88 %
1784 25-12-2014 20:36:17 3.4 C 89 %
1785 25-12-2014 20:48:17 3.2 C 89 %
1786 25-12-2014 21:00:17 3.1 C 89 %
1787 25-12-2014 21:12:17 3 C 90 %
1788 25-12-2014 21:24:17 2.8 C 91 %
1789 25-12-2014 21:36:17 2.5 C 91 %
1790 25-12-2014 21:48:17 2.4 C 92 %
1791 25-12-2014 22:00:17 2.3 C 92 %
1792 25-12-2014 22:12:17 2 C 92 %
1793 25-12-2014 22:24:17 2 C 93 %
1794 25-12-2014 22:36:17 2.1 C 93 %
1795 25-12-2014 22:48:17 1.9 C 94 %
1796 25-12-2014 23:00:17 1.4 C 94 %
1797 25-12-2014 23:12:17 1.4 C 94 %
1798 25-12-2014 23:24:17 1.5 C 95 %
1799 25-12-2014 23:36:17 1.3 C 95 %
1800 25-12-2014 23:48:17 0.8 C 95 %
Sensor: Nr:Datum:Temp:Feuchte:
Aussen-T/F 1801 26-12-2014 00:00:17 1.3 C 95 %
1802 26-12-2014 00:12:17 1.1 C 95 %
1803 26-12-2014 00:24:17 1.4 C 95 %
1804 26-12-2014 00:36:17 1.6 C 95 %
1805 26-12-2014 00:48:17 1.5 C 95 %
1806 26-12-2014 01:00:17 1.6 C 95 %
1807 26-12-2014 01:12:17 1.8 C 95 %
1808 26-12-2014 01:24:17 1.8 C 95 %
1809 26-12-2014 01:36:17 1.7 C 95 %
1810 26-12-2014 01:48:17 1.7 C 95 %
1811 26-12-2014 02:00:17 1.9 C 95 %
1812 26-12-2014 02:12:17 2.1 C 95 %
1813 26-12-2014 02:24:17 2 C 95 %
1814 26-12-2014 02:36:17 2.1 C 95 %
1815 26-12-2014 02:48:17 2.2 C 95 %
1816 26-12-2014 03:00:17 2.1 C 95 %
1817 26-12-2014 03:12:17 2.2 C 95 %
1818 26-12-2014 03:24:17 2.2 C 95 %
1819 26-12-2014 03:36:17 2.3 C 95 %
1820 26-12-2014 03:48:17 2.4 C 95 %
1821 26-12-2014 04:00:17 2.3 C 95 %
1822 26-12-2014 04:12:17 2.3 C 95 %
1823 26-12-2014 04:24:17 2.4 C 95 %
1824 26-12-2014 04:36:17 2.4 C 95 %
1825 26-12-2014 04:48:17 2.4 C 95 %
Sensor: Nr:Datum:Temp:Feuchte:
Aussen-T/F 1826 26-12-2014 05:00:17 2.4 C 95 %
1827 26-12-2014 05:12:17 2.5 C 95 %
1828 26-12-2014 05:24:17 2.5 C 95 %
1829 26-12-2014 05:36:17 2.5 C 95 %
1830 26-12-2014 05:48:17 2.5 C 95 %
1831 26-12-2014 06:00:17 2.5 C 95 %
1832 26-12-2014 06:12:17 2.6 C 95 %
1833 26-12-2014 06:24:17 2.5 C 95 %
1834 26-12-2014 06:36:17 2.4 C 95 %
1835 26-12-2014 06:48:17 2.4 C 95 %
1836 26-12-2014 07:00:17 2.4 C 95 %
1837 26-12-2014 07:12:17 2.4 C 95 %
1838 26-12-2014 07:24:17 2.4 C 95 %
1839 26-12-2014 07:36:17 2.4 C 95 %
1840 26-12-2014 07:48:17 2.5 C 95 %
1841 26-12-2014 08:00:17 2.4 C 95 %
1842 26-12-2014 08:12:17 2.5 C 95 %
1843 26-12-2014 08:24:17 2.5 C 95 %
1844 26-12-2014 08:36:17 2.5 C 95 %
1845 26-12-2014 08:48:17 2.4 C 94 %
1846 26-12-2014 09:00:17 2.5 C 94 %
1847 26-12-2014 09:12:17 2.4 C 94 %
1848 26-12-2014 09:24:17 2.3 C 94 %
1849 26-12-2014 09:36:17 2.3 C 94 %
1850 26-12-2014 09:48:17 2.4 C 94 %
Sensor: Nr:Datum:Temp:Feuchte:
Aussen-T/F 1851 26-12-2014 10:00:17 2.5 C 94 %
1852 26-12-2014 10:12:17 2.6 C 94 %
1853 26-12-2014 10:24:17 2.8 C 94 %
1854 26-12-2014 10:36:17 2.8 C 94 %
1855 26-12-2014 10:48:17 2.8 C 94 %
1856 26-12-2014 11:00:17 3.1 C 93 %
1857 26-12-2014 11:12:17 3 C 92 %
1858 26-12-2014 11:24:17 3.2 C 92 %
1859 26-12-2014 11:36:17 3.3 C 91 %
1860 26-12-2014 11:48:17 3.4 C 90 %
1861 26-12-2014 12:00:17 3.6 C 89 %
1862 26-12-2014 12:12:17 3.6 C 88 %
1863 26-12-2014 12:24:17 3.7 C 87 %
1864 26-12-2014 12:36:17 3.8 C 87 %
1865 26-12-2014 12:48:17 4 C 85 %
1866 26-12-2014 13:00:17 3.9 C 85 %
1867 26-12-2014 13:12:17 3.8 C 86 %
1868 26-12-2014 13:24:17 3.5 C 86 %
1869 26-12-2014 13:36:17 3.2 C 87 %
1870 26-12-2014 13:48:17 3 C 88 %
1871 26-12-2014 14:00:17 3.1 C 89 %
1872 26-12-2014 14:12:17 3.2 C 90 %
1873 26-12-2014 14:24:17 3.1 C 91 %
1874 26-12-2014 14:36:17 3.2 C 92 %
1875 26-12-2014 14:48:17 3.2 C 92 %
Sensor: Nr:Datum:Temp:Feuchte:
Aussen-T/F 1876 26-12-2014 15:00:17 3.3 C 93 %
1877 26-12-2014 15:12:17 3.2 C 93 %
1878 26-12-2014 15:24:17 3.2 C 93 %
1879 26-12-2014 15:36:17 3.1 C 93 %
1880 26-12-2014 15:48:17 3.1 C 93 %
1881 26-12-2014 16:00:17 2.7 C 94 %
1882 26-12-2014 16:12:17 2.6 C 94 %
1883 26-12-2014 16:24:17 2.4 C 94 %
1884 26-12-2014 16:36:17 2.3 C 94 %
1885 26-12-2014 16:48:17 2.2 C 95 %
1886 26-12-2014 17:00:17 2.4 C 95 %
1887 26-12-2014 17:12:17 2.6 C 95 %
1888 26-12-2014 17:24:17 2.5 C 95 %
1889 26-12-2014 17:36:17 1.8 C 95 %
1890 26-12-2014 17:48:17 1.2 C 95 %
1891 26-12-2014 18:00:17 1.1 C 95 %
1892 26-12-2014 18:12:17 0.9 C 95 %
1893 26-12-2014 18:24:17 0.8 C 95 %
1894 26-12-2014 18:36:17 0.9 C 95 %
1895 26-12-2014 18:48:17 0.8 C 95 %
1896 26-12-2014 19:00:17 0.9 C 95 %
1897 26-12-2014 19:12:17 0.6 C 95 %
1898 26-12-2014 19:24:17 0.3 C 95 %
1899 26-12-2014 19:36:17 0.5 C 95 %
1900 26-12-2014 19:48:17 0.7 C 95 %
Sensor: Nr:Datum:Temp:Feuchte:
Aussen-T/F 1901 26-12-2014 20:00:17 0.4 C 95 %
1902 26-12-2014 20:12:17 0.6 C 95 %
1903 26-12-2014 20:24:17 1 C 95 %
1904 26-12-2014 20:36:17 1 C 95 %
1905 26-12-2014 20:48:17 0.6 C 95 %
1906 26-12-2014 21:00:17 1 C 95 %
1907 26-12-2014 21:12:17 0.9 C 95 %
1908 26-12-2014 21:24:17 1.3 C 95 %
1909 26-12-2014 21:36:17 1.6 C 95 %
1910 26-12-2014 21:48:17 1.5 C 95 %
1911 26-12-2014 22:00:17 1.5 C 95 %
1912 26-12-2014 22:12:17 1.5 C 95 %
1913 26-12-2014 22:24:17 1.4 C 95 %
1914 26-12-2014 22:36:17 1.3 C 95 %
1915 26-12-2014 22:48:17 1.2 C 95 %
1916 26-12-2014 23:00:17 1.3 C 95 %
1917 26-12-2014 23:12:17 1.2 C 95 %
1918 26-12-2014 23:24:17 1.1 C 95 %
1919 26-12-2014 23:36:17 1.1 C 95 %
1920 26-12-2014 23:48:16 1.1 C 95 %
1921 27-12-2014 00:00:17 1.1 C 95 %
1922 27-12-2014 00:12:17 1.1 C 95 %
1923 27-12-2014 00:24:17 1.2 C 95 %
1924 27-12-2014 00:36:17 1.1 C 95 %
1925 27-12-2014 00:48:17 1.1 C 95 %
Sensor: Nr:Datum:Temp:Feuchte:
Aussen-T/F 1926 27-12-2014 01:00:17 0.9 C 95 %
1927 27-12-2014 01:12:17 1 C 95 %
1928 27-12-2014 01:24:17 1 C 95 %
1929 27-12-2014 01:36:17 1 C 95 %
1930 27-12-2014 01:48:17 1 C 95 %
1931 27-12-2014 02:00:17 1.1 C 95 %
1932 27-12-2014 02:12:17 1.1 C 95 %
1933 27-12-2014 02:24:17 1.1 C 95 %
1934 27-12-2014 02:36:17 1.1 C 95 %
1935 27-12-2014 02:48:17 1.1 C 95 %
1936 27-12-2014 03:00:17 1.2 C 95 %
1937 27-12-2014 03:12:17 1.2 C 95 %
1938 27-12-2014 03:24:17 1.3 C 95 %
1939 27-12-2014 03:36:17 1.3 C 95 %
1940 27-12-2014 03:48:17 1.3 C 95 %
1941 27-12-2014 04:00:17 1.4 C 95 %
1942 27-12-2014 04:12:17 1.5 C 95 %
1943 27-12-2014 04:24:17 1.5 C 95 %
1944 27-12-2014 04:36:17 1.6 C 95 %
1945 27-12-2014 04:48:17 1.5 C 95 %
1946 27-12-2014 05:00:17 1.5 C 95 %
1947 27-12-2014 05:12:17 1.3 C 95 %
1948 27-12-2014 05:24:17 1.2 C 95 %
1949 27-12-2014 05:36:17 1 C 95 %
1950 27-12-2014 05:48:17 1 C 95 %
Sensor: Nr:Datum:Temp:Feuchte:
Aussen-T/F 1951 27-12-2014 06:00:17 1 C 95 %
1952 27-12-2014 06:12:17 1.1 C 95 %
1953 27-12-2014 06:24:17 1 C 95 %
1954 27-12-2014 06:36:17 0.9 C 95 %
1955 27-12-2014 06:48:17 0.8 C 95 %
1956 27-12-2014 07:00:17 0.7 C 95 %
1957 27-12-2014 07:12:17 0.7 C 95 %
1958 27-12-2014 07:24:17 0.6 C 95 %
1959 27-12-2014 07:36:17 0.5 C 95 %
1960 27-12-2014 07:48:16 0.4 C 95 %
1961 27-12-2014 08:00:17 0.5 C 95 %
1962 27-12-2014 08:12:17 0.6 C 95 %
1963 27-12-2014 08:24:17 0.6 C 95 %
1964 27-12-2014 08:36:17 0.7 C 95 %
1965 27-12-2014 08:48:17 0.6 C 95 %
1966 27-12-2014 09:00:17 0.4 C 95 %
1967 27-12-2014 09:12:17 0.2 C 95 %
1968 27-12-2014 09:24:17 0.2 C 95 %
1969 27-12-2014 09:36:17 0.3 C 95 %
1970 27-12-2014 09:48:17 0.4 C 95 %
1971 27-12-2014 10:00:17 0.5 C 95 %
1972 27-12-2014 10:12:17 0.4 C 95 %
1973 27-12-2014 10:24:17 0.4 C 95 %
1974 27-12-2014 10:36:17 0.6 C 95 %
1975 27-12-2014 10:48:17 0.7 C 95 %
Sensor: Nr:Datum:Temp:Feuchte:
Aussen-T/F 1976 27-12-2014 11:00:17 0.9 C 95 %
1977 27-12-2014 11:12:17 0.8 C 95 %
1978 27-12-2014 11:24:17 0.5 C 94 %
1979 27-12-2014 11:36:17 0.6 C 94 %
1980 27-12-2014 11:48:17 0.4 C 94 %
1981 27-12-2014 12:00:17 0.4 C 94 %
1982 27-12-2014 12:12:17 0.4 C 94 %
1983 27-12-2014 12:24:17 0.5 C 95 %
1984 27-12-2014 12:36:17 0.6 C 95 %
1985 27-12-2014 12:48:17 0.7 C 95 %
1986 27-12-2014 13:00:17 1 C 94 %
1987 27-12-2014 13:12:18 1.1 C 94 %
1988 27-12-2014 13:24:17 1.2 C 94 %
1989 27-12-2014 13:36:17 1.2 C 94 %
1990 27-12-2014 13:48:17 1.2 C 93 %
1991 27-12-2014 14:00:17 1.3 C 93 %
1992 27-12-2014 14:12:17 1.4 C 93 %
1993 27-12-2014 14:24:17 1.3 C 93 %
1994 27-12-2014 14:36:17 1.4 C 93 %
1995 27-12-2014 14:48:17 1.5 C 93 %
1996 27-12-2014 15:00:17 1.4 C 93 %
1997 27-12-2014 15:12:17 1.5 C 92 %
1998 27-12-2014 15:24:17 1.4 C 92 %
1999 27-12-2014 15:36:17 1.3 C 92 %
2000 27-12-2014 15:48:17 1.2 C 92 %
Sensor: Nr:Datum:Temp:Feuchte:
Aussen-T/F 2001 27-12-2014 16:00:17 1 C 92 %
2002 27-12-2014 16:12:17 1 C 92 %
2003 27-12-2014 16:24:17 0.9 C 93 %
2004 27-12-2014 16:36:17 1 C 93 %
2005 27-12-2014 16:48:17 0.9 C 93 %
2006 27-12-2014 17:00:17 0.9 C 93 %
2007 27-12-2014 17:12:17 0.8 C 93 %
2008 27-12-2014 17:24:17 0.7 C 93 %
2009 27-12-2014 17:36:17 0.7 C 92 %
2010 27-12-2014 17:48:17 0.6 C 92 %
2011 27-12-2014 18:00:17 0.5 C 91 %
2012 27-12-2014 18:12:17 0.4 C 91 %
2013 27-12-2014 18:24:17 0.3 C 91 %
2014 27-12-2014 18:36:17 0.2 C 91 %
2015 27-12-2014 18:48:17 0.1 C 91 %
2016 27-12-2014 19:00:17 0.1 C 91 %
2017 27-12-2014 19:12:17 0 C 90 %
2018 27-12-2014 19:24:17 0 C 89 %
2019 27-12-2014 19:36:17 -0.1 C 88 %
2020 27-12-2014 19:48:17 -0.1 C 87 %
2021 27-12-2014 20:00:17 -0.3 C 86 %
2022 27-12-2014 20:12:17 -0.2 C 85 %
2023 27-12-2014 20:24:17 -0.3 C 84 %
2024 27-12-2014 20:36:17 -0.3 C 83 %
2025 27-12-2014 20:48:17 -0.3 C 82 %
Sensor: Nr:Datum:Temp:Feuchte:
Aussen-T/F 2026 27-12-2014 21:00:17 -0.3 C 82 %
2027 27-12-2014 21:12:18 -0.4 C 82 %
2028 27-12-2014 21:24:17 -0.3 C 81 %
2029 27-12-2014 21:36:17 -0.2 C 81 %
2030 27-12-2014 21:48:17 -0.2 C 80 %
2031 27-12-2014 22:00:17 -0.2 C 79 %
2032 27-12-2014 22:12:17 -0.3 C 77 %
2033 27-12-2014 22:24:17 -0.4 C 77 %
2034 27-12-2014 22:36:17 -0.4 C 76 %
2035 27-12-2014 22:48:17 -0.4 C 75 %
2036 27-12-2014 23:00:17 -0.6 C 73 %
2037 27-12-2014 23:12:17 -0.5 C 72 %
2038 27-12-2014 23:24:17 -0.5 C 72 %
2039 27-12-2014 23:36:17 -0.5 C 70 %
2040 27-12-2014 23:48:17 -0.7 C 71 %
2041 28-12-2014 00:00:17 -0.6 C 71 %
2042 28-12-2014 00:12:17 -0.6 C 70 %
2043 28-12-2014 00:24:17 -0.8 C 69 %
2044 28-12-2014 00:36:17 -1 C 69 %
2045 28-12-2014 00:48:17 -1.1 C 69 %
2046 28-12-2014 01:00:17 -1.1 C 70 %
2047 28-12-2014 01:12:17 -1.1 C 71 %
2048 28-12-2014 01:24:17 -1.1 C 70 %
2049 28-12-2014 01:36:17 -1.2 C 70 %
2050 28-12-2014 01:48:17 -1.2 C 69 %
Sensor: Nr:Datum:Temp:Feuchte:
Aussen-T/F 2051 28-12-2014 02:00:17 -1.2 C 69 %
2052 28-12-2014 02:12:17 -1.2 C 69 %
2053 28-12-2014 02:24:17 -1.2 C 67 %
2054 28-12-2014 02:36:17 -1.3 C 66 %
2055 28-12-2014 02:48:17 -1.2 C 65 %
2056 28-12-2014 03:00:17 -1.3 C 63 %
2057 28-12-2014 03:12:17 -1.4 C 62 %
2058 28-12-2014 03:24:17 -1.4 C 61 %
2059 28-12-2014 03:36:17 -1.4 C 61 %
2060 28-12-2014 03:48:17 -1.4 C 60 %
2061 28-12-2014 04:00:17 -1.6 C 60 %
2062 28-12-2014 04:12:17 -1.7 C 60 %
2063 28-12-2014 04:24:17 -1.9 C 60 %
2064 28-12-2014 04:36:17 -2 C 61 %
2065 28-12-2014 04:48:17 -2.1 C 61 %
2066 28-12-2014 05:00:17 -2.3 C 60 %
2067 28-12-2014 05:12:17 -2.3 C 60 %
2068 28-12-2014 05:24:17 -2.4 C 60 %
2069 28-12-2014 05:36:17 -2.5 C 60 %
2070 28-12-2014 05:48:17 -2.4 C 60 %
2071 28-12-2014 06:00:17 -2.5 C 60 %
2072 28-12-2014 06:12:17 -2.6 C 60 %
2073 28-12-2014 06:24:16 -2.6 C 60 %
2074 28-12-2014 06:36:17 -2.6 C 60 %
2075 28-12-2014 06:48:16 -2.6 C 60 %
Sensor: Nr:Datum:Temp:Feuchte:
Aussen-T/F 2076 28-12-2014 07:00:17 -2.8 C 60 %
2077 28-12-2014 07:12:17 -2.8 C 61 %
2078 28-12-2014 07:24:17 -2.9 C 61 %
2079 28-12-2014 07:36:17 -2.8 C 61 %
2080 28-12-2014 07:48:17 -3.2 C 62 %
2081 28-12-2014 08:00:17 -3.3 C 62 %
2082 28-12-2014 08:12:17 -3.5 C 63 %
2083 28-12-2014 08:24:17 -3.7 C 64 %
2084 28-12-2014 08:36:17 -3.8 C 64 %
2085 28-12-2014 08:48:17 -4.2 C 65 %
2086 28-12-2014 09:00:17 -4 C 66 %
2087 28-12-2014 09:12:17 -4.2 C 66 %
2088 28-12-2014 09:24:17 -4.3 C 67 %
2089 28-12-2014 09:36:17 -3.9 C 64 %
2090 28-12-2014 09:48:17 -3.9 C 62 %
2091 28-12-2014 10:00:17 -3.9 C 61 %
2092 28-12-2014 10:12:17 -4 C 62 %
2093 28-12-2014 10:24:17 -4.4 C 63 %
2094 28-12-2014 10:36:17 -4.5 C 66 %
2095 28-12-2014 10:48:17 -4.5 C 66 %
2096 28-12-2014 11:00:17 -4.5 C 66 %
2097 28-12-2014 11:12:17 -3.7 C 59 %
2098 28-12-2014 11:24:17 -3.5 C 56 %
2099 28-12-2014 11:36:17 -3.3 C 52 %
2100 28-12-2014 11:48:17 -3.2 C 50 %
Sensor: Nr:Datum:Temp:Feuchte:
Aussen-T/F 2101 28-12-2014 12:00:17 -3.1 C 49 %
2102 28-12-2014 12:12:17 -3 C 50 %
2103 28-12-2014 12:24:17 -2.9 C 47 %
2104 28-12-2014 12:36:17 -2.8 C 46 %
2105 28-12-2014 12:48:17 -2.7 C 46 %
2106 28-12-2014 13:00:17 -2.7 C 47 %
2107 28-12-2014 13:12:17 -2.6 C 47 %
2108 28-12-2014 13:25:16 -2.6 C 48 %
2109 28-12-2014 13:36:17 -2.5 C 48 %
2110 28-12-2014 13:48:17 -2.5 C 49 %
2111 28-12-2014 14:01:17 -2.4 C 48 %
2112 28-12-2014 14:13:17 -2.3 C 50 %
2113 28-12-2014 14:24:17 -2.3 C 50 %
2114 28-12-2014 14:36:17 -2.6 C 56 %
2115 28-12-2014 14:49:17 -3 C 61 %
2116 28-12-2014 15:00:17 -2.3 C 55 %
2117 28-12-2014 15:12:17 -2 C 52 %
2118 28-12-2014 15:24:17 -1.9 C 52 %
2119 28-12-2014 15:36:17 -1.9 C 52 %
2120 28-12-2014 15:49:16 -1.8 C 49 %
2121 28-12-2014 16:00:17 -2 C 49 %
2122 28-12-2014 16:12:17 -2.3 C 55 %
2123 28-12-2014 16:24:17 -2.4 C 54 %
2124 28-12-2014 16:36:17 -2.6 C 55 %
2125 28-12-2014 16:49:17 -2.9 C 58 %
Sensor: Nr:Datum:Temp:Feuchte:
Aussen-T/F 2126 28-12-2014 17:00:17 -3.3 C 63 %
2127 28-12-2014 17:12:17 -3.7 C 66 %
2128 28-12-2014 17:24:17 -3.8 C 68 %
2129 28-12-2014 17:36:17 -3.9 C 70 %
2130 28-12-2014 17:49:17 -3.9 C 72 %
2131 28-12-2014 18:01:17 -4 C 71 %
2132 28-12-2014 18:13:17 -4.1 C 71 %
2133 28-12-2014 18:24:17 -4.1 C 71 %
2134 28-12-2014 18:36:17 -4.2 C 72 %
2135 28-12-2014 18:48:17 -4.1 C 71 %
2136 28-12-2014 19:00:17 -4.3 C 71 %
2137 28-12-2014 19:12:17 -4.3 C 72 %
2138 28-12-2014 19:24:17 -4.7 C 73 %
2139 28-12-2014 19:37:17 -4.7 C 74 %
2140 28-12-2014 19:49:17 -4.7 C 74 %
2141 28-12-2014 20:01:17 -4.7 C 75 %
2142 28-12-2014 20:13:17 -4.7 C 75 %
2143 28-12-2014 20:25:17 -4.7 C 76 %
2144 28-12-2014 20:36:17 -4.7 C 76 %
2145 28-12-2014 20:49:17 -4.9 C 76 %
2146 28-12-2014 21:01:17 -4.9 C 77 %
2147 28-12-2014 21:12:17 -5 C 77 %
2148 28-12-2014 21:25:17 -5 C 77 %
2149 28-12-2014 21:37:17 -5.1 C 77 %
2150 28-12-2014 21:49:16 -5.3 C 77 %
Sensor: Nr:Datum:Temp:Feuchte:
Aussen-T/F 2151 28-12-2014 22:01:17 -5.1 C 78 %
2152 28-12-2014 22:12:17 -5.6 C 77 %
2153 28-12-2014 22:24:17 -5.6 C 78 %
2154 28-12-2014 22:37:17 -5.8 C 78 %
2155 28-12-2014 22:49:17 -5.7 C 79 %
2156 28-12-2014 23:01:17 -4.9 C 79 %
2157 28-12-2014 23:13:17 -4.6 C 78 %
2158 28-12-2014 23:25:17 -4.5 C 77 %
2159 28-12-2014 23:37:17 -4.4 C 77 %
2160 28-12-2014 23:49:17 -4.4 C 76 %
2161 29-12-2014 00:01:17 -4.2 C 76 %
2162 29-12-2014 00:13:17 -4.3 C 75 %
2163 29-12-2014 00:25:17 -4.1 C 74 %
2164 29-12-2014 00:37:17 -3.9 C 74 %
2165 29-12-2014 00:48:17 -4 C 73 %
2166 29-12-2014 01:01:17 -3.8 C 73 %
2167 29-12-2014 01:13:17 -3.9 C 73 %
2168 29-12-2014 01:25:17 -3.9 C 72 %
2169 29-12-2014 01:37:17 -4.3 C 72 %
2170 29-12-2014 01:49:17 -4.6 C 73 %
2171 29-12-2014 02:01:17 -4.7 C 74 %
2172 29-12-2014 02:13:17 -4.7 C 74 %
2173 29-12-2014 02:25:17 -5 C 74 %
2174 29-12-2014 02:37:17 -4.9 C 76 %
2175 29-12-2014 02:49:17 -4.3 C 76 %
Sensor: Nr:Datum:Temp:Feuchte:
Aussen-T/F 2176 29-12-2014 03:01:17 -4.2 C 75 %
2177 29-12-2014 03:13:17 -4.1 C 73 %
2178 29-12-2014 03:25:17 -3.9 C 72 %
2179 29-12-2014 03:37:17 -3.8 C 72 %
2180 29-12-2014 03:49:17 -3.7 C 71 %
2181 29-12-2014 04:01:17 -3.7 C 70 %
2182 29-12-2014 04:13:17 -3.4 C 69 %
2183 29-12-2014 04:25:17 -3.3 C 68 %
2184 29-12-2014 04:37:17 -3.4 C 69 %
2185 29-12-2014 04:49:17 -3.7 C 74 %
2186 29-12-2014 05:01:17 -3.8 C 78 %
2187 29-12-2014 05:13:17 -3.7 C 79 %
2188 29-12-2014 05:25:17 -3.5 C 80 %
2189 29-12-2014 05:37:17 -3.4 C 80 %
2190 29-12-2014 05:49:17 -3.5 C 82 %
2191 29-12-2014 06:01:17 -3.5 C 83 %
2192 29-12-2014 06:13:17 -3.4 C 84 %
2193 29-12-2014 06:25:17 -3.4 C 84 %
2194 29-12-2014 06:37:17 -3.2 C 84 %
2195 29-12-2014 06:49:17 -3 C 84 %
2196 29-12-2014 07:01:17 -2.9 C 84 %
2197 29-12-2014 07:13:17 -2.7 C 85 %
2198 29-12-2014 07:25:17 -2.5 C 85 %
2199 29-12-2014 07:37:17 -2.5 C 86 %
2200 29-12-2014 07:49:17 -2.5 C 86 %
Sensor: Nr:Datum:Temp:Feuchte:
Aussen-T/F 2201 29-12-2014 08:01:17 -2.4 C 87 %
2202 29-12-2014 08:13:17 -2.3 C 88 %
2203 29-12-2014 08:25:17 -2.3 C 89 %
2204 29-12-2014 08:37:17 -2.1 C 89 %
2205 29-12-2014 08:49:17 -2 C 89 %
2206 29-12-2014 09:01:17 -2 C 89 %
2207 29-12-2014 09:13:17 -2 C 89 %
2208 29-12-2014 09:25:17 -2 C 89 %
2209 29-12-2014 09:37:17 -2 C 89 %
2210 29-12-2014 09:49:17 -1.9 C 89 %
2211 29-12-2014 10:01:17 -1.6 C 90 %
2212 29-12-2014 10:13:17 -1.4 C 90 %
2213 29-12-2014 10:25:17 -1.2 C 90 %
2214 29-12-2014 10:37:17 -1.1 C 90 %
2215 29-12-2014 10:49:17 -0.9 C 90 %
2216 29-12-2014 11:01:17 -1 C 89 %
2217 29-12-2014 11:13:17 -0.8 C 89 %
2218 29-12-2014 11:25:17 -0.3 C 89 %
2219 29-12-2014 11:37:17 0.1 C 90 %
2220 29-12-2014 11:49:17 0.4 C 90 %
2221 29-12-2014 12:01:17 0.7 C 91 %
2222 29-12-2014 12:13:17 1 C 90 %
2223 29-12-2014 12:25:17 1.3 C 90 %
2224 29-12-2014 12:37:17 1.3 C 89 %
2225 29-12-2014 12:49:17 1.3 C 89 %
Sensor: Nr:Datum:Temp:Feuchte:
Aussen-T/F 2226 29-12-2014 13:01:17 1.5 C 88 %
2227 29-12-2014 13:13:17 1.5 C 88 %
2228 29-12-2014 13:25:17 1.6 C 87 %
2229 29-12-2014 13:37:17 1.5 C 87 %
2230 29-12-2014 13:49:17 1.6 C 87 %
2231 29-12-2014 14:01:17 1.7 C 87 %
2232 29-12-2014 14:13:17 1.6 C 87 %
2233 29-12-2014 14:25:17 1.5 C 87 %
2234 29-12-2014 14:37:18 1.6 C 87 %
2235 29-12-2014 14:49:17 1.7 C 86 %
2236 29-12-2014 15:01:17 1.6 C 86 %
2237 29-12-2014 15:13:17 1.5 C 85 %
2238 29-12-2014 15:25:17 1.4 C 84 %
2239 29-12-2014 15:37:17 1.4 C 84 %
2240 29-12-2014 15:49:17 1.5 C 83 %
2241 29-12-2014 16:01:17 1.5 C 82 %
2242 29-12-2014 16:13:17 1.5 C 79 %
2243 29-12-2014 16:25:17 1.4 C 77 %
2244 29-12-2014 16:37:17 1.3 C 75 %
2245 29-12-2014 16:49:17 1.2 C 75 %
2246 29-12-2014 17:01:17 1.1 C 76 %
2247 29-12-2014 17:13:17 1.1 C 77 %
2248 29-12-2014 17:25:17 1.1 C 77 %
2249 29-12-2014 17:37:17 1 C 77 %
2250 29-12-2014 17:49:17 0.8 C 78 %
Sensor: Nr:Datum:Temp:Feuchte:
Aussen-T/F 2251 29-12-2014 18:01:17 0.8 C 78 %
2252 29-12-2014 18:13:17 0.8 C 77 %
2253 29-12-2014 18:25:17 0.8 C 76 %
2254 29-12-2014 18:37:17 0.7 C 77 %
2255 29-12-2014 18:49:17 0.8 C 75 %
2256 29-12-2014 19:01:17 0.8 C 73 %
2257 29-12-2014 19:13:17 0.8 C 72 %
2258 29-12-2014 19:25:17 0.7 C 73 %
2259 29-12-2014 19:37:17 0.7 C 73 %
2260 29-12-2014 19:49:17 0.6 C 74 %
2261 29-12-2014 20:01:17 0.5 C 74 %
2262 29-12-2014 20:13:17 0.6 C 72 %
2263 29-12-2014 20:25:17 0.7 C 71 %
2264 29-12-2014 20:37:17 0.5 C 72 %
2265 29-12-2014 20:49:16 0.4 C 73 %
2266 29-12-2014 21:01:17 0.4 C 73 %
2267 29-12-2014 21:13:17 0.4 C 73 %
2268 29-12-2014 21:25:17 0.4 C 73 %
2269 29-12-2014 21:37:17 0.4 C 72 %
2270 29-12-2014 21:49:17 0.4 C 72 %
2271 29-12-2014 22:01:17 0.1 C 74 %
2272 29-12-2014 22:13:17 -0.2 C 75 %
2273 29-12-2014 22:25:17 -0.5 C 75 %
2274 29-12-2014 22:37:17 -0.6 C 77 %
2275 29-12-2014 22:49:17 -0.7 C 79 %
Sensor: Nr:Datum:Temp:Feuchte:
Aussen-T/F 2276 29-12-2014 23:01:17 -0.9 C 81 %
2277 29-12-2014 23:13:17 -1 C 81 %
2278 29-12-2014 23:25:17 -0.9 C 82 %
2279 29-12-2014 23:37:17 -0.8 C 81 %
2280 29-12-2014 23:49:17 -0.7 C 81 %
2281 30-12-2014 00:01:17 -0.6 C 81 %
2282 30-12-2014 00:13:17 -0.6 C 81 %
2283 30-12-2014 00:25:17 -0.6 C 81 %
2284 30-12-2014 00:37:17 -0.5 C 81 %
2285 30-12-2014 00:49:17 -0.4 C 81 %
2286 30-12-2014 01:01:17 -0.5 C 81 %
2287 30-12-2014 01:13:17 -1 C 81 %
2288 30-12-2014 01:25:17 -1 C 83 %
2289 30-12-2014 01:37:17 -1 C 83 %
2290 30-12-2014 01:49:17 -1 C 84 %
2291 30-12-2014 02:01:17 -0.9 C 85 %
2292 30-12-2014 02:13:17 -0.7 C 85 %
2293 30-12-2014 02:25:17 -0.7 C 84 %
2294 30-12-2014 02:37:17 -0.6 C 83 %
2295 30-12-2014 02:49:17 -0.5 C 83 %
2296 30-12-2014 03:01:17 -0.5 C 82 %
2297 30-12-2014 03:13:17 -0.4 C 80 %
2298 30-12-2014 03:25:17 -0.3 C 79 %
2299 30-12-2014 03:37:17 -0.4 C 79 %
2300 30-12-2014 03:49:17 -0.3 C 78 %
Sensor: Nr:Datum:Temp:Feuchte:
Aussen-T/F 2301 30-12-2014 04:01:17 -0.3 C 78 %
2302 30-12-2014 04:13:17 -0.3 C 77 %
2303 30-12-2014 04:25:17 -0.3 C 77 %
2304 30-12-2014 04:37:17 -0.2 C 77 %
2305 30-12-2014 04:49:17 -0.2 C 77 %
2306 30-12-2014 05:01:17 -0.3 C 78 %
2307 30-12-2014 05:13:17 -0.4 C 81 %
2308 30-12-2014 05:25:17 -0.5 C 83 %
2309 30-12-2014 05:37:17 -0.5 C 84 %
2310 30-12-2014 05:49:17 -0.5 C 86 %
2311 30-12-2014 06:01:17 -0.4 C 87 %
2312 30-12-2014 06:13:17 -0.4 C 88 %
2313 30-12-2014 06:25:17 -0.3 C 88 %
2314 30-12-2014 06:37:17 -0.2 C 89 %
2315 30-12-2014 06:49:17 -0.2 C 89 %
2316 30-12-2014 07:01:17 -0.1 C 90 %
2317 30-12-2014 07:13:17 -0.2 C 90 %
2318 30-12-2014 07:25:17 -0.1 C 91 %
2319 30-12-2014 07:37:17 0 C 91 %
2320 30-12-2014 07:49:17 0 C 92 %
2321 30-12-2014 08:01:17 0.2 C 92 %
2322 30-12-2014 08:13:17 0.1 C 93 %
2323 30-12-2014 08:25:17 0.1 C 93 %
2324 30-12-2014 08:37:17 0.2 C 93 %
2325 30-12-2014 08:49:17 0.2 C 94 %
Sensor: Nr:Datum:Temp:Feuchte:
Aussen-T/F 2326 30-12-2014 09:01:17 0.2 C 94 %
2327 30-12-2014 09:13:17 0.3 C 94 %
2328 30-12-2014 09:25:17 0.4 C 94 %
2329 30-12-2014 09:37:17 0.5 C 94 %
2330 30-12-2014 09:49:17 0.7 C 95 %
2331 30-12-2014 10:01:17 0.8 C 95 %
2332 30-12-2014 10:13:17 0.9 C 95 %
2333 30-12-2014 10:25:17 1 C 94 %
2334 30-12-2014 10:37:17 1.3 C 95 %
2335 30-12-2014 10:49:17 1.5 C 94 %
2336 30-12-2014 11:01:17 1.6 C 94 %
2337 30-12-2014 11:13:17 2 C 93 %
2338 30-12-2014 11:25:17 2.1 C 92 %
2339 30-12-2014 11:37:17 2 C 91 %
2340 30-12-2014 11:49:17 2.2 C 90 %
2341 30-12-2014 12:01:17 2.4 C 88 %
2342 30-12-2014 12:13:17 2.5 C 87 %
2343 30-12-2014 12:25:16 2.7 C 85 %
2344 30-12-2014 12:37:17 2.7 C 83 %
2345 30-12-2014 12:49:16 2.6 C 83 %
2346 30-12-2014 13:01:17 2.6 C 82 %
2347 30-12-2014 13:13:17 2.5 C 83 %
2348 30-12-2014 13:25:17 2.6 C 83 %
2349 30-12-2014 13:37:17 2.5 C 83 %
2350 30-12-2014 13:49:17 2.5 C 83 %
Sensor: Nr:Datum:Temp:Feuchte:
Aussen-T/F 2351 30-12-2014 14:01:17 2.7 C 83 %
2352 30-12-2014 14:13:17 3.1 C 80 %
2353 30-12-2014 14:25:17 3.3 C 78 %
2354 30-12-2014 14:37:17 3.1 C 77 %
2355 30-12-2014 14:49:17 3 C 77 %
2356 30-12-2014 15:01:17 2.9 C 79 %
2357 30-12-2014 15:13:17 3 C 78 %
2358 30-12-2014 15:25:17 3 C 78 %
2359 30-12-2014 15:37:17 3 C 79 %
2360 30-12-2014 15:49:17 2.8 C 81 %
2361 30-12-2014 16:01:17 2.9 C 82 %
2362 30-12-2014 16:13:17 2.5 C 83 %
2363 30-12-2014 16:25:17 2.3 C 84 %
2364 30-12-2014 16:37:17 2.2 C 85 %
2365 30-12-2014 16:49:17 2.1 C 85 %
2366 30-12-2014 17:01:17 2.2 C 86 %
2367 30-12-2014 17:13:17 2.3 C 86 %
2368 30-12-2014 17:25:17 2.1 C 86 %
2369 30-12-2014 17:37:17 2.2 C 86 %
2370 30-12-2014 17:49:17 2.3 C 86 %
2371 30-12-2014 18:01:17 2 C 86 %
2372 30-12-2014 18:13:17 1.9 C 87 %
2373 30-12-2014 18:25:17 1.7 C 87 %
2374 30-12-2014 18:37:17 1.5 C 88 %
2375 30-12-2014 18:49:17 1.6 C 89 %
Sensor: Nr:Datum:Temp:Feuchte:
Aussen-T/F 2376 30-12-2014 19:01:17 1.5 C 89 %
2377 30-12-2014 19:13:17 1.4 C 89 %
2378 30-12-2014 19:25:17 1.4 C 89 %
2379 30-12-2014 19:37:17 1.4 C 89 %
2380 30-12-2014 19:49:17 1.5 C 89 %
2381 30-12-2014 20:01:17 1.7 C 88 %
2382 30-12-2014 20:13:17 1.6 C 87 %
2383 30-12-2014 20:25:17 1.6 C 86 %
2384 30-12-2014 20:37:17 1.8 C 85 %
2385 30-12-2014 20:49:17 1.5 C 85 %
2386 30-12-2014 21:01:17 1.3 C 85 %
2387 30-12-2014 21:13:17 1.3 C 86 %
2388 30-12-2014 21:25:18 1.2 C 87 %
2389 30-12-2014 21:37:17 1.2 C 87 %
2390 30-12-2014 21:49:17 1.3 C 87 %
2391 30-12-2014 22:01:17 1.2 C 87 %
2392 30-12-2014 22:13:17 1.1 C 88 %
2393 30-12-2014 22:25:17 1.1 C 88 %
2394 30-12-2014 22:37:18 1.2 C 88 %
2395 30-12-2014 22:49:17 1.1 C 88 %
2396 30-12-2014 23:01:17 1.2 C 88 %
2397 30-12-2014 23:13:17 1.2 C 88 %
2398 30-12-2014 23:25:17 1.2 C 88 %
2399 30-12-2014 23:37:17 1.2 C 88 %
2400 30-12-2014 23:49:17 1.2 C 88 %
Sensor: Nr:Datum:Temp:Feuchte:
Aussen-T/F 2401 31-12-2014 00:01:17 1.2 C 88 %
2402 31-12-2014 00:13:17 1.1 C 88 %
2403 31-12-2014 00:25:17 1.1 C 88 %
2404 31-12-2014 00:37:17 1 C 89 %
2405 31-12-2014 00:49:17 1 C 89 %
2406 31-12-2014 01:01:17 1.1 C 89 %
2407 31-12-2014 01:13:17 1.1 C 89 %
2408 31-12-2014 01:25:17 1.2 C 89 %
2409 31-12-2014 01:37:17 1.3 C 89 %
2410 31-12-2014 01:49:17 1.2 C 89 %
2411 31-12-2014 02:01:17 1.2 C 89 %
2412 31-12-2014 02:13:17 1.2 C 89 %
2413 31-12-2014 02:25:17 1.2 C 90 %
2414 31-12-2014 02:37:17 1.3 C 90 %
2415 31-12-2014 02:49:17 1.2 C 90 %
2416 31-12-2014 03:01:17 1.2 C 90 %
2417 31-12-2014 03:13:17 1.3 C 90 %
2418 31-12-2014 03:25:17 1.3 C 90 %
2419 31-12-2014 03:37:17 1.3 C 90 %
2420 31-12-2014 03:49:17 1.3 C 90 %
2421 31-12-2014 04:01:17 1.3 C 90 %
2422 31-12-2014 04:13:17 1.3 C 90 %
2423 31-12-2014 04:25:17 1.3 C 90 %
2424 31-12-2014 04:37:17 1.4 C 90 %
2425 31-12-2014 04:49:17 1.4 C 90 %
Sensor: Nr:Datum:Temp:Feuchte:
Aussen-T/F 2426 31-12-2014 05:01:17 1.3 C 90 %
2427 31-12-2014 05:13:17 1.4 C 90 %
2428 31-12-2014 05:25:17 1.5 C 90 %
2429 31-12-2014 05:37:17 1.5 C 89 %
2430 31-12-2014 05:49:17 1.5 C 89 %
2431 31-12-2014 06:01:17 1.4 C 89 %
2432 31-12-2014 06:13:17 1.5 C 89 %
2433 31-12-2014 06:25:17 1.5 C 89 %
2434 31-12-2014 06:37:17 1.5 C 89 %
2435 31-12-2014 06:49:17 1.5 C 89 %
2436 31-12-2014 07:01:17 1.5 C 89 %
2437 31-12-2014 07:13:17 1.6 C 89 %
2438 31-12-2014 07:25:17 1.7 C 89 %
2439 31-12-2014 07:37:17 1.7 C 88 %
2440 31-12-2014 07:49:17 1.6 C 88 %
2441 31-12-2014 08:01:17 1.7 C 88 %
2442 31-12-2014 08:13:17 1.7 C 88 %
2443 31-12-2014 08:25:17 1.7 C 88 %
2444 31-12-2014 08:37:17 1.7 C 88 %
2445 31-12-2014 08:49:17 1.8 C 88 %
2446 31-12-2014 09:01:17 1.8 C 88 %
2447 31-12-2014 09:13:17 1.8 C 87 %
2448 31-12-2014 09:25:17 2 C 86 %
2449 31-12-2014 09:37:17 2 C 85 %
2450 31-12-2014 09:49:17 2.1 C 85 %
Sensor: Nr:Datum:Temp:Feuchte:
Aussen-T/F 2451 31-12-2014 10:01:17 2.2 C 84 %
2452 31-12-2014 10:13:17 2.2 C 84 %
2453 31-12-2014 10:25:17 2.3 C 83 %
2454 31-12-2014 10:37:17 2.4 C 83 %
2455 31-12-2014 10:49:17 2.5 C 82 %
2456 31-12-2014 11:01:17 2.5 C 82 %
2457 31-12-2014 11:13:17 2.6 C 82 %
2458 31-12-2014 11:25:17 2.7 C 82 %
2459 31-12-2014 11:37:17 2.8 C 82 %
2460 31-12-2014 11:49:17 2.9 C 82 %
2461 31-12-2014 12:01:17 2.9 C 82 %
2462 31-12-2014 12:13:17 2.9 C 82 %
2463 31-12-2014 12:25:17 2.8 C 83 %
2464 31-12-2014 12:37:17 2.8 C 84 %
2465 31-12-2014 12:49:17 2.8 C 85 %
2466 31-12-2014 13:01:17 2.8 C 86 %
2467 31-12-2014 13:13:18 2.7 C 86 %
2468 31-12-2014 13:25:17 2.7 C 86 %
2469 31-12-2014 13:37:17 2.7 C 87 %
2470 31-12-2014 13:49:17 2.7 C 88 %
2471 31-12-2014 14:01:17 2.7 C 89 %
2472 31-12-2014 14:13:17 2.7 C 90 %
2473 31-12-2014 14:25:17 2.7 C 90 %
2474 31-12-2014 14:37:17 2.7 C 91 %
2475 31-12-2014 14:49:17 2.7 C 92 %
Sensor: Nr:Datum:Temp:Feuchte:
Aussen-T/F 2476 31-12-2014 15:01:18 2.7 C 92 %
2477 31-12-2014 15:13:18 2.7 C 93 %
2478 31-12-2014 15:25:17 2.7 C 93 %
2479 31-12-2014 15:37:17 2.7 C 93 %
2480 31-12-2014 15:49:17 2.7 C 94 %
2481 31-12-2014 16:01:17 2.7 C 94 %
2482 31-12-2014 16:13:17 2.7 C 94 %
2483 31-12-2014 16:25:17 2.6 C 94 %
2484 31-12-2014 16:37:17 2.5 C 94 %
2485 31-12-2014 16:49:17 2.5 C 94 %
2486 31-12-2014 17:01:17 2.5 C 94 %
2487 31-12-2014 17:13:17 2.5 C 94 %
2488 31-12-2014 17:25:17 2.4 C 94 %
2489 31-12-2014 17:37:17 2.6 C 94 %
2490 31-12-2014 17:49:17 2.5 C 94 %
2491 31-12-2014 18:01:17 2.5 C 94 %
2492 31-12-2014 18:13:17 2.4 C 94 %
2493 31-12-2014 18:25:17 2.5 C 94 %
2494 31-12-2014 18:37:17 2.5 C 94 %
2495 31-12-2014 18:49:17 2.5 C 94 %
2496 31-12-2014 19:01:17 2.5 C 94 %
2497 31-12-2014 19:13:17 2.5 C 94 %
2498 31-12-2014 19:25:17 2.5 C 94 %
2499 31-12-2014 19:37:17 2.5 C 93 %
2500 31-12-2014 19:49:17 2.5 C 93 %
Sensor: Nr:Datum:Temp:Feuchte:
Aussen-T/F 2501 31-12-2014 20:01:17 2.4 C 93 %
2502 31-12-2014 20:13:17 2.4 C 93 %
2503 31-12-2014 20:25:17 2.2 C 93 %
2504 31-12-2014 20:37:17 2.2 C 93 %
2505 31-12-2014 20:49:17 2.2 C 93 %
2506 31-12-2014 21:01:17 2.1 C 93 %
2507 31-12-2014 21:13:17 2.2 C 93 %
2508 31-12-2014 21:25:17 2.2 C 93 %
2509 31-12-2014 21:37:17 2.2 C 93 %
2510 31-12-2014 21:49:17 2.2 C 93 %
2511 31-12-2014 22:01:17 2.2 C 93 %
2512 31-12-2014 22:13:17 2.1 C 93 %
2513 31-12-2014 22:25:17 2.1 C 93 %
2514 31-12-2014 22:37:17 2.1 C 93 %
2515 31-12-2014 22:49:17 2.2 C 93 %
2516 31-12-2014 23:01:17 2.1 C 93 %
2517 31-12-2014 23:13:17 2 C 93 %
2518 31-12-2014 23:25:17 1.9 C 94 %
2519 31-12-2014 23:37:17 1.8 C 94 %
2520 31-12-2014 23:49:17 1.8 C 94 %
Sensor: Nr:Datum:Temp:Feuchte:
G-T/H 1 11-12-2014 00:11:17 7.6 C 75 %
2 11-12-2014 00:23:17 7.6 C 75 %
3 11-12-2014 00:35:17 7.6 C 75 %
4 11-12-2014 00:47:17 7.6 C 75 %
5 11-12-2014 00:59:17 7.6 C 75 %
6 11-12-2014 01:11:17 7.6 C 75 %
7 11-12-2014 01:23:17 7.6 C 75 %
8 11-12-2014 01:35:17 7.6 C 75 %
9 11-12-2014 01:47:17 7.6 C 75 %
10 11-12-2014 01:59:17 7.6 C 75 %
11 11-12-2014 02:11:17 7.6 C 75 %
12 11-12-2014 02:23:17 7.6 C 75 %
13 11-12-2014 02:35:17 7.6 C 75 %
14 11-12-2014 02:47:17 7.6 C 75 %
15 11-12-2014 02:59:17 7.6 C 75 %
16 11-12-2014 03:11:17 7.6 C 75 %
17 11-12-2014 03:23:17 7.6 C 75 %
18 11-12-2014 03:35:17 7.7 C 75 %
19 11-12-2014 03:47:17 7.6 C 75 %
20 11-12-2014 03:59:17 7.6 C 75 %
21 11-12-2014 04:11:17 7.6 C 75 %
22 11-12-2014 04:23:17 7.6 C 75 %
23 11-12-2014 04:35:17 7.6 C 75 %
24 11-12-2014 04:47:17 7.7 C 75 %
25 11-12-2014 04:59:17 7.7 C 75 %
Sensor: Nr:Datum:Temp:Feuchte:
G-T/H 26 11-12-2014 05:11:17 7.6 C 75 %
27 11-12-2014 05:23:17 7.7 C 75 %
28 11-12-2014 05:35:17 7.7 C 75 %
29 11-12-2014 05:47:17 7.7 C 75 %
30 11-12-2014 05:59:17 7.7 C 75 %
31 11-12-2014 06:11:17 7.7 C 75 %
32 11-12-2014 06:23:17 7.7 C 76 %
33 11-12-2014 06:35:16 7.7 C 76 %
34 11-12-2014 06:47:17 7.7 C 76 %
35 11-12-2014 06:59:17 7.7 C 76 %
36 11-12-2014 07:11:17 7.7 C 76 %
37 11-12-2014 07:23:17 7.7 C 76 %
38 11-12-2014 07:35:16 7.7 C 76 %
39 11-12-2014 07:47:17 7.7 C 76 %
40 11-12-2014 07:59:17 7.7 C 76 %
41 11-12-2014 08:11:17 7.7 C 76 %
42 11-12-2014 08:23:17 7.7 C 76 %
43 11-12-2014 08:35:17 7.8 C 76 %
44 11-12-2014 08:47:17 7.7 C 76 %
45 11-12-2014 08:59:17 7.8 C 76 %
46 11-12-2014 09:11:17 7.8 C 76 %
47 11-12-2014 09:23:17 7.8 C 76 %
48 11-12-2014 09:35:17 7.8 C 76 %
49 11-12-2014 09:47:17 7.8 C 76 %
50 11-12-2014 09:59:17 7.8 C 76 %
Sensor: Nr:Datum:Temp:Feuchte:
G-T/H 51 11-12-2014 10:11:17 7.8 C 76 %
52 11-12-2014 10:23:17 7.8 C 76 %
53 11-12-2014 10:35:17 7.8 C 76 %
54 11-12-2014 10:47:17 7.8 C 76 %
55 11-12-2014 10:59:17 7.8 C 76 %
56 11-12-2014 11:11:17 7.8 C 76 %
57 11-12-2014 11:23:17 7.8 C 76 %
58 11-12-2014 11:35:16 7.8 C 76 %
59 11-12-2014 11:47:17 7.9 C 76 %
60 11-12-2014 11:59:17 7.9 C 76 %
61 11-12-2014 12:11:17 7.9 C 76 %
62 11-12-2014 12:23:17 7.9 C 76 %
63 11-12-2014 12:35:17 7.9 C 76 %
64 11-12-2014 12:47:17 7.9 C 76 %
65 11-12-2014 12:59:17 7.9 C 76 %
66 11-12-2014 13:11:17 7.9 C 76 %
67 11-12-2014 13:23:17 7.9 C 76 %
68 11-12-2014 13:35:17 7.9 C 76 %
69 11-12-2014 13:47:17 7.9 C 76 %
70 11-12-2014 13:59:17 7.9 C 76 %
71 11-12-2014 14:11:17 8 C 75 %
72 11-12-2014 14:23:17 7.9 C 76 %
73 11-12-2014 14:35:17 8 C 75 %
74 11-12-2014 14:47:17 8 C 75 %
75 11-12-2014 14:59:17 8 C 75 %
Sensor: Nr:Datum:Temp:Feuchte:
G-T/H 76 11-12-2014 15:11:17 8 C 75 %
77 11-12-2014 15:23:17 8 C 75 %
78 11-12-2014 15:35:17 8 C 75 %
79 11-12-2014 15:47:17 8 C 76 %
80 11-12-2014 15:59:17 8 C 75 %
81 11-12-2014 16:11:17 8 C 76 %
82 11-12-2014 16:23:17 8 C 75 %
83 11-12-2014 16:35:17 8 C 75 %
84 11-12-2014 16:47:17 8 C 76 %
85 11-12-2014 16:59:17 8 C 75 %
86 11-12-2014 17:11:17 8 C 76 %
87 11-12-2014 17:23:17 8 C 76 %
88 11-12-2014 17:35:17 8 C 76 %
89 11-12-2014 17:47:17 8 C 76 %
90 11-12-2014 17:59:17 8 C 76 %
91 11-12-2014 18:11:17 8 C 76 %
92 11-12-2014 18:23:17 8 C 76 %
93 11-12-2014 18:35:17 8 C 76 %
94 11-12-2014 18:47:17 8 C 76 %
95 11-12-2014 18:59:17 8.1 C 76 %
96 11-12-2014 19:11:17 8 C 76 %
97 11-12-2014 19:23:17 8 C 76 %
98 11-12-2014 19:35:17 8.1 C 76 %
99 11-12-2014 19:47:17 8.1 C 76 %
100 11-12-2014 19:59:17 8 C 76 %
Sensor: Nr:Datum:Temp:Feuchte:
G-T/H 101 11-12-2014 20:11:17 8.1 C 76 %
102 11-12-2014 20:23:17 8.1 C 76 %
103 11-12-2014 20:35:17 8.1 C 76 %
104 11-12-2014 20:47:17 8.1 C 76 %
105 11-12-2014 20:59:17 8.1 C 76 %
106 11-12-2014 21:11:17 8.1 C 76 %
107 11-12-2014 21:23:17 8.1 C 76 %
108 11-12-2014 21:35:17 8.1 C 76 %
109 11-12-2014 21:47:17 8.1 C 76 %
110 11-12-2014 21:59:17 8.1 C 76 %
111 11-12-2014 22:11:17 8.1 C 76 %
112 11-12-2014 22:23:17 8.1 C 76 %
113 11-12-2014 22:35:17 8.1 C 76 %
114 11-12-2014 22:47:17 8.1 C 76 %
115 11-12-2014 22:59:17 8.1 C 76 %
116 11-12-2014 23:11:17 8.1 C 76 %
117 11-12-2014 23:23:17 8.1 C 76 %
118 11-12-2014 23:35:17 8.1 C 76 %
119 11-12-2014 23:47:17 8.1 C 76 %
120 11-12-2014 23:59:17 8.1 C 76 %
121 12-12-2014 00:11:17 8.1 C 76 %
122 12-12-2014 00:23:17 8.1 C 76 %
123 12-12-2014 00:35:17 8.1 C 76 %
124 12-12-2014 00:47:17 8.1 C 76 %
125 12-12-2014 00:59:17 8.1 C 76 %
Sensor: Nr:Datum:Temp:Feuchte:
G-T/H 126 12-12-2014 01:11:17 8.1 C 76 %
127 12-12-2014 01:23:17 8.1 C 76 %
128 12-12-2014 01:35:17 8.1 C 76 %
129 12-12-2014 01:47:17 8.1 C 76 %
130 12-12-2014 01:59:17 8.2 C 76 %
131 12-12-2014 02:11:17 8.1 C 76 %
132 12-12-2014 02:23:17 8.2 C 76 %
133 12-12-2014 02:35:17 8.2 C 76 %
134 12-12-2014 02:47:17 8.2 C 76 %
135 12-12-2014 02:59:17 8.1 C 76 %
136 12-12-2014 03:11:17 8.2 C 76 %
137 12-12-2014 03:23:17 8.2 C 76 %
138 12-12-2014 03:35:17 8.2 C 76 %
139 12-12-2014 03:47:16 8.2 C 76 %
140 12-12-2014 03:59:17 8.2 C 76 %
141 12-12-2014 04:11:17 8.2 C 76 %
142 12-12-2014 04:23:17 8.2 C 76 %
143 12-12-2014 04:35:17 8.2 C 76 %
144 12-12-2014 04:47:17 8.2 C 76 %
145 12-12-2014 04:59:17 8.2 C 76 %
146 12-12-2014 05:11:17 8.2 C 76 %
147 12-12-2014 05:23:17 8.3 C 76 %
148 12-12-2014 05:35:17 8.3 C 76 %
149 12-12-2014 05:47:17 8.3 C 76 %
150 12-12-2014 05:59:17 8.3 C 76 %
Sensor: Nr:Datum:Temp:Feuchte:
G-T/H 151 12-12-2014 06:11:17 8.3 C 76 %
152 12-12-2014 06:23:17 8.3 C 77 %
153 12-12-2014 06:35:17 8.3 C 76 %
154 12-12-2014 06:47:17 8.3 C 77 %
155 12-12-2014 06:59:17 8.3 C 77 %
156 12-12-2014 07:11:17 8.3 C 77 %
157 12-12-2014 07:23:17 8.3 C 77 %
158 12-12-2014 07:35:17 8.3 C 77 %
159 12-12-2014 07:47:17 8.3 C 77 %
160 12-12-2014 07:59:17 8.3 C 77 %
161 12-12-2014 08:11:17 8.4 C 77 %
162 12-12-2014 08:23:17 8.4 C 77 %
163 12-12-2014 08:35:17 8.4 C 77 %
164 12-12-2014 08:47:17 8.4 C 77 %
165 12-12-2014 08:59:17 8.4 C 77 %
166 12-12-2014 09:11:17 8.4 C 77 %
167 12-12-2014 09:23:17 8.4 C 77 %
168 12-12-2014 09:35:17 8.4 C 77 %
169 12-12-2014 09:47:17 8.4 C 77 %
170 12-12-2014 09:59:17 8.4 C 77 %
171 12-12-2014 10:11:17 8.4 C 77 %
172 12-12-2014 10:23:17 8.4 C 77 %
173 12-12-2014 10:35:17 8.4 C 77 %
174 12-12-2014 10:47:17 8.5 C 77 %
175 12-12-2014 10:59:17 8.5 C 77 %
Sensor: Nr:Datum:Temp:Feuchte:
G-T/H 176 12-12-2014 11:11:17 8.5 C 77 %
177 12-12-2014 11:23:17 8.5 C 77 %
178 12-12-2014 11:35:17 8.5 C 77 %
179 12-12-2014 11:47:16 8.5 C 77 %
180 12-12-2014 11:59:17 8.5 C 77 %
181 12-12-2014 12:11:17 8.5 C 77 %
182 12-12-2014 12:23:17 8.5 C 77 %
183 12-12-2014 12:35:17 8.6 C 77 %
184 12-12-2014 12:47:17 8.6 C 77 %
185 12-12-2014 12:59:17 8.6 C 77 %
186 12-12-2014 13:11:17 8.6 C 77 %
187 12-12-2014 13:23:17 8.6 C 77 %
188 12-12-2014 13:35:17 8.6 C 77 %
189 12-12-2014 13:47:17 8.6 C 77 %
190 12-12-2014 13:59:17 8.6 C 77 %
191 12-12-2014 14:11:17 8.6 C 77 %
192 12-12-2014 14:23:17 8.7 C 77 %
193 12-12-2014 14:35:17 8.7 C 77 %
194 12-12-2014 14:47:17 8.7 C 77 %
195 12-12-2014 14:59:17 8.7 C 77 %
196 12-12-2014 15:11:17 8.7 C 77 %
197 12-12-2014 15:23:17 8.7 C 77 %
198 12-12-2014 15:35:17 8.7 C 77 %
199 12-12-2014 15:47:17 8.7 C 77 %
200 12-12-2014 15:59:17 8.7 C 77 %
Sensor: Nr:Datum:Temp:Feuchte:
G-T/H 201 12-12-2014 16:11:17 8.8 C 77 %
202 12-12-2014 16:23:17 8.8 C 77 %
203 12-12-2014 16:35:17 8.8 C 78 %
204 12-12-2014 16:47:17 8.8 C 78 %
205 12-12-2014 16:59:17 8.9 C 78 %
206 12-12-2014 17:11:17 8.9 C 78 %
207 12-12-2014 17:23:17 8.9 C 78 %
208 12-12-2014 17:35:17 8.8 C 78 %
209 12-12-2014 17:47:17 8.9 C 78 %
210 12-12-2014 17:59:17 8.9 C 78 %
211 12-12-2014 18:11:17 8.9 C 78 %
212 12-12-2014 18:23:17 8.9 C 78 %
213 12-12-2014 18:35:17 8.9 C 78 %
214 12-12-2014 18:47:17 8.9 C 78 %
215 12-12-2014 18:59:17 9 C 77 %
216 12-12-2014 19:11:17 9 C 77 %
217 12-12-2014 19:23:17 9 C 77 %
218 12-12-2014 19:35:17 9 C 77 %
219 12-12-2014 19:47:17 9 C 77 %
220 12-12-2014 19:59:17 9 C 77 %
221 12-12-2014 20:11:17 9 C 77 %
222 12-12-2014 20:23:17 9 C 77 %
223 12-12-2014 20:35:17 9.1 C 77 %
224 12-12-2014 20:47:17 9.1 C 77 %
225 12-12-2014 20:59:17 9.1 C 77 %
Sensor: Nr:Datum:Temp:Feuchte:
G-T/H 226 12-12-2014 21:11:17 9.1 C 77 %
227 12-12-2014 21:23:17 9.1 C 77 %
228 12-12-2014 21:35:17 9.1 C 77 %
229 12-12-2014 21:47:17 9.1 C 77 %
230 12-12-2014 21:59:17 9.1 C 77 %
231 12-12-2014 22:11:17 9.1 C 77 %
232 12-12-2014 22:23:17 9.1 C 77 %
233 12-12-2014 22:35:17 9.1 C 77 %
234 12-12-2014 22:47:17 9.1 C 77 %
235 12-12-2014 22:59:17 9.2 C 77 %
236 12-12-2014 23:11:17 9.2 C 77 %
237 12-12-2014 23:23:17 9.2 C 77 %
238 12-12-2014 23:35:17 9.2 C 77 %
239 12-12-2014 23:47:17 9.2 C 77 %
240 12-12-2014 23:59:17 9.2 C 77 %
241 13-12-2014 00:11:17 9.2 C 77 %
242 13-12-2014 00:23:17 9.2 C 77 %
243 13-12-2014 00:35:17 9.2 C 77 %
244 13-12-2014 00:47:17 9.2 C 77 %
245 13-12-2014 00:59:17 9.2 C 77 %
246 13-12-2014 01:11:17 9.2 C 77 %
247 13-12-2014 01:23:17 9.2 C 77 %
248 13-12-2014 01:35:17 9.2 C 77 %
249 13-12-2014 01:47:17 9.2 C 77 %
250 13-12-2014 01:59:17 9.2 C 77 %
Sensor: Nr:Datum:Temp:Feuchte:
G-T/H 251 13-12-2014 02:11:17 9.2 C 77 %
252 13-12-2014 02:23:17 9.2 C 77 %
253 13-12-2014 02:35:16 9.2 C 77 %
254 13-12-2014 02:47:17 9.2 C 77 %
255 13-12-2014 02:59:17 9.2 C 77 %
256 13-12-2014 03:11:17 9.2 C 77 %
257 13-12-2014 03:23:17 9.2 C 77 %
258 13-12-2014 03:35:17 9.2 C 77 %
259 13-12-2014 03:47:17 9.2 C 77 %
260 13-12-2014 03:59:17 9.2 C 77 %
261 13-12-2014 04:11:17 9.2 C 77 %
262 13-12-2014 04:23:17 9.2 C 77 %
263 13-12-2014 04:35:17 9.2 C 77 %
264 13-12-2014 04:47:17 9.2 C 77 %
265 13-12-2014 04:59:17 9.2 C 77 %
266 13-12-2014 05:11:17 9.2 C 77 %
267 13-12-2014 05:23:17 9.2 C 77 %
268 13-12-2014 05:35:17 9.2 C 77 %
269 13-12-2014 05:47:17 9.2 C 77 %
270 13-12-2014 05:59:17 9.2 C 77 %
271 13-12-2014 06:11:17 9.2 C 77 %
272 13-12-2014 06:23:17 9.2 C 77 %
273 13-12-2014 06:35:17 9.2 C 77 %
274 13-12-2014 06:47:17 9.2 C 77 %
275 13-12-2014 06:59:17 9.2 C 77 %
Sensor: Nr:Datum:Temp:Feuchte:
G-T/H 276 13-12-2014 07:11:17 9.2 C 77 %
277 13-12-2014 07:23:17 9.2 C 77 %
278 13-12-2014 07:35:17 9.2 C 77 %
279 13-12-2014 07:47:17 9.2 C 77 %
280 13-12-2014 07:59:17 9.2 C 77 %
281 13-12-2014 08:11:17 9.2 C 77 %
282 13-12-2014 08:23:17 9.2 C 77 %
283 13-12-2014 08:35:17 9.2 C 77 %
284 13-12-2014 08:47:17 9.2 C 77 %
285 13-12-2014 08:59:17 9.2 C 77 %
286 13-12-2014 09:11:17 9.2 C 77 %
287 13-12-2014 09:23:17 9.1 C 77 %
288 13-12-2014 09:35:17 9.1 C 77 %
289 13-12-2014 09:47:16 9 C 77 %
290 13-12-2014 09:59:16 9 C 76 %
291 13-12-2014 10:11:17 8.9 C 77 %
292 13-12-2014 10:23:17 8.9 C 76 %
293 13-12-2014 10:35:17 8.9 C 76 %
294 13-12-2014 10:47:17 8.9 C 76 %
295 13-12-2014 10:59:17 9 C 75 %
296 13-12-2014 11:11:17 9 C 75 %
297 13-12-2014 11:23:17 9 C 75 %
298 13-12-2014 11:35:17 9 C 75 %
299 13-12-2014 11:47:17 9 C 76 %
300 13-12-2014 11:59:17 9.1 C 76 %
Sensor: Nr:Datum:Temp:Feuchte:
G-T/H 301 13-12-2014 12:11:17 9.1 C 75 %
302 13-12-2014 12:23:17 9.1 C 75 %
303 13-12-2014 12:35:16 9 C 75 %
304 13-12-2014 12:47:16 9 C 74 %
305 13-12-2014 12:59:17 8.9 C 75 %
306 13-12-2014 13:11:17 8.9 C 75 %
307 13-12-2014 13:23:17 8.8 C 74 %
308 13-12-2014 13:35:17 8.8 C 74 %
309 13-12-2014 13:47:17 8.8 C 74 %
310 13-12-2014 13:59:17 8.8 C 74 %
311 13-12-2014 14:11:17 8.7 C 74 %
312 13-12-2014 14:23:16 8.7 C 73 %
313 13-12-2014 14:35:17 8.7 C 73 %
314 13-12-2014 14:47:17 8.7 C 73 %
315 13-12-2014 14:59:17 8.7 C 73 %
316 13-12-2014 15:11:17 8.6 C 73 %
317 13-12-2014 15:23:17 8.6 C 73 %
318 13-12-2014 15:35:17 8.7 C 73 %
319 13-12-2014 15:47:17 8.7 C 73 %
320 13-12-2014 15:59:17 8.7 C 73 %
321 13-12-2014 16:11:17 8.6 C 73 %
322 13-12-2014 16:23:17 8.6 C 73 %
323 13-12-2014 16:35:16 8.5 C 73 %
324 13-12-2014 16:47:17 8.5 C 73 %
325 13-12-2014 16:59:17 8.5 C 72 %
Sensor: Nr:Datum:Temp:Feuchte:
G-T/H 326 13-12-2014 17:11:17 8.5 C 72 %
327 13-12-2014 17:23:17 8.4 C 72 %
328 13-12-2014 17:35:17 8.4 C 72 %
329 13-12-2014 17:47:17 8.4 C 72 %
330 13-12-2014 17:59:17 8.4 C 71 %
331 13-12-2014 18:11:17 8.4 C 71 %
332 13-12-2014 18:23:17 8.3 C 71 %
333 13-12-2014 18:35:17 8.3 C 71 %
334 13-12-2014 18:47:17 8.3 C 71 %
335 13-12-2014 18:59:17 8.3 C 71 %
336 13-12-2014 19:11:17 8.3 C 71 %
337 13-12-2014 19:23:17 8.2 C 71 %
338 13-12-2014 19:35:17 8.2 C 71 %
339 13-12-2014 19:47:17 8.2 C 71 %
340 13-12-2014 19:59:17 8.2 C 71 %
341 13-12-2014 20:11:17 8.2 C 71 %
342 13-12-2014 20:23:17 8.2 C 71 %
343 13-12-2014 20:35:17 8.1 C 71 %
344 13-12-2014 20:47:17 8.1 C 71 %
345 13-12-2014 20:59:17 8.1 C 71 %
346 13-12-2014 21:11:17 8.1 C 71 %
347 13-12-2014 21:23:17 8 C 70 %
348 13-12-2014 21:35:17 8.1 C 70 %
349 13-12-2014 21:47:17 8.1 C 70 %
350 13-12-2014 21:59:17 8.1 C 71 %
Sensor: Nr:Datum:Temp:Feuchte:
G-T/H 351 13-12-2014 22:11:17 8.2 C 71 %
352 13-12-2014 22:23:17 8.2 C 71 %
353 13-12-2014 22:35:17 8.1 C 71 %
354 13-12-2014 22:47:17 8.1 C 71 %
355 13-12-2014 22:59:17 8.1 C 71 %
356 13-12-2014 23:11:17 8 C 71 %
357 13-12-2014 23:23:17 8.1 C 71 %
358 13-12-2014 23:35:17 8.1 C 71 %
359 13-12-2014 23:47:17 8.2 C 71 %
360 13-12-2014 23:59:17 8.2 C 71 %
361 14-12-2014 00:11:17 8.2 C 72 %
362 14-12-2014 00:23:17 8.2 C 72 %
363 14-12-2014 00:35:17 8.2 C 72 %
364 14-12-2014 00:47:17 8.2 C 72 %
365 14-12-2014 00:59:17 8.2 C 72 %
366 14-12-2014 01:11:17 8.3 C 72 %
367 14-12-2014 01:23:17 8.3 C 73 %
368 14-12-2014 01:35:17 8.2 C 73 %
369 14-12-2014 01:47:17 8.3 C 73 %
370 14-12-2014 01:59:17 8.2 C 73 %
371 14-12-2014 02:11:17 8.2 C 73 %
372 14-12-2014 02:23:16 8.3 C 73 %
373 14-12-2014 02:35:17 8.2 C 73 %
374 14-12-2014 02:47:17 8.3 C 73 %
375 14-12-2014 02:59:17 8.2 C 73 %
Sensor: Nr:Datum:Temp:Feuchte:
G-T/H 376 14-12-2014 03:11:17 8.2 C 73 %
377 14-12-2014 03:23:17 8.2 C 73 %
378 14-12-2014 03:35:17 8.2 C 73 %
379 14-12-2014 03:47:17 8.2 C 73 %
380 14-12-2014 03:59:17 8.2 C 73 %
381 14-12-2014 04:11:17 8.2 C 73 %
382 14-12-2014 04:23:17 8.2 C 73 %
383 14-12-2014 04:35:17 8.2 C 73 %
384 14-12-2014 04:47:17 8.2 C 73 %
385 14-12-2014 04:59:17 8.2 C 73 %
386 14-12-2014 05:11:17 8.2 C 73 %
387 14-12-2014 05:23:17 8.2 C 73 %
388 14-12-2014 05:35:17 8.2 C 73 %
389 14-12-2014 05:47:16 8.2 C 73 %
390 14-12-2014 05:59:17 8.2 C 73 %
391 14-12-2014 06:11:17 8.1 C 73 %
392 14-12-2014 06:23:17 8 C 73 %
393 14-12-2014 06:35:17 8 C 73 %
394 14-12-2014 06:47:17 7.9 C 73 %
395 14-12-2014 06:59:17 7.9 C 73 %
396 14-12-2014 07:11:17 7.9 C 73 %
397 14-12-2014 07:23:17 7.8 C 73 %
398 14-12-2014 07:35:17 7.8 C 73 %
399 14-12-2014 07:47:17 7.8 C 72 %
400 14-12-2014 07:59:17 7.8 C 72 %
Sensor: Nr:Datum:Temp:Feuchte:
G-T/H 401 14-12-2014 08:11:17 7.7 C 72 %
402 14-12-2014 08:23:17 7.8 C 72 %
403 14-12-2014 08:35:17 7.9 C 72 %
404 14-12-2014 08:47:17 7.9 C 72 %
405 14-12-2014 08:59:17 7.9 C 73 %
406 14-12-2014 09:11:17 7.9 C 73 %
407 14-12-2014 09:23:17 7.9 C 73 %
408 14-12-2014 09:35:17 7.9 C 73 %
409 14-12-2014 09:47:17 7.9 C 73 %
410 14-12-2014 09:59:17 8 C 73 %
411 14-12-2014 10:11:17 8 C 73 %
412 14-12-2014 10:23:17 8 C 73 %
413 14-12-2014 10:35:18 8 C 73 %
414 14-12-2014 10:47:17 7.9 C 74 %
415 14-12-2014 10:59:17 8 C 73 %
416 14-12-2014 11:11:17 8 C 73 %
417 14-12-2014 11:23:17 8 C 73 %
418 14-12-2014 11:35:17 8 C 73 %
419 14-12-2014 11:47:17 8 C 73 %
420 14-12-2014 11:47:17 8 C 73 %
421 14-12-2014 11:59:17 8 C 73 %
422 14-12-2014 11:59:17 8 C 73 %
423 14-12-2014 12:11:17 8 C 73 %
424 14-12-2014 12:23:17 8 C 73 %
425 14-12-2014 12:35:17 8 C 73 %
Sensor: Nr:Datum:Temp:Feuchte:
G-T/H 426 14-12-2014 12:47:17 8 C 73 %
427 14-12-2014 12:59:17 8 C 74 %
428 14-12-2014 13:11:17 8 C 74 %
429 14-12-2014 13:23:17 8 C 74 %
430 14-12-2014 13:35:17 8 C 74 %
431 14-12-2014 13:47:17 8 C 74 %
432 14-12-2014 13:59:17 8 C 74 %
433 14-12-2014 14:11:17 8.1 C 74 %
434 14-12-2014 14:23:17 8 C 74 %
435 14-12-2014 14:35:17 8 C 74 %
436 14-12-2014 14:47:17 8.1 C 74 %
437 14-12-2014 14:59:17 8.1 C 74 %
438 14-12-2014 15:11:17 8.1 C 74 %
439 14-12-2014 15:23:17 8.1 C 74 %
440 14-12-2014 15:35:17 8.1 C 74 %
441 14-12-2014 15:47:17 8.1 C 74 %
442 14-12-2014 15:59:17 8.1 C 74 %
443 14-12-2014 16:11:17 8 C 74 %
444 14-12-2014 16:23:17 7.9 C 74 %
445 14-12-2014 16:35:17 7.9 C 74 %
446 14-12-2014 16:47:17 7.8 C 74 %
447 14-12-2014 16:59:17 7.8 C 73 %
448 14-12-2014 17:11:17 7.8 C 73 %
449 14-12-2014 17:23:17 7.7 C 73 %
450 14-12-2014 17:35:17 7.7 C 72 %
Sensor: Nr:Datum:Temp:Feuchte:
G-T/H 451 14-12-2014 17:47:17 7.6 C 72 %
452 14-12-2014 17:59:17 7.7 C 72 %
453 14-12-2014 18:11:17 7.6 C 72 %
454 14-12-2014 18:23:17 7.6 C 72 %
455 14-12-2014 18:35:17 7.6 C 71 %
456 14-12-2014 18:47:17 7.6 C 71 %
457 14-12-2014 18:59:17 7.5 C 71 %
458 14-12-2014 19:11:17 7.5 C 71 %
459 14-12-2014 19:23:17 7.5 C 71 %
460 14-12-2014 19:35:17 7.4 C 70 %
461 14-12-2014 19:47:17 7.4 C 70 %
462 14-12-2014 19:59:17 7.4 C 70 %
463 14-12-2014 20:11:17 7.4 C 70 %
464 14-12-2014 20:23:17 7.4 C 70 %
465 14-12-2014 20:35:17 7.4 C 69 %
466 14-12-2014 20:47:17 7.3 C 69 %
467 14-12-2014 20:59:17 7.3 C 69 %
468 14-12-2014 21:11:17 7.3 C 69 %
469 14-12-2014 21:23:17 7.2 C 69 %
470 14-12-2014 21:35:17 7.2 C 69 %
471 14-12-2014 21:47:17 7.2 C 69 %
472 14-12-2014 21:59:17 7.2 C 69 %
473 14-12-2014 22:11:17 7.2 C 69 %
474 14-12-2014 22:23:17 7.2 C 69 %
475 14-12-2014 22:35:17 7.3 C 69 %
Sensor: Nr:Datum:Temp:Feuchte:
G-T/H 476 14-12-2014 22:47:17 7.4 C 70 %
477 14-12-2014 22:59:17 7.4 C 70 %
478 14-12-2014 23:11:17 7.4 C 70 %
479 14-12-2014 23:23:17 7.5 C 71 %
480 14-12-2014 23:35:17 7.5 C 71 %
481 14-12-2014 23:47:17 7.4 C 71 %
482 14-12-2014 23:59:17 7.4 C 71 %
483 15-12-2014 00:11:17 7.5 C 71 %
484 15-12-2014 00:23:17 7.5 C 71 %
485 15-12-2014 00:35:17 7.5 C 72 %
486 15-12-2014 00:47:17 7.5 C 72 %
487 15-12-2014 00:59:17 7.5 C 72 %
488 15-12-2014 01:11:17 7.5 C 72 %
489 15-12-2014 01:23:17 7.5 C 72 %
490 15-12-2014 01:35:17 7.4 C 72 %
491 15-12-2014 01:47:17 7.4 C 72 %
492 15-12-2014 01:59:17 7.4 C 72 %
493 15-12-2014 02:11:17 7.4 C 72 %
494 15-12-2014 02:23:17 7.4 C 72 %
495 15-12-2014 02:35:17 7.4 C 72 %
496 15-12-2014 02:47:17 7.4 C 72 %
497 15-12-2014 02:59:17 7.5 C 72 %
498 15-12-2014 03:11:17 7.4 C 72 %
499 15-12-2014 03:23:17 7.4 C 72 %
500 15-12-2014 03:35:17 7.4 C 72 %
Sensor: Nr:Datum:Temp:Feuchte:
G-T/H 501 15-12-2014 03:47:17 7.4 C 73 %
502 15-12-2014 03:59:17 7.4 C 73 %
503 15-12-2014 04:11:17 7.4 C 73 %
504 15-12-2014 04:23:17 7.4 C 73 %
505 15-12-2014 04:35:17 7.4 C 73 %
506 15-12-2014 04:47:16 7.4 C 73 %
507 15-12-2014 04:59:17 7.4 C 73 %
508 15-12-2014 05:11:17 7.4 C 73 %
509 15-12-2014 05:23:17 7.4 C 73 %
510 15-12-2014 05:35:18 7.4 C 73 %
511 15-12-2014 05:47:17 7.4 C 73 %
512 15-12-2014 05:59:17 7.4 C 73 %
513 15-12-2014 06:11:17 7.3 C 73 %
514 15-12-2014 06:23:17 7.2 C 72 %
515 15-12-2014 06:35:17 7.1 C 72 %
516 15-12-2014 06:47:17 7 C 71 %
517 15-12-2014 06:59:17 7 C 71 %
518 15-12-2014 07:11:17 6.9 C 71 %
519 15-12-2014 07:23:17 6.9 C 71 %
520 15-12-2014 07:35:17 6.9 C 71 %
521 15-12-2014 07:47:17 6.9 C 71 %
522 15-12-2014 07:59:17 6.9 C 71 %
523 15-12-2014 08:11:17 6.8 C 71 %
524 15-12-2014 08:23:17 6.8 C 70 %
525 15-12-2014 08:35:17 6.8 C 70 %
Sensor: Nr:Datum:Temp:Feuchte:
G-T/H 526 15-12-2014 08:47:17 6.8 C 70 %
527 15-12-2014 08:59:17 6.8 C 70 %
528 15-12-2014 09:11:17 6.7 C 70 %
529 15-12-2014 09:23:17 6.7 C 70 %
530 15-12-2014 09:35:17 6.7 C 70 %
531 15-12-2014 09:47:17 6.7 C 70 %
532 15-12-2014 09:59:17 6.8 C 70 %
533 15-12-2014 10:11:17 6.9 C 70 %
534 15-12-2014 10:23:17 6.9 C 71 %
535 15-12-2014 10:35:17 6.9 C 71 %
536 15-12-2014 10:47:17 6.9 C 71 %
537 15-12-2014 10:59:17 7 C 71 %
538 15-12-2014 11:11:17 7 C 71 %
539 15-12-2014 11:23:17 7 C 71 %
540 15-12-2014 11:35:17 7 C 71 %
541 15-12-2014 11:47:17 7 C 71 %
542 15-12-2014 11:59:17 7 C 72 %
543 15-12-2014 12:11:17 7 C 72 %
544 15-12-2014 12:23:17 7 C 72 %
545 15-12-2014 12:35:17 7.1 C 72 %
546 15-12-2014 12:47:17 7.1 C 72 %
547 15-12-2014 12:59:17 7.1 C 72 %
548 15-12-2014 13:11:17 7.1 C 72 %
549 15-12-2014 13:23:17 7.1 C 72 %
550 15-12-2014 13:35:17 7.1 C 72 %
Sensor: Nr:Datum:Temp:Feuchte:
G-T/H 551 15-12-2014 13:47:17 7.1 C 72 %
552 15-12-2014 13:59:17 7.1 C 73 %
553 15-12-2014 14:11:17 7.1 C 73 %
554 15-12-2014 14:23:17 7.1 C 73 %
555 15-12-2014 14:35:17 7.1 C 73 %
556 15-12-2014 14:47:17 7.1 C 73 %
557 15-12-2014 14:59:17 7.2 C 73 %
558 15-12-2014 15:11:17 7.2 C 73 %
559 15-12-2014 15:23:17 7.2 C 73 %
560 15-12-2014 15:35:17 7.2 C 73 %
561 15-12-2014 15:47:17 7.2 C 73 %
562 15-12-2014 15:59:17 7.2 C 73 %
563 15-12-2014 16:11:17 7.2 C 73 %
564 15-12-2014 16:23:17 7.3 C 73 %
565 15-12-2014 16:35:17 7.3 C 73 %
566 15-12-2014 16:59:17 7.3 C 73 %
567 15-12-2014 16:59:17 7.3 C 73 %
568 15-12-2014 17:11:18 7.3 C 74 %
569 15-12-2014 17:23:17 7.3 C 74 %
570 15-12-2014 17:35:17 7.3 C 74 %
571 15-12-2014 17:47:17 7.3 C 74 %
572 15-12-2014 17:59:17 7.3 C 74 %
573 15-12-2014 18:11:17 7.3 C 74 %
574 15-12-2014 18:23:17 7.3 C 74 %
575 15-12-2014 18:35:17 7.3 C 74 %
Sensor: Nr:Datum:Temp:Feuchte:
G-T/H 576 15-12-2014 18:48:17 7.4 C 74 %
577 15-12-2014 18:59:17 7.4 C 74 %
578 15-12-2014 19:11:17 7.4 C 74 %
579 15-12-2014 19:23:17 7.4 C 74 %
580 15-12-2014 19:35:17 7.4 C 74 %
581 15-12-2014 19:59:17 7.4 C 74 %
582 15-12-2014 19:59:17 7.4 C 74 %
583 15-12-2014 20:11:17 7.4 C 74 %
584 15-12-2014 20:23:17 7.4 C 74 %
585 15-12-2014 20:35:17 7.4 C 74 %
586 15-12-2014 20:48:17 7.5 C 74 %
587 15-12-2014 20:59:17 7.5 C 74 %
588 15-12-2014 21:11:17 7.5 C 74 %
589 15-12-2014 21:24:17 7.4 C 74 %
590 15-12-2014 21:36:17 7.5 C 74 %
591 15-12-2014 21:47:17 7.5 C 75 %
592 15-12-2014 21:59:17 7.5 C 75 %
593 15-12-2014 22:11:17 7.5 C 75 %
594 15-12-2014 22:23:17 7.5 C 75 %
595 15-12-2014 22:36:17 7.5 C 75 %
596 15-12-2014 22:59:17 7.5 C 75 %
597 15-12-2014 22:59:17 7.5 C 75 %
598 15-12-2014 23:11:18 7.6 C 75 %
599 15-12-2014 23:23:17 7.6 C 75 %
600 15-12-2014 23:35:17 7.6 C 75 %
Sensor: Nr:Datum:Temp:Feuchte:
G-T/H 601 15-12-2014 23:47:17 7.5 C 75 %
602 15-12-2014 23:59:17 7.6 C 75 %
603 16-12-2014 00:11:17 7.6 C 75 %
604 16-12-2014 00:23:17 7.6 C 75 %
605 16-12-2014 00:35:17 7.6 C 75 %
606 16-12-2014 00:59:17 7.6 C 75 %
607 16-12-2014 01:00:17 7.6 C 75 %
608 16-12-2014 01:12:17 7.6 C 75 %
609 16-12-2014 01:24:16 7.6 C 75 %
610 16-12-2014 01:36:17 7.6 C 75 %
611 16-12-2014 01:48:17 7.6 C 75 %
612 16-12-2014 02:00:17 7.6 C 75 %
613 16-12-2014 02:12:17 7.6 C 75 %
614 16-12-2014 02:24:17 7.7 C 75 %
615 16-12-2014 02:36:17 7.6 C 75 %
616 16-12-2014 02:48:17 7.7 C 75 %
617 16-12-2014 03:00:17 7.7 C 75 %
618 16-12-2014 03:12:17 7.7 C 76 %
619 16-12-2014 03:24:17 7.7 C 76 %
620 16-12-2014 03:36:17 7.7 C 76 %
621 16-12-2014 03:48:17 7.7 C 76 %
622 16-12-2014 04:00:17 7.8 C 76 %
623 16-12-2014 04:12:17 7.7 C 76 %
624 16-12-2014 04:24:17 7.7 C 76 %
625 16-12-2014 04:36:17 7.8 C 76 %
Sensor: Nr:Datum:Temp:Feuchte:
G-T/H 626 16-12-2014 04:48:17 7.8 C 76 %
627 16-12-2014 05:00:17 7.8 C 76 %
628 16-12-2014 05:12:17 7.8 C 76 %
629 16-12-2014 05:24:17 7.8 C 76 %
630 16-12-2014 05:36:17 7.8 C 76 %
631 16-12-2014 05:48:17 7.8 C 76 %
632 16-12-2014 06:00:17 7.8 C 76 %
633 16-12-2014 06:12:17 7.8 C 76 %
634 16-12-2014 06:24:17 7.8 C 76 %
635 16-12-2014 06:36:17 7.8 C 76 %
636 16-12-2014 06:48:17 7.8 C 76 %
637 16-12-2014 07:00:17 7.8 C 76 %
638 16-12-2014 07:12:17 7.9 C 76 %
639 16-12-2014 07:24:17 7.9 C 76 %
640 16-12-2014 07:36:17 7.9 C 76 %
641 16-12-2014 07:48:17 7.9 C 76 %
642 16-12-2014 08:00:17 7.9 C 76 %
643 16-12-2014 08:12:17 7.9 C 76 %
644 16-12-2014 08:24:17 7.9 C 76 %
645 16-12-2014 08:36:17 7.9 C 76 %
646 16-12-2014 08:48:17 7.9 C 76 %
647 16-12-2014 09:00:17 7.9 C 76 %
648 16-12-2014 09:12:17 7.9 C 76 %
649 16-12-2014 09:24:16 7.9 C 76 %
650 16-12-2014 09:36:17 8 C 75 %
Sensor: Nr:Datum:Temp:Feuchte:
G-T/H 651 16-12-2014 09:48:17 8 C 75 %
652 16-12-2014 10:00:17 8 C 75 %
653 16-12-2014 10:12:17 7.9 C 77 %
654 16-12-2014 10:24:17 8 C 76 %
655 16-12-2014 10:36:17 8 C 76 %
656 16-12-2014 10:48:17 8 C 76 %
657 16-12-2014 11:00:17 8 C 76 %
658 16-12-2014 11:12:17 8 C 76 %
659 16-12-2014 11:24:17 8 C 76 %
660 16-12-2014 11:36:17 8 C 76 %
661 16-12-2014 11:48:17 8.1 C 76 %
662 16-12-2014 12:00:17 8.1 C 76 %
663 16-12-2014 12:12:17 8.1 C 76 %
664 16-12-2014 12:24:17 8.1 C 76 %
665 16-12-2014 12:36:17 8.1 C 76 %
666 16-12-2014 12:48:16 8.1 C 76 %
667 16-12-2014 13:00:17 8.1 C 76 %
668 16-12-2014 13:12:17 8.1 C 76 %
669 16-12-2014 13:24:17 8.1 C 76 %
670 16-12-2014 13:36:17 8.1 C 76 %
671 16-12-2014 13:48:17 8.2 C 76 %
672 16-12-2014 14:00:17 8.2 C 76 %
673 16-12-2014 14:12:17 8.2 C 76 %
674 16-12-2014 14:24:17 8.2 C 76 %
675 16-12-2014 14:36:18 8.2 C 76 %
Sensor: Nr:Datum:Temp:Feuchte:
G-T/H 676 16-12-2014 14:48:17 8.2 C 76 %
677 16-12-2014 15:00:17 8.2 C 76 %
678 16-12-2014 15:12:17 8.2 C 76 %
679 16-12-2014 15:24:17 8.2 C 76 %
680 16-12-2014 15:36:17 8.3 C 76 %
681 16-12-2014 15:48:17 8.3 C 76 %
682 16-12-2014 16:00:17 8.3 C 76 %
683 16-12-2014 16:12:17 8.3 C 76 %
684 16-12-2014 16:24:17 8.3 C 76 %
685 16-12-2014 16:36:17 8.3 C 76 %
686 16-12-2014 16:48:17 8.3 C 76 %
687 16-12-2014 17:00:17 8.4 C 76 %
688 16-12-2014 17:12:17 8.4 C 76 %
689 16-12-2014 17:24:17 8.4 C 76 %
690 16-12-2014 17:36:17 8.4 C 76 %
691 16-12-2014 17:48:17 8.4 C 76 %
692 16-12-2014 18:00:17 8.4 C 76 %
693 16-12-2014 18:12:17 8.4 C 76 %
694 16-12-2014 18:24:17 8.4 C 76 %
695 16-12-2014 18:36:17 8.4 C 76 %
696 16-12-2014 18:48:17 8.4 C 76 %
697 16-12-2014 19:00:17 8.4 C 76 %
698 16-12-2014 19:12:17 8.4 C 76 %
699 16-12-2014 19:24:16 8.4 C 76 %
700 16-12-2014 19:36:17 8.4 C 76 %
Sensor: Nr:Datum:Temp:Feuchte:
G-T/H 701 16-12-2014 19:48:17 8.4 C 76 %
702 16-12-2014 20:00:17 8.4 C 76 %
703 16-12-2014 20:12:17 8.4 C 76 %
704 16-12-2014 20:24:17 8.4 C 76 %
705 16-12-2014 20:36:17 8.4 C 76 %
706 16-12-2014 20:48:17 8.4 C 76 %
707 16-12-2014 21:00:17 8.4 C 76 %
708 16-12-2014 21:12:17 8.4 C 76 %
709 16-12-2014 21:24:17 8.4 C 76 %
710 16-12-2014 21:36:17 8.4 C 76 %
711 16-12-2014 21:48:17 8.4 C 76 %
712 16-12-2014 22:00:17 8.4 C 76 %
713 16-12-2014 22:12:17 8.3 C 76 %
714 16-12-2014 22:24:17 8.3 C 76 %
715 16-12-2014 22:36:17 8.2 C 75 %
716 16-12-2014 22:48:17 8.2 C 75 %
717 16-12-2014 23:00:17 8.2 C 75 %
718 16-12-2014 23:12:17 8.3 C 75 %
719 16-12-2014 23:24:17 8.3 C 75 %
720 16-12-2014 23:36:17 8.3 C 75 %
721 16-12-2014 23:48:17 8.3 C 75 %
722 17-12-2014 00:00:17 8.3 C 75 %
723 17-12-2014 00:12:17 8.3 C 75 %
724 17-12-2014 00:24:17 8.3 C 75 %
725 17-12-2014 00:36:17 8.3 C 75 %
Sensor: Nr:Datum:Temp:Feuchte:
G-T/H 726 17-12-2014 00:48:17 8.3 C 75 %
727 17-12-2014 01:00:17 8.3 C 75 %
728 17-12-2014 01:12:17 8.3 C 75 %
729 17-12-2014 01:24:17 8.3 C 75 %
730 17-12-2014 01:36:17 8.3 C 75 %
731 17-12-2014 01:48:17 8.3 C 75 %
732 17-12-2014 02:00:17 8.3 C 75 %
733 17-12-2014 02:12:17 8.3 C 75 %
734 17-12-2014 02:24:17 8.3 C 75 %
735 17-12-2014 02:36:17 8.3 C 75 %
736 17-12-2014 02:48:17 8.3 C 75 %
737 17-12-2014 03:00:17 8.3 C 75 %
738 17-12-2014 03:12:17 8.3 C 75 %
739 17-12-2014 03:24:17 8.3 C 75 %
740 17-12-2014 03:36:17 8.3 C 75 %
741 17-12-2014 03:48:17 8.3 C 75 %
742 17-12-2014 04:00:17 8.3 C 75 %
743 17-12-2014 04:12:17 8.2 C 75 %
744 17-12-2014 04:24:17 8.3 C 75 %
745 17-12-2014 04:36:17 8.2 C 75 %
746 17-12-2014 04:48:17 8.2 C 75 %
747 17-12-2014 05:00:17 8.2 C 75 %
748 17-12-2014 05:12:17 8.2 C 75 %
749 17-12-2014 05:24:17 8.2 C 75 %
750 17-12-2014 05:36:17 8.2 C 75 %
Sensor: Nr:Datum:Temp:Feuchte:
G-T/H 751 17-12-2014 05:48:17 8.2 C 75 %
752 17-12-2014 06:00:17 8.2 C 75 %
753 17-12-2014 06:12:17 8.2 C 75 %
754 17-12-2014 06:24:17 8.2 C 75 %
755 17-12-2014 06:36:17 8.2 C 75 %
756 17-12-2014 06:48:17 8.2 C 75 %
757 17-12-2014 07:00:17 8.2 C 75 %
758 17-12-2014 07:12:17 8.2 C 75 %
759 17-12-2014 07:24:17 8.2 C 75 %
760 17-12-2014 07:36:17 8.2 C 75 %
761 17-12-2014 07:48:17 8.2 C 75 %
762 17-12-2014 08:00:17 8.2 C 75 %
763 17-12-2014 08:12:17 8.1 C 75 %
764 17-12-2014 08:24:17 8.2 C 75 %
765 17-12-2014 08:36:17 8.1 C 75 %
766 17-12-2014 08:48:17 8.2 C 75 %
767 17-12-2014 09:00:17 8.2 C 76 %
768 17-12-2014 09:12:17 8.2 C 76 %
769 17-12-2014 09:24:17 8.2 C 76 %
770 17-12-2014 09:36:17 8.1 C 76 %
771 17-12-2014 09:48:17 8.1 C 76 %
772 17-12-2014 10:00:17 8.1 C 76 %
773 17-12-2014 10:12:17 8.2 C 76 %
774 17-12-2014 10:24:17 8.1 C 76 %
775 17-12-2014 10:36:17 8.2 C 76 %
Sensor: Nr:Datum:Temp:Feuchte:
G-T/H 776 17-12-2014 10:48:17 8.2 C 76 %
777 17-12-2014 11:00:17 8.2 C 76 %
778 17-12-2014 11:12:17 8.2 C 76 %
779 17-12-2014 11:24:17 8.2 C 76 %
780 17-12-2014 11:36:17 8.2 C 76 %
781 17-12-2014 11:48:17 8.2 C 76 %
782 17-12-2014 12:00:17 8.2 C 76 %
783 17-12-2014 12:12:17 8.2 C 76 %
784 17-12-2014 12:24:16 8.2 C 76 %
785 17-12-2014 12:36:17 8.2 C 76 %
786 17-12-2014 12:48:17 8.2 C 76 %
787 17-12-2014 13:00:17 8.2 C 76 %
788 17-12-2014 13:12:17 8.2 C 76 %
789 17-12-2014 13:24:17 8.2 C 76 %
790 17-12-2014 13:36:17 8.2 C 76 %
791 17-12-2014 13:48:17 8.2 C 76 %
792 17-12-2014 14:00:17 8.2 C 76 %
793 17-12-2014 14:12:17 8.2 C 76 %
794 17-12-2014 14:24:17 8.2 C 76 %
795 17-12-2014 14:36:17 8.2 C 76 %
796 17-12-2014 14:48:17 8.2 C 76 %
797 17-12-2014 15:00:17 8.3 C 76 %
798 17-12-2014 15:12:17 8.2 C 76 %
799 17-12-2014 15:24:17 8.3 C 76 %
800 17-12-2014 15:36:17 8.3 C 76 %
Sensor: Nr:Datum:Temp:Feuchte:
G-T/H 801 17-12-2014 15:48:17 8.3 C 76 %
802 17-12-2014 16:00:17 8.3 C 76 %
803 17-12-2014 16:12:17 8.3 C 76 %
804 17-12-2014 16:24:17 8.3 C 76 %
805 17-12-2014 16:36:17 8.3 C 76 %
806 17-12-2014 16:48:16 8.4 C 77 %
807 17-12-2014 17:00:17 8.4 C 77 %
808 17-12-2014 17:12:17 8.4 C 77 %
809 17-12-2014 17:24:17 8.4 C 77 %
810 17-12-2014 17:36:17 8.4 C 77 %
811 17-12-2014 17:48:17 8.4 C 77 %
812 17-12-2014 18:00:17 8.4 C 77 %
813 17-12-2014 18:12:17 8.4 C 77 %
814 17-12-2014 18:24:17 8.4 C 77 %
815 17-12-2014 18:36:17 8.4 C 77 %
816 17-12-2014 18:48:17 8.4 C 77 %
817 17-12-2014 19:00:17 8.4 C 77 %
818 17-12-2014 19:12:17 8.4 C 77 %
819 17-12-2014 19:24:17 8.4 C 77 %
820 17-12-2014 19:36:17 8.4 C 77 %
821 17-12-2014 19:48:17 8.5 C 77 %
822 17-12-2014 20:00:17 8.5 C 77 %
823 17-12-2014 20:12:17 8.5 C 77 %
824 17-12-2014 20:24:17 8.5 C 77 %
825 17-12-2014 20:36:17 8.5 C 77 %
Sensor: Nr:Datum:Temp:Feuchte:
G-T/H 826 17-12-2014 20:48:17 8.5 C 77 %
827 17-12-2014 21:00:17 8.5 C 77 %
828 17-12-2014 21:12:17 8.5 C 77 %
829 17-12-2014 21:24:17 8.5 C 77 %
830 17-12-2014 21:36:17 8.5 C 77 %
831 17-12-2014 21:48:17 8.5 C 77 %
832 17-12-2014 22:00:17 8.6 C 77 %
833 17-12-2014 22:12:17 8.6 C 77 %
834 17-12-2014 22:24:17 8.6 C 77 %
835 17-12-2014 22:36:17 8.6 C 77 %
836 17-12-2014 22:48:17 8.6 C 77 %
837 17-12-2014 23:00:17 8.6 C 77 %
838 17-12-2014 23:12:17 8.6 C 77 %
839 17-12-2014 23:24:17 8.6 C 77 %
840 17-12-2014 23:36:17 8.7 C 78 %
841 17-12-2014 23:48:17 8.6 C 78 %
842 18-12-2014 00:00:17 8.7 C 78 %
843 18-12-2014 00:12:17 8.7 C 78 %
844 18-12-2014 00:24:17 8.7 C 78 %
845 18-12-2014 00:36:17 8.7 C 78 %
846 18-12-2014 00:48:17 8.7 C 78 %
847 18-12-2014 01:00:17 8.7 C 78 %
848 18-12-2014 01:12:17 8.7 C 78 %
849 18-12-2014 01:24:17 8.7 C 78 %
850 18-12-2014 01:36:17 8.7 C 78 %
Sensor: Nr:Datum:Temp:Feuchte:
G-T/H 851 18-12-2014 01:48:17 8.8 C 78 %
852 18-12-2014 02:00:17 8.8 C 78 %
853 18-12-2014 02:12:17 8.8 C 78 %
854 18-12-2014 02:24:17 8.8 C 78 %
855 18-12-2014 02:36:17 8.8 C 78 %
856 18-12-2014 02:48:17 8.8 C 78 %
857 18-12-2014 03:00:17 8.9 C 78 %
858 18-12-2014 03:12:17 8.9 C 78 %
859 18-12-2014 03:24:16 8.9 C 78 %
860 18-12-2014 03:36:17 8.9 C 78 %
861 18-12-2014 03:48:17 8.9 C 78 %
862 18-12-2014 04:00:17 8.9 C 78 %
863 18-12-2014 04:12:17 8.9 C 78 %
864 18-12-2014 04:24:17 8.9 C 78 %
865 18-12-2014 04:36:17 9 C 77 %
866 18-12-2014 04:48:17 9 C 77 %
867 18-12-2014 05:00:17 9 C 77 %
868 18-12-2014 05:12:17 9 C 77 %
869 18-12-2014 05:24:17 9 C 77 %
870 18-12-2014 05:36:17 9 C 77 %
871 18-12-2014 05:48:17 9 C 77 %
872 18-12-2014 06:00:17 9 C 77 %
873 18-12-2014 06:12:17 9 C 77 %
874 18-12-2014 06:24:17 9.1 C 77 %
875 18-12-2014 06:36:17 9 C 77 %
Sensor: Nr:Datum:Temp:Feuchte:
G-T/H 876 18-12-2014 06:48:17 9.1 C 77 %
877 18-12-2014 07:00:17 9.1 C 77 %
878 18-12-2014 07:12:17 9.1 C 77 %
879 18-12-2014 07:24:17 9.1 C 78 %
880 18-12-2014 07:36:17 9.1 C 78 %
881 18-12-2014 07:48:17 9.1 C 78 %
882 18-12-2014 08:00:17 9.1 C 78 %
883 18-12-2014 08:12:17 9.1 C 78 %
884 18-12-2014 08:24:17 9.1 C 78 %
885 18-12-2014 08:36:17 9.2 C 78 %
886 18-12-2014 08:48:17 9.2 C 78 %
887 18-12-2014 09:00:17 9.2 C 78 %
888 18-12-2014 09:12:17 9.2 C 78 %
889 18-12-2014 09:24:17 9.2 C 78 %
890 18-12-2014 09:36:17 9.3 C 78 %
891 18-12-2014 09:48:17 9.3 C 78 %
892 18-12-2014 10:00:17 9.3 C 78 %
893 18-12-2014 10:12:17 9.3 C 78 %
894 18-12-2014 10:24:17 9.3 C 78 %
895 18-12-2014 10:36:17 9.4 C 78 %
896 18-12-2014 10:48:17 9.4 C 78 %
897 18-12-2014 11:00:17 9.4 C 78 %
898 18-12-2014 11:12:17 9.4 C 78 %
899 18-12-2014 11:24:17 9.4 C 78 %
900 18-12-2014 11:36:17 9.5 C 78 %
Sensor: Nr:Datum:Temp:Feuchte:
G-T/H 901 18-12-2014 11:48:17 9.5 C 78 %
902 18-12-2014 12:00:17 9.5 C 78 %
903 18-12-2014 12:12:17 9.5 C 78 %
904 18-12-2014 12:24:17 9.5 C 78 %
905 18-12-2014 12:36:17 9.6 C 78 %
906 18-12-2014 12:48:17 9.6 C 78 %
907 18-12-2014 13:00:17 9.6 C 78 %
908 18-12-2014 13:12:17 9.6 C 78 %
909 18-12-2014 13:24:17 9.7 C 79 %
910 18-12-2014 13:36:17 9.7 C 79 %
911 18-12-2014 13:48:17 9.7 C 79 %
912 18-12-2014 14:00:17 9.7 C 79 %
913 18-12-2014 14:12:17 9.7 C 79 %
914 18-12-2014 14:24:17 9.7 C 79 %
915 18-12-2014 14:36:17 9.7 C 79 %
916 18-12-2014 14:48:17 9.8 C 79 %
917 18-12-2014 15:00:17 9.8 C 79 %
918 18-12-2014 15:12:17 9.8 C 79 %
919 18-12-2014 15:24:17 9.8 C 79 %
920 18-12-2014 15:36:17 9.8 C 79 %
921 18-12-2014 15:48:17 9.9 C 79 %
922 18-12-2014 16:00:17 9.9 C 79 %
923 18-12-2014 16:12:17 9.9 C 79 %
924 18-12-2014 16:24:17 9.9 C 79 %
925 18-12-2014 16:36:17 10 C 78 %
Sensor: Nr:Datum:Temp:Feuchte:
G-T/H 926 18-12-2014 16:48:17 10 C 78 %
927 18-12-2014 17:00:17 10 C 78 %
928 18-12-2014 17:12:17 10 C 78 %
929 18-12-2014 17:24:17 10 C 78 %
930 18-12-2014 17:36:17 10 C 78 %
931 18-12-2014 17:48:17 10 C 78 %
932 18-12-2014 18:00:17 10.1 C 78 %
933 18-12-2014 18:12:17 10.1 C 78 %
934 18-12-2014 18:24:17 10.1 C 78 %
935 18-12-2014 18:36:17 10.1 C 78 %
936 18-12-2014 18:48:17 10.1 C 78 %
937 18-12-2014 19:00:17 10.2 C 78 %
938 18-12-2014 19:12:17 10.2 C 78 %
939 18-12-2014 19:24:17 10.2 C 78 %
940 18-12-2014 19:36:17 10.2 C 78 %
941 18-12-2014 19:48:17 10.2 C 78 %
942 18-12-2014 20:00:17 10.2 C 78 %
943 18-12-2014 20:12:17 10.3 C 78 %
944 18-12-2014 20:24:17 10.2 C 78 %
945 18-12-2014 20:36:17 10.3 C 78 %
946 18-12-2014 20:48:17 10.3 C 78 %
947 18-12-2014 21:00:17 10.3 C 78 %
948 18-12-2014 21:12:17 10.3 C 78 %
949 18-12-2014 21:24:17 10.3 C 78 %
950 18-12-2014 21:36:17 10.3 C 78 %
Sensor: Nr:Datum:Temp:Feuchte:
G-T/H 951 18-12-2014 21:48:17 10.4 C 78 %
952 18-12-2014 22:00:17 10.4 C 78 %
953 18-12-2014 22:12:17 10.4 C 78 %
954 18-12-2014 22:24:17 10.4 C 78 %
955 18-12-2014 22:36:17 10.4 C 78 %
956 18-12-2014 22:48:17 10.4 C 78 %
957 18-12-2014 23:00:17 10.4 C 78 %
958 18-12-2014 23:12:18 10.4 C 78 %
959 18-12-2014 23:24:17 10.5 C 78 %
960 18-12-2014 23:36:17 10.4 C 78 %
961 18-12-2014 23:48:17 10.5 C 78 %
962 19-12-2014 00:00:17 10.5 C 78 %
963 19-12-2014 00:12:17 10.5 C 78 %
964 19-12-2014 00:24:17 10.5 C 78 %
965 19-12-2014 00:36:17 10.5 C 78 %
966 19-12-2014 00:48:17 10.5 C 78 %
967 19-12-2014 01:00:17 10.5 C 78 %
968 19-12-2014 01:12:17 10.5 C 78 %
969 19-12-2014 01:24:17 10.5 C 78 %
970 19-12-2014 01:36:17 10.5 C 78 %
971 19-12-2014 01:48:17 10.6 C 78 %
972 19-12-2014 02:00:17 10.6 C 78 %
973 19-12-2014 02:12:17 10.6 C 78 %
974 19-12-2014 02:24:17 10.5 C 78 %
975 19-12-2014 02:36:17 10.6 C 78 %
Sensor: Nr:Datum:Temp:Feuchte:
G-T/H 976 19-12-2014 02:48:17 10.6 C 78 %
977 19-12-2014 03:00:17 10.6 C 78 %
978 19-12-2014 03:12:17 10.6 C 78 %
979 19-12-2014 03:24:17 10.6 C 78 %
980 19-12-2014 03:36:17 10.6 C 78 %
981 19-12-2014 03:48:17 10.6 C 78 %
982 19-12-2014 04:00:17 10.6 C 78 %
983 19-12-2014 04:12:17 10.6 C 78 %
984 19-12-2014 04:24:17 10.6 C 78 %
985 19-12-2014 04:36:17 10.7 C 78 %
986 19-12-2014 04:48:17 10.6 C 78 %
987 19-12-2014 05:00:17 10.7 C 78 %
988 19-12-2014 05:12:17 10.7 C 78 %
989 19-12-2014 05:24:17 10.7 C 78 %
990 19-12-2014 05:36:17 10.7 C 78 %
991 19-12-2014 05:48:17 10.7 C 78 %
992 19-12-2014 06:00:17 10.7 C 78 %
993 19-12-2014 06:12:17 10.7 C 78 %
994 19-12-2014 06:24:17 10.7 C 78 %
995 19-12-2014 06:36:17 10.7 C 78 %
996 19-12-2014 06:48:17 10.7 C 78 %
997 19-12-2014 07:00:17 10.7 C 78 %
998 19-12-2014 07:12:17 10.7 C 78 %
999 19-12-2014 07:24:17 10.7 C 78 %
1000 19-12-2014 07:36:17 10.7 C 78 %
Sensor: Nr:Datum:Temp:Feuchte:
G-T/H 1001 19-12-2014 07:48:17 10.7 C 78 %
1002 19-12-2014 08:00:17 10.7 C 78 %
1003 19-12-2014 08:12:17 10.7 C 78 %
1004 19-12-2014 08:24:17 10.7 C 78 %
1005 19-12-2014 08:36:17 10.7 C 78 %
1006 19-12-2014 08:48:17 10.8 C 78 %
1007 19-12-2014 09:00:17 10.8 C 78 %
1008 19-12-2014 09:12:17 10.8 C 78 %
1009 19-12-2014 09:24:17 10.8 C 78 %
1010 19-12-2014 09:36:17 10.8 C 78 %
1011 19-12-2014 09:48:17 10.8 C 78 %
1012 19-12-2014 10:00:17 10.8 C 78 %
1013 19-12-2014 10:12:17 10.8 C 78 %
1014 19-12-2014 10:24:17 10.8 C 78 %
1015 19-12-2014 10:36:17 10.8 C 78 %
1016 19-12-2014 10:48:17 10.8 C 78 %
1017 19-12-2014 11:00:17 10.8 C 78 %
1018 19-12-2014 11:12:17 10.8 C 78 %
1019 19-12-2014 11:24:17 10.8 C 78 %
1020 19-12-2014 11:36:17 10.8 C 78 %
1021 19-12-2014 11:48:17 10.8 C 78 %
1022 19-12-2014 12:00:17 10.8 C 78 %
1023 19-12-2014 12:12:17 10.8 C 78 %
1024 19-12-2014 12:24:17 10.9 C 78 %
1025 19-12-2014 12:36:17 10.8 C 78 %
Sensor: Nr:Datum:Temp:Feuchte:
G-T/H 1026 19-12-2014 12:48:17 10.9 C 78 %
1027 19-12-2014 13:00:17 10.9 C 78 %
1028 19-12-2014 13:12:17 10.9 C 78 %
1029 19-12-2014 13:24:17 10.9 C 78 %
1030 19-12-2014 13:36:17 10.9 C 78 %
1031 19-12-2014 13:48:17 10.9 C 78 %
1032 19-12-2014 14:00:17 10.9 C 78 %
1033 19-12-2014 14:12:17 10.9 C 78 %
1034 19-12-2014 14:24:17 10.9 C 78 %
1035 19-12-2014 14:36:17 11 C 78 %
1036 19-12-2014 14:48:16 11 C 78 %
1037 19-12-2014 15:00:17 11 C 78 %
1038 19-12-2014 15:12:17 11 C 78 %
1039 19-12-2014 15:24:17 10.9 C 78 %
1040 19-12-2014 15:36:17 11 C 78 %
1041 19-12-2014 15:48:17 11 C 78 %
1042 19-12-2014 16:00:17 11 C 78 %
1043 19-12-2014 16:12:17 11 C 78 %
1044 19-12-2014 16:24:17 11 C 78 %
1045 19-12-2014 16:36:17 10.9 C 78 %
1046 19-12-2014 16:48:17 10.9 C 78 %
1047 19-12-2014 17:00:17 11 C 78 %
1048 19-12-2014 17:12:17 11 C 78 %
1049 19-12-2014 17:24:17 10.9 C 78 %
1050 19-12-2014 17:36:17 10.9 C 78 %
Sensor: Nr:Datum:Temp:Feuchte:
G-T/H 1051 19-12-2014 17:48:17 11 C 78 %
1052 19-12-2014 18:00:17 11 C 77 %
1053 19-12-2014 18:12:17 10.9 C 78 %
1054 19-12-2014 18:24:17 10.9 C 78 %
1055 19-12-2014 18:36:17 10.9 C 78 %
1056 19-12-2014 18:48:17 10.9 C 78 %
1057 19-12-2014 19:00:17 10.9 C 78 %
1058 19-12-2014 19:12:18 10.9 C 78 %
1059 19-12-2014 19:24:17 10.9 C 78 %
1060 19-12-2014 19:36:17 10.8 C 77 %
1061 19-12-2014 19:48:17 10.7 C 77 %
1062 19-12-2014 20:00:17 10.6 C 76 %
1063 19-12-2014 20:12:17 10.5 C 75 %
1064 19-12-2014 20:24:17 10.5 C 74 %
1065 19-12-2014 20:36:17 10.5 C 74 %
1066 19-12-2014 20:48:17 10.4 C 73 %
1067 19-12-2014 21:00:17 10.4 C 73 %
1068 19-12-2014 21:12:17 10.3 C 73 %
1069 19-12-2014 21:24:17 10.3 C 72 %
1070 19-12-2014 21:36:17 10.2 C 72 %
1071 19-12-2014 21:48:17 10.2 C 71 %
1072 19-12-2014 22:00:18 10.2 C 71 %
1073 19-12-2014 22:12:18 10.2 C 71 %
1074 19-12-2014 22:24:17 10.2 C 70 %
1075 19-12-2014 22:36:17 10.1 C 70 %
Sensor: Nr:Datum:Temp:Feuchte:
G-T/H 1076 19-12-2014 22:48:17 10.1 C 70 %
1077 19-12-2014 23:00:17 10.1 C 70 %
1078 19-12-2014 23:12:17 10.1 C 70 %
1079 19-12-2014 23:24:17 10.2 C 70 %
1080 19-12-2014 23:36:17 10.2 C 70 %
1081 19-12-2014 23:48:17 10.1 C 70 %
1082 20-12-2014 00:00:17 10.1 C 70 %
1083 20-12-2014 00:12:17 10 C 70 %
1084 20-12-2014 00:24:17 10 C 69 %
1085 20-12-2014 00:36:17 9.9 C 70 %
1086 20-12-2014 00:48:17 9.8 C 70 %
1087 20-12-2014 01:00:17 9.8 C 70 %
1088 20-12-2014 01:12:17 9.8 C 70 %
1089 20-12-2014 01:24:17 9.8 C 70 %
1090 20-12-2014 01:36:17 9.7 C 70 %
1091 20-12-2014 01:48:17 9.7 C 69 %
1092 20-12-2014 02:00:17 9.7 C 69 %
1093 20-12-2014 02:12:17 9.6 C 69 %
1094 20-12-2014 02:24:17 9.6 C 69 %
1095 20-12-2014 02:36:17 9.6 C 69 %
1096 20-12-2014 02:48:17 9.6 C 69 %
1097 20-12-2014 03:00:17 9.6 C 69 %
1098 20-12-2014 03:12:17 9.5 C 69 %
1099 20-12-2014 03:24:17 9.5 C 69 %
1100 20-12-2014 03:36:17 9.5 C 68 %
Sensor: Nr:Datum:Temp:Feuchte:
G-T/H 1101 20-12-2014 03:48:17 9.4 C 68 %
1102 20-12-2014 04:00:17 9.4 C 68 %
1103 20-12-2014 04:12:17 9.4 C 68 %
1104 20-12-2014 04:24:17 9.4 C 68 %
1105 20-12-2014 04:36:17 9.3 C 68 %
1106 20-12-2014 04:48:17 9.3 C 68 %
1107 20-12-2014 05:00:17 9.3 C 68 %
1108 20-12-2014 05:12:17 9.2 C 68 %
1109 20-12-2014 05:24:17 9.2 C 68 %
1110 20-12-2014 05:36:17 9.2 C 68 %
1111 20-12-2014 05:48:17 9.2 C 68 %
1112 20-12-2014 06:00:17 9.2 C 67 %
1113 20-12-2014 06:12:17 9.1 C 67 %
1114 20-12-2014 06:24:17 9.1 C 67 %
1115 20-12-2014 06:36:17 9.2 C 68 %
1116 20-12-2014 06:48:17 9.3 C 68 %
1117 20-12-2014 07:00:17 9.3 C 69 %
1118 20-12-2014 07:12:17 9.3 C 69 %
1119 20-12-2014 07:24:17 9.3 C 69 %
1120 20-12-2014 07:36:17 9.2 C 69 %
1121 20-12-2014 07:48:17 9.1 C 69 %
1122 20-12-2014 08:00:17 9.1 C 68 %
1123 20-12-2014 08:12:17 9 C 68 %
1124 20-12-2014 08:24:17 9 C 68 %
1125 20-12-2014 08:36:17 9.1 C 68 %
Sensor: Nr:Datum:Temp:Feuchte:
G-T/H 1126 20-12-2014 08:48:17 9.1 C 69 %
1127 20-12-2014 09:00:17 9.2 C 69 %
1128 20-12-2014 09:12:17 9.2 C 69 %
1129 20-12-2014 09:24:17 9.2 C 70 %
1130 20-12-2014 09:36:17 9.2 C 70 %
1131 20-12-2014 09:48:17 9.2 C 70 %
1132 20-12-2014 10:00:17 9.2 C 70 %
1133 20-12-2014 10:12:17 9.2 C 71 %
1134 20-12-2014 10:24:17 9.2 C 71 %
1135 20-12-2014 10:36:17 9.2 C 71 %
1136 20-12-2014 10:48:17 9.1 C 71 %
1137 20-12-2014 11:00:17 9.1 C 71 %
1138 20-12-2014 11:12:17 9.1 C 71 %
1139 20-12-2014 11:24:17 9.1 C 72 %
1140 20-12-2014 11:36:17 9.1 C 72 %
1141 20-12-2014 11:48:17 9.1 C 72 %
1142 20-12-2014 12:00:17 9.4 C 72 %
1143 20-12-2014 12:12:17 9.4 C 72 %
1144 20-12-2014 12:24:17 9.4 C 72 %
1145 20-12-2014 12:36:17 9.4 C 72 %
1146 20-12-2014 12:48:18 9.4 C 72 %
1147 20-12-2014 13:00:17 9.4 C 72 %
1148 20-12-2014 13:12:17 9.4 C 72 %
1149 20-12-2014 13:24:17 9.3 C 72 %
1150 20-12-2014 13:36:17 9.3 C 72 %
Sensor: Nr:Datum:Temp:Feuchte:
G-T/H 1151 20-12-2014 13:48:17 9.3 C 72 %
1152 20-12-2014 14:00:17 9.3 C 72 %
1153 20-12-2014 14:12:17 9.3 C 72 %
1154 20-12-2014 14:24:17 9.3 C 73 %
1155 20-12-2014 14:36:17 9.3 C 73 %
1156 20-12-2014 14:48:17 9.3 C 73 %
1157 20-12-2014 15:00:17 9.3 C 73 %
1158 20-12-2014 15:12:17 9.2 C 73 %
1159 20-12-2014 15:24:17 9.2 C 73 %
1160 20-12-2014 15:36:17 9.2 C 73 %
1161 20-12-2014 15:48:16 9.2 C 73 %
1162 20-12-2014 16:00:17 9.2 C 73 %
1163 20-12-2014 16:12:17 9.2 C 73 %
1164 20-12-2014 16:24:17 9.2 C 73 %
1165 20-12-2014 16:36:17 9.1 C 71 %
1166 20-12-2014 16:48:17 9 C 67 %
1167 20-12-2014 17:00:17 9.1 C 67 %
1168 20-12-2014 17:12:17 9.2 C 68 %
1169 20-12-2014 17:24:17 9.3 C 68 %
1170 20-12-2014 17:36:17 9.3 C 69 %
1171 20-12-2014 17:48:17 9.3 C 69 %
1172 20-12-2014 18:00:17 9.3 C 69 %
1173 20-12-2014 18:12:17 9.4 C 70 %
1174 20-12-2014 18:24:17 9.4 C 70 %
1175 20-12-2014 18:36:17 9.4 C 70 %
Sensor: Nr:Datum:Temp:Feuchte:
G-T/H 1176 20-12-2014 18:48:17 9.4 C 70 %
1177 20-12-2014 19:00:17 9.4 C 71 %
1178 20-12-2014 19:12:17 9.4 C 71 %
1179 20-12-2014 19:24:17 9.4 C 71 %
1180 20-12-2014 19:36:17 9.4 C 71 %
1181 20-12-2014 19:48:17 9.4 C 71 %
1182 20-12-2014 20:00:17 9.4 C 71 %
1183 20-12-2014 20:12:17 9.4 C 71 %
1184 20-12-2014 20:24:17 9.5 C 71 %
1185 20-12-2014 20:36:18 9.5 C 71 %
1186 20-12-2014 20:48:17 9.4 C 71 %
1187 20-12-2014 21:00:17 9.4 C 72 %
1188 20-12-2014 21:12:17 9.4 C 72 %
1189 20-12-2014 21:24:17 9.4 C 72 %
1190 20-12-2014 21:36:17 9.4 C 72 %
1191 20-12-2014 21:48:17 9.4 C 72 %
1192 20-12-2014 22:00:17 9.4 C 72 %
1193 20-12-2014 22:12:17 9.4 C 72 %
1194 20-12-2014 22:24:17 9.4 C 72 %
1195 20-12-2014 22:36:17 9.4 C 72 %
1196 20-12-2014 22:48:17 9.4 C 72 %
1197 20-12-2014 23:00:17 9.4 C 72 %
1198 20-12-2014 23:12:17 9.4 C 72 %
1199 20-12-2014 23:24:17 9.4 C 72 %
1200 20-12-2014 23:36:17 9.4 C 72 %
Sensor: Nr:Datum:Temp:Feuchte:
G-T/H 1201 20-12-2014 23:48:17 9.4 C 72 %
1202 21-12-2014 00:00:17 9.4 C 72 %
1203 21-12-2014 00:12:17 9.4 C 72 %
1204 21-12-2014 00:24:17 9.4 C 72 %
1205 21-12-2014 00:36:17 9.4 C 72 %
1206 21-12-2014 00:48:17 9.4 C 72 %
1207 21-12-2014 01:00:17 9.3 C 72 %
1208 21-12-2014 01:12:17 9.3 C 72 %
1209 21-12-2014 01:24:17 9.3 C 72 %
1210 21-12-2014 01:36:17 9.3 C 73 %
1211 21-12-2014 01:48:17 9.3 C 73 %
1212 21-12-2014 02:00:17 9.3 C 73 %
1213 21-12-2014 02:12:17 9.3 C 73 %
1214 21-12-2014 02:24:17 9.3 C 73 %
1215 21-12-2014 02:36:17 9.3 C 73 %
1216 21-12-2014 02:48:17 9.3 C 73 %
1217 21-12-2014 03:00:17 9.3 C 73 %
1218 21-12-2014 03:12:17 9.3 C 73 %
1219 21-12-2014 03:24:17 9.3 C 73 %
1220 21-12-2014 03:36:17 9.3 C 73 %
1221 21-12-2014 03:48:17 9.3 C 73 %
1222 21-12-2014 04:00:17 9.3 C 73 %
1223 21-12-2014 04:12:17 9.3 C 73 %
1224 21-12-2014 04:24:17 9.2 C 73 %
1225 21-12-2014 04:36:17 9.2 C 73 %
Sensor: Nr:Datum:Temp:Feuchte:
G-T/H 1226 21-12-2014 04:48:17 9.2 C 73 %
1227 21-12-2014 05:00:17 9.2 C 73 %
1228 21-12-2014 05:12:17 9.3 C 73 %
1229 21-12-2014 05:24:17 9.3 C 73 %
1230 21-12-2014 05:36:17 9.2 C 73 %
1231 21-12-2014 05:48:17 9.2 C 73 %
1232 21-12-2014 06:00:17 9.2 C 73 %
1233 21-12-2014 06:12:17 9.2 C 73 %
1234 21-12-2014 06:24:17 9.2 C 73 %
1235 21-12-2014 06:36:18 9.2 C 73 %
1236 21-12-2014 06:48:17 9.2 C 73 %
1237 21-12-2014 07:00:17 9.1 C 72 %
1238 21-12-2014 07:12:17 9.1 C 72 %
1239 21-12-2014 07:24:17 9 C 71 %
1240 21-12-2014 07:36:17 8.9 C 72 %
1241 21-12-2014 07:48:17 8.9 C 71 %
1242 21-12-2014 08:00:17 8.9 C 71 %
1243 21-12-2014 08:12:17 8.9 C 71 %
1244 21-12-2014 08:24:17 8.8 C 71 %
1245 21-12-2014 08:36:17 8.8 C 70 %
1246 21-12-2014 08:48:17 8.8 C 70 %
1247 21-12-2014 09:00:17 8.8 C 70 %
1248 21-12-2014 09:12:17 8.8 C 70 %
1249 21-12-2014 09:24:17 8.7 C 70 %
1250 21-12-2014 09:36:17 8.7 C 70 %
Sensor: Nr:Datum:Temp:Feuchte:
G-T/H 1251 21-12-2014 09:48:17 8.7 C 70 %
1252 21-12-2014 10:00:17 8.8 C 70 %
1253 21-12-2014 10:12:17 8.8 C 70 %
1254 21-12-2014 10:24:17 8.9 C 71 %
1255 21-12-2014 10:36:17 8.9 C 71 %
1256 21-12-2014 10:48:17 8.9 C 71 %
1257 21-12-2014 11:00:16 8.9 C 71 %
1258 21-12-2014 11:12:17 8.9 C 72 %
1259 21-12-2014 11:24:17 8.9 C 72 %
1260 21-12-2014 11:36:17 8.9 C 72 %
1261 21-12-2014 11:48:17 8.9 C 72 %
1262 21-12-2014 12:00:17 8.9 C 72 %
1263 21-12-2014 12:12:17 8.9 C 72 %
1264 21-12-2014 12:24:17 9 C 71 %
1265 21-12-2014 12:36:17 9 C 72 %
1266 21-12-2014 12:48:17 9 C 72 %
1267 21-12-2014 13:00:17 8.9 C 73 %
1268 21-12-2014 13:12:17 9 C 72 %
1269 21-12-2014 13:24:17 9 C 72 %
1270 21-12-2014 13:36:17 9 C 72 %
1271 21-12-2014 13:48:17 9 C 72 %
1272 21-12-2014 14:00:17 9 C 72 %
1273 21-12-2014 14:12:17 9 C 72 %
1274 21-12-2014 14:24:17 9 C 72 %
1275 21-12-2014 14:36:17 9 C 72 %
Sensor: Nr:Datum:Temp:Feuchte:
G-T/H 1276 21-12-2014 14:48:17 9 C 72 %
1277 21-12-2014 15:00:17 9 C 72 %
1278 21-12-2014 15:12:17 9 C 72 %
1279 21-12-2014 15:24:17 9 C 72 %
1280 21-12-2014 15:36:17 9 C 72 %
1281 21-12-2014 15:48:17 9 C 72 %
1282 21-12-2014 16:00:17 9 C 72 %
1283 21-12-2014 16:12:17 9 C 72 %
1284 21-12-2014 16:24:17 9 C 72 %
1285 21-12-2014 16:36:17 9.1 C 72 %
1286 21-12-2014 16:48:17 9 C 72 %
1287 21-12-2014 17:00:17 9.1 C 72 %
1288 21-12-2014 17:12:17 9.1 C 73 %
1289 21-12-2014 17:24:17 9.1 C 73 %
1290 21-12-2014 17:36:17 9.1 C 73 %
1291 21-12-2014 17:48:17 9.1 C 73 %
1292 21-12-2014 18:00:17 9.1 C 73 %
1293 21-12-2014 18:12:17 9.1 C 73 %
1294 21-12-2014 18:24:17 9.1 C 73 %
1295 21-12-2014 18:36:17 9.1 C 73 %
1296 21-12-2014 18:48:17 9.1 C 73 %
1297 21-12-2014 19:00:17 9.1 C 73 %
1298 21-12-2014 19:12:17 9.1 C 73 %
1299 21-12-2014 19:24:17 9.2 C 73 %
1300 21-12-2014 19:36:17 9.2 C 73 %
Sensor: Nr:Datum:Temp:Feuchte:
G-T/H 1301 21-12-2014 19:48:17 9.2 C 73 %
1302 21-12-2014 20:00:17 9.2 C 73 %
1303 21-12-2014 20:12:17 9.2 C 73 %
1304 21-12-2014 20:24:17 9.2 C 73 %
1305 21-12-2014 20:36:17 9.2 C 73 %
1306 21-12-2014 20:48:17 9.2 C 73 %
1307 21-12-2014 21:00:17 9.2 C 73 %
1308 21-12-2014 21:12:18 9.2 C 73 %
1309 21-12-2014 21:24:17 9.2 C 73 %
1310 21-12-2014 21:36:17 9.2 C 73 %
1311 21-12-2014 21:48:17 9.2 C 73 %
1312 21-12-2014 22:00:17 9.2 C 73 %
1313 21-12-2014 22:12:17 9.2 C 73 %
1314 21-12-2014 22:24:17 9.2 C 73 %
1315 21-12-2014 22:36:17 9.2 C 73 %
1316 21-12-2014 22:48:17 9.3 C 73 %
1317 21-12-2014 23:00:17 9.3 C 73 %
1318 21-12-2014 23:12:17 9.3 C 73 %
1319 21-12-2014 23:24:17 9.3 C 73 %
1320 21-12-2014 23:48:17 9.3 C 74 %
1321 22-12-2014 00:00:17 9.3 C 74 %
1322 22-12-2014 00:12:17 9.3 C 74 %
1323 22-12-2014 00:24:17 9.3 C 74 %
1324 22-12-2014 00:36:17 9.3 C 74 %
1325 22-12-2014 00:48:17 9.3 C 74 %
Sensor: Nr:Datum:Temp:Feuchte:
G-T/H 1326 22-12-2014 01:00:17 9.3 C 74 %
1327 22-12-2014 01:12:17 9.3 C 74 %
1328 22-12-2014 01:24:17 9.3 C 74 %
1329 22-12-2014 01:36:17 9.3 C 74 %
1330 22-12-2014 01:48:17 9.3 C 74 %
1331 22-12-2014 02:00:17 9.3 C 74 %
1332 22-12-2014 02:12:17 9.3 C 74 %
1333 22-12-2014 02:24:17 9.3 C 74 %
1334 22-12-2014 02:36:17 9.3 C 74 %
1335 22-12-2014 02:48:17 9.3 C 74 %
1336 22-12-2014 03:00:17 9.4 C 74 %
1337 22-12-2014 03:12:17 9.3 C 74 %
1338 22-12-2014 03:24:17 9.4 C 74 %
1339 22-12-2014 03:36:17 9.4 C 74 %
1340 22-12-2014 03:48:17 9.4 C 74 %
1341 22-12-2014 04:00:17 9.4 C 74 %
1342 22-12-2014 04:12:17 9.4 C 74 %
1343 22-12-2014 04:24:17 9.4 C 74 %
1344 22-12-2014 04:36:17 9.4 C 74 %
1345 22-12-2014 04:48:17 9.4 C 74 %
1346 22-12-2014 05:00:17 9.4 C 74 %
1347 22-12-2014 05:12:17 9.4 C 74 %
1348 22-12-2014 05:24:17 9.4 C 74 %
1349 22-12-2014 05:36:17 9.4 C 74 %
1350 22-12-2014 05:48:17 9.4 C 74 %
Sensor: Nr:Datum:Temp:Feuchte:
G-T/H 1351 22-12-2014 06:00:17 9.4 C 74 %
1352 22-12-2014 06:12:17 9.4 C 74 %
1353 22-12-2014 06:24:17 9.5 C 74 %
1354 22-12-2014 06:36:17 9.5 C 74 %
1355 22-12-2014 06:48:17 9.5 C 74 %
1356 22-12-2014 07:00:17 9.4 C 74 %
1357 22-12-2014 07:12:17 9.5 C 74 %
1358 22-12-2014 07:24:17 9.5 C 74 %
1359 22-12-2014 07:36:17 9.5 C 74 %
1360 22-12-2014 07:48:17 9.5 C 74 %
1361 22-12-2014 08:00:17 9.5 C 74 %
1362 22-12-2014 08:12:17 9.5 C 74 %
1363 22-12-2014 08:24:17 9.5 C 74 %
1364 22-12-2014 08:36:17 9.5 C 74 %
1365 22-12-2014 08:48:17 9.5 C 74 %
1366 22-12-2014 09:00:17 9.5 C 74 %
1367 22-12-2014 09:12:17 9.5 C 74 %
1368 22-12-2014 09:24:17 9.5 C 74 %
1369 22-12-2014 09:36:17 9.5 C 74 %
1370 22-12-2014 09:48:17 9.5 C 74 %
1371 22-12-2014 10:00:17 9.5 C 74 %
1372 22-12-2014 10:12:17 9.5 C 74 %
1373 22-12-2014 10:24:17 9.5 C 74 %
1374 22-12-2014 10:36:17 9.5 C 74 %
1375 22-12-2014 10:48:17 9.6 C 74 %
Sensor: Nr:Datum:Temp:Feuchte:
G-T/H 1376 22-12-2014 11:00:17 9.6 C 74 %
1377 22-12-2014 11:12:17 9.6 C 74 %
1378 22-12-2014 11:24:17 9.6 C 74 %
1379 22-12-2014 11:36:17 9.6 C 74 %
1380 22-12-2014 11:48:17 9.6 C 74 %
1381 22-12-2014 12:00:17 9.6 C 74 %
1382 22-12-2014 12:12:17 9.6 C 74 %
1383 22-12-2014 12:24:17 9.6 C 74 %
1384 22-12-2014 12:36:17 9.6 C 74 %
1385 22-12-2014 12:48:17 9.6 C 74 %
1386 22-12-2014 13:00:17 9.6 C 74 %
1387 22-12-2014 13:12:17 9.6 C 74 %
1388 22-12-2014 13:24:17 9.6 C 74 %
1389 22-12-2014 13:36:17 9.6 C 74 %
1390 22-12-2014 13:48:17 9.7 C 74 %
1391 22-12-2014 14:00:17 9.6 C 74 %
1392 22-12-2014 14:12:17 9.7 C 74 %
1393 22-12-2014 14:24:17 9.7 C 74 %
1394 22-12-2014 14:36:17 9.7 C 74 %
1395 22-12-2014 14:48:17 9.7 C 75 %
1396 22-12-2014 15:00:17 9.7 C 75 %
1397 22-12-2014 15:12:17 9.7 C 75 %
1398 22-12-2014 15:24:17 9.7 C 75 %
1399 22-12-2014 15:36:17 9.7 C 75 %
1400 22-12-2014 15:48:17 9.7 C 75 %
Sensor: Nr:Datum:Temp:Feuchte:
G-T/H 1401 22-12-2014 16:00:18 9.7 C 75 %
1402 22-12-2014 16:12:18 9.7 C 75 %
1403 22-12-2014 16:24:17 9.7 C 75 %
1404 22-12-2014 16:36:17 9.8 C 75 %
1405 22-12-2014 16:48:17 9.8 C 75 %
1406 22-12-2014 17:00:17 9.8 C 75 %
1407 22-12-2014 17:12:17 9.8 C 75 %
1408 22-12-2014 17:24:17 9.8 C 75 %
1409 22-12-2014 17:36:17 9.8 C 75 %
1410 22-12-2014 17:48:17 9.8 C 75 %
1411 22-12-2014 18:00:17 9.8 C 75 %
1412 22-12-2014 18:12:17 9.8 C 75 %
1413 22-12-2014 18:24:17 9.8 C 75 %
1414 22-12-2014 18:36:17 9.8 C 75 %
1415 22-12-2014 18:48:17 9.8 C 75 %
1416 22-12-2014 19:00:17 9.8 C 75 %
1417 22-12-2014 19:12:17 9.8 C 75 %
1418 22-12-2014 19:24:17 9.8 C 75 %
1419 22-12-2014 19:36:17 9.8 C 75 %
1420 22-12-2014 19:48:17 9.8 C 75 %
1421 22-12-2014 20:00:17 9.8 C 75 %
1422 22-12-2014 20:12:17 9.8 C 75 %
1423 22-12-2014 20:24:17 9.9 C 75 %
1424 22-12-2014 20:36:17 9.9 C 75 %
1425 22-12-2014 20:48:17 9.9 C 75 %
Sensor: Nr:Datum:Temp:Feuchte:
G-T/H 1426 22-12-2014 21:00:17 9.9 C 75 %
1427 22-12-2014 21:12:17 9.9 C 75 %
1428 22-12-2014 21:24:17 9.9 C 75 %
1429 22-12-2014 21:36:17 9.9 C 75 %
1430 22-12-2014 21:48:17 9.9 C 75 %
1431 22-12-2014 22:00:17 9.9 C 75 %
1432 22-12-2014 22:12:17 9.9 C 75 %
1433 22-12-2014 22:24:17 9.9 C 75 %
1434 22-12-2014 22:36:17 9.9 C 75 %
1435 22-12-2014 22:48:17 9.9 C 75 %
1436 22-12-2014 23:00:17 9.9 C 75 %
1437 22-12-2014 23:12:17 9.9 C 75 %
1438 22-12-2014 23:24:17 9.9 C 76 %
1439 22-12-2014 23:36:17 9.9 C 76 %
1440 22-12-2014 23:48:17 9.9 C 76 %
1441 23-12-2014 00:00:17 10 C 74 %
1442 23-12-2014 00:12:17 10 C 74 %
1443 23-12-2014 00:24:17 10 C 74 %
1444 23-12-2014 00:36:17 10 C 74 %
1445 23-12-2014 00:48:17 10 C 74 %
1446 23-12-2014 01:00:17 10 C 74 %
1447 23-12-2014 01:12:17 10 C 74 %
1448 23-12-2014 01:24:17 10 C 74 %
1449 23-12-2014 01:36:17 10 C 74 %
1450 23-12-2014 01:48:17 10 C 74 %
Sensor: Nr:Datum:Temp:Feuchte:
G-T/H 1451 23-12-2014 02:00:17 10 C 74 %
1452 23-12-2014 02:12:17 10 C 74 %
1453 23-12-2014 02:24:17 10 C 75 %
1454 23-12-2014 02:36:17 10 C 75 %
1455 23-12-2014 02:48:17 10 C 75 %
1456 23-12-2014 03:00:17 10 C 75 %
1457 23-12-2014 03:12:17 10.1 C 75 %
1458 23-12-2014 03:24:17 10.1 C 75 %
1459 23-12-2014 03:36:17 10.1 C 75 %
1460 23-12-2014 03:48:17 10 C 75 %
1461 23-12-2014 04:00:17 10.1 C 75 %
1462 23-12-2014 04:12:17 10.1 C 75 %
1463 23-12-2014 04:24:17 10.1 C 75 %
1464 23-12-2014 04:36:17 10.1 C 75 %
1465 23-12-2014 04:48:17 10.1 C 75 %
1466 23-12-2014 05:00:17 10.1 C 75 %
1467 23-12-2014 05:12:17 10.1 C 75 %
1468 23-12-2014 05:24:17 10.1 C 75 %
1469 23-12-2014 05:36:17 10.1 C 75 %
1470 23-12-2014 05:48:17 10.1 C 75 %
1471 23-12-2014 06:00:17 10.1 C 75 %
1472 23-12-2014 06:12:17 10.1 C 75 %
1473 23-12-2014 06:24:17 10.2 C 75 %
1474 23-12-2014 06:36:17 10.2 C 75 %
1475 23-12-2014 06:48:17 10.2 C 75 %
Sensor: Nr:Datum:Temp:Feuchte:
G-T/H 1476 23-12-2014 07:00:17 10.2 C 75 %
1477 23-12-2014 07:12:17 10.1 C 75 %
1478 23-12-2014 07:24:17 10.2 C 75 %
1479 23-12-2014 07:36:17 10.1 C 75 %
1480 23-12-2014 07:48:17 10.2 C 75 %
1481 23-12-2014 08:00:17 10.2 C 75 %
1482 23-12-2014 08:12:17 10.2 C 75 %
1483 23-12-2014 08:24:17 10.2 C 75 %
1484 23-12-2014 08:36:17 10.2 C 75 %
1485 23-12-2014 08:48:17 10.2 C 75 %
1486 23-12-2014 09:00:17 10.2 C 75 %
1487 23-12-2014 09:12:17 10.2 C 75 %
1488 23-12-2014 09:24:17 10.2 C 75 %
1489 23-12-2014 09:36:17 10.2 C 75 %
1490 23-12-2014 09:48:17 10.2 C 75 %
1491 23-12-2014 10:00:17 10.3 C 75 %
1492 23-12-2014 10:12:17 10.3 C 75 %
1493 23-12-2014 10:24:17 10.2 C 75 %
1494 23-12-2014 10:36:17 10.3 C 75 %
1495 23-12-2014 10:48:17 10.3 C 75 %
1496 23-12-2014 11:00:17 10.3 C 75 %
1497 23-12-2014 11:12:17 10.3 C 75 %
1498 23-12-2014 11:24:17 10.3 C 75 %
1499 23-12-2014 11:36:17 10.3 C 75 %
1500 23-12-2014 11:48:17 10.3 C 75 %
Sensor: Nr:Datum:Temp:Feuchte:
G-T/H 1501 23-12-2014 12:00:17 10.3 C 75 %
1502 23-12-2014 12:12:17 10.4 C 75 %
1503 23-12-2014 12:24:17 10.3 C 75 %
1504 23-12-2014 12:36:17 10.4 C 75 %
1505 23-12-2014 12:48:17 10.4 C 75 %
1506 23-12-2014 13:00:17 10.4 C 75 %
1507 23-12-2014 13:12:17 10.4 C 75 %
1508 23-12-2014 13:24:17 10.4 C 75 %
1509 23-12-2014 13:36:17 10.4 C 75 %
1510 23-12-2014 13:48:17 10.4 C 75 %
1511 23-12-2014 14:00:17 10.4 C 75 %
1512 23-12-2014 14:12:17 10.4 C 75 %
1513 23-12-2014 14:24:16 10.4 C 75 %
1514 23-12-2014 14:36:17 10.4 C 75 %
1515 23-12-2014 14:48:17 10.4 C 75 %
1516 23-12-2014 15:00:17 10.4 C 75 %
1517 23-12-2014 15:12:17 10.5 C 75 %
1518 23-12-2014 15:24:17 10.5 C 75 %
1519 23-12-2014 15:36:17 10.5 C 75 %
1520 23-12-2014 15:48:17 10.5 C 75 %
1521 23-12-2014 16:00:17 10.5 C 76 %
1522 23-12-2014 16:12:17 10.5 C 75 %
1523 23-12-2014 16:24:17 10.5 C 75 %
1524 23-12-2014 16:36:17 10.5 C 75 %
1525 23-12-2014 16:48:17 10.5 C 75 %
Sensor: Nr:Datum:Temp:Feuchte:
G-T/H 1526 23-12-2014 17:00:17 10.5 C 75 %
1527 23-12-2014 17:12:17 10.5 C 75 %
1528 23-12-2014 17:24:17 10.5 C 75 %
1529 23-12-2014 17:36:17 10.5 C 75 %
1530 23-12-2014 17:48:17 10.5 C 75 %
1531 23-12-2014 18:00:17 10.6 C 75 %
1532 23-12-2014 18:12:17 10.6 C 75 %
1533 23-12-2014 18:24:17 10.6 C 75 %
1534 23-12-2014 18:36:17 10.6 C 75 %
1535 23-12-2014 18:48:17 10.6 C 75 %
1536 23-12-2014 19:00:17 10.6 C 75 %
1537 23-12-2014 19:12:17 10.6 C 75 %
1538 23-12-2014 19:24:17 10.6 C 76 %
1539 23-12-2014 19:36:17 10.6 C 75 %
1540 23-12-2014 19:48:17 10.6 C 76 %
1541 23-12-2014 20:00:17 10.6 C 76 %
1542 23-12-2014 20:12:17 10.6 C 76 %
1543 23-12-2014 20:24:17 10.7 C 75 %
1544 23-12-2014 20:36:17 10.6 C 75 %
1545 23-12-2014 20:48:17 10.7 C 76 %
1546 23-12-2014 21:00:17 10.7 C 76 %
1547 23-12-2014 21:12:17 10.6 C 76 %
1548 23-12-2014 21:24:17 10.6 C 76 %
1549 23-12-2014 21:36:17 10.6 C 76 %
1550 23-12-2014 21:48:17 10.7 C 76 %
Sensor: Nr:Datum:Temp:Feuchte:
G-T/H 1551 23-12-2014 22:00:17 10.7 C 76 %
1552 23-12-2014 22:12:17 10.7 C 76 %
1553 23-12-2014 22:24:17 10.7 C 76 %
1554 23-12-2014 22:36:17 10.7 C 75 %
1555 23-12-2014 22:48:17 10.6 C 75 %
1556 23-12-2014 23:00:17 10.7 C 75 %
1557 23-12-2014 23:12:17 10.7 C 75 %
1558 23-12-2014 23:24:17 10.7 C 75 %
1559 23-12-2014 23:36:17 10.7 C 75 %
1560 23-12-2014 23:48:17 10.7 C 75 %
1561 24-12-2014 00:00:17 10.7 C 75 %
1562 24-12-2014 00:12:17 10.7 C 75 %
1563 24-12-2014 00:24:17 10.7 C 75 %
1564 24-12-2014 00:36:17 10.7 C 75 %
1565 24-12-2014 00:48:17 10.7 C 75 %
1566 24-12-2014 01:00:18 10.7 C 75 %
1567 24-12-2014 01:12:18 10.7 C 75 %
1568 24-12-2014 01:24:17 10.7 C 75 %
1569 24-12-2014 01:36:17 10.7 C 75 %
1570 24-12-2014 01:48:17 10.7 C 75 %
1571 24-12-2014 02:00:17 10.7 C 75 %
1572 24-12-2014 02:12:17 10.7 C 75 %
1573 24-12-2014 02:24:17 10.7 C 75 %
1574 24-12-2014 02:36:17 10.7 C 75 %
1575 24-12-2014 02:48:17 10.6 C 75 %
Sensor: Nr:Datum:Temp:Feuchte:
G-T/H 1576 24-12-2014 03:00:17 10.6 C 75 %
1577 24-12-2014 03:12:17 10.6 C 75 %
1578 24-12-2014 03:24:17 10.6 C 75 %
1579 24-12-2014 03:36:17 10.7 C 75 %
1580 24-12-2014 03:48:17 10.6 C 75 %
1581 24-12-2014 04:00:17 10.6 C 75 %
1582 24-12-2014 04:12:17 10.6 C 75 %
1583 24-12-2014 04:24:17 10.6 C 75 %
1584 24-12-2014 04:36:17 10.6 C 75 %
1585 24-12-2014 04:48:17 10.6 C 75 %
1586 24-12-2014 05:00:17 10.6 C 75 %
1587 24-12-2014 05:12:17 10.6 C 75 %
1588 24-12-2014 05:24:17 10.6 C 75 %
1589 24-12-2014 05:36:17 10.6 C 75 %
1590 24-12-2014 05:48:17 10.6 C 75 %
1591 24-12-2014 06:00:17 10.6 C 75 %
1592 24-12-2014 06:12:17 10.5 C 74 %
1593 24-12-2014 06:24:17 10.4 C 74 %
1594 24-12-2014 06:36:17 10.4 C 73 %
1595 24-12-2014 06:48:17 10.4 C 72 %
1596 24-12-2014 07:00:17 10.3 C 72 %
1597 24-12-2014 07:12:17 10.3 C 72 %
1598 24-12-2014 07:24:17 10.3 C 71 %
1599 24-12-2014 07:36:17 10.4 C 72 %
1600 24-12-2014 07:48:17 10.4 C 72 %
Sensor: Nr:Datum:Temp:Feuchte:
G-T/H 1601 24-12-2014 08:00:17 10.4 C 72 %
1602 24-12-2014 08:12:17 10.4 C 72 %
1603 24-12-2014 08:24:17 10.4 C 72 %
1604 24-12-2014 08:36:17 10.4 C 73 %
1605 24-12-2014 08:48:17 10.5 C 73 %
1606 24-12-2014 09:00:17 10.5 C 73 %
1607 24-12-2014 09:12:17 10.5 C 73 %
1608 24-12-2014 09:24:17 10.5 C 73 %
1609 24-12-2014 09:36:17 10.5 C 73 %
1610 24-12-2014 09:48:17 10.4 C 73 %
1611 24-12-2014 10:00:17 10.5 C 73 %
1612 24-12-2014 10:12:17 10.5 C 73 %
1613 24-12-2014 10:24:17 10.5 C 73 %
1614 24-12-2014 10:36:17 10.5 C 73 %
1615 24-12-2014 10:48:17 10.5 C 73 %
1616 24-12-2014 11:00:17 10.5 C 74 %
1617 24-12-2014 11:12:17 10.5 C 74 %
1618 24-12-2014 11:24:17 10.5 C 74 %
1619 24-12-2014 11:36:17 10.5 C 74 %
1620 24-12-2014 11:48:17 10.5 C 74 %
1621 24-12-2014 12:00:17 10.5 C 74 %
1622 24-12-2014 12:12:17 10.5 C 74 %
1623 24-12-2014 12:24:17 10.5 C 74 %
1624 24-12-2014 12:36:17 10.5 C 74 %
1625 24-12-2014 12:48:17 10.5 C 74 %
Sensor: Nr:Datum:Temp:Feuchte:
G-T/H 1626 24-12-2014 13:00:17 10.5 C 74 %
1627 24-12-2014 13:12:17 10.5 C 74 %
1628 24-12-2014 13:24:16 10.5 C 74 %
1629 24-12-2014 13:36:17 10.5 C 74 %
1630 24-12-2014 13:48:17 10.5 C 74 %
1631 24-12-2014 14:00:17 10.5 C 74 %
1632 24-12-2014 14:12:17 10.5 C 74 %
1633 24-12-2014 14:24:17 10.5 C 74 %
1634 24-12-2014 14:36:17 10.5 C 74 %
1635 24-12-2014 14:48:17 10.5 C 74 %
1636 24-12-2014 15:00:17 10.5 C 74 %
1637 24-12-2014 15:12:17 10.5 C 74 %
1638 24-12-2014 15:24:16 10.5 C 74 %
1639 24-12-2014 15:36:17 10.5 C 74 %
1640 24-12-2014 15:48:17 10.5 C 74 %
1641 24-12-2014 16:00:17 10.5 C 74 %
1642 24-12-2014 16:12:18 10.5 C 74 %
1643 24-12-2014 16:24:17 10.5 C 74 %
1644 24-12-2014 16:36:17 10.5 C 74 %
1645 24-12-2014 16:48:17 10.5 C 74 %
1646 24-12-2014 17:00:17 10.5 C 74 %
1647 24-12-2014 17:12:17 10.5 C 74 %
1648 24-12-2014 17:24:17 10.5 C 74 %
1649 24-12-2014 17:36:17 10.6 C 74 %
1650 24-12-2014 17:48:17 10.6 C 74 %
Sensor: Nr:Datum:Temp:Feuchte:
G-T/H 1651 24-12-2014 18:00:17 10.6 C 74 %
1652 24-12-2014 18:12:17 10.6 C 74 %
1653 24-12-2014 18:24:17 10.6 C 74 %
1654 24-12-2014 18:36:17 10.6 C 75 %
1655 24-12-2014 18:48:17 10.6 C 75 %
1656 24-12-2014 19:00:17 10.6 C 75 %
1657 24-12-2014 19:12:17 10.6 C 75 %
1658 24-12-2014 19:24:17 10.6 C 75 %
1659 24-12-2014 19:36:17 10.6 C 75 %
1660 24-12-2014 19:48:17 10.6 C 75 %
1661 24-12-2014 20:00:17 10.6 C 75 %
1662 24-12-2014 20:12:17 10.6 C 75 %
1663 24-12-2014 20:24:17 10.6 C 75 %
1664 24-12-2014 20:36:17 10.6 C 75 %
1665 24-12-2014 20:48:17 10.6 C 75 %
1666 24-12-2014 21:00:17 10.6 C 75 %
1667 24-12-2014 21:12:17 10.6 C 75 %
1668 24-12-2014 21:24:17 10.6 C 75 %
1669 24-12-2014 21:36:17 10.6 C 75 %
1670 24-12-2014 21:48:17 10.5 C 75 %
1671 24-12-2014 22:00:17 10.6 C 75 %
1672 24-12-2014 22:12:17 10.6 C 75 %
1673 24-12-2014 22:24:17 10.6 C 75 %
1674 24-12-2014 22:36:17 10.5 C 75 %
1675 24-12-2014 22:48:17 10.6 C 75 %
Sensor: Nr:Datum:Temp:Feuchte:
G-T/H 1676 24-12-2014 23:00:17 10.5 C 75 %
1677 24-12-2014 23:12:17 10.5 C 75 %
1678 24-12-2014 23:24:17 10.5 C 75 %
1679 24-12-2014 23:36:17 10.5 C 75 %
1680 24-12-2014 23:48:16 10.5 C 75 %
1681 25-12-2014 00:00:17 10.5 C 75 %
1682 25-12-2014 00:12:17 10.5 C 75 %
1683 25-12-2014 00:24:17 10.5 C 75 %
1684 25-12-2014 00:36:18 10.5 C 75 %
1685 25-12-2014 00:48:17 10.5 C 75 %
1686 25-12-2014 01:00:17 10.5 C 75 %
1687 25-12-2014 01:12:17 10.5 C 75 %
1688 25-12-2014 01:24:17 10.5 C 75 %
1689 25-12-2014 01:36:17 10.5 C 75 %
1690 25-12-2014 01:48:17 10.5 C 75 %
1691 25-12-2014 02:00:17 10.5 C 74 %
1692 25-12-2014 02:12:17 10.5 C 74 %
1693 25-12-2014 02:24:17 10.4 C 74 %
1694 25-12-2014 02:36:17 10.4 C 74 %
1695 25-12-2014 02:48:17 10.4 C 74 %
1696 25-12-2014 03:00:17 10.4 C 74 %
1697 25-12-2014 03:12:17 10.4 C 74 %
1698 25-12-2014 03:24:17 10.4 C 74 %
1699 25-12-2014 03:36:17 10.4 C 74 %
1700 25-12-2014 03:48:17 10.4 C 74 %
Sensor: Nr:Datum:Temp:Feuchte:
G-T/H 1701 25-12-2014 04:00:17 10.4 C 74 %
1702 25-12-2014 04:12:17 10.4 C 74 %
1703 25-12-2014 04:24:17 10.4 C 74 %
1704 25-12-2014 04:36:17 10.3 C 74 %
1705 25-12-2014 04:48:17 10.3 C 74 %
1706 25-12-2014 05:00:17 10.3 C 74 %
1707 25-12-2014 05:12:17 10.3 C 74 %
1708 25-12-2014 05:24:17 10.3 C 74 %
1709 25-12-2014 05:36:17 10.3 C 73 %
1710 25-12-2014 05:48:17 10.2 C 73 %
1711 25-12-2014 06:00:17 10.2 C 73 %
1712 25-12-2014 06:12:17 10.1 C 73 %
1713 25-12-2014 06:24:17 10 C 72 %
1714 25-12-2014 06:36:17 9.9 C 73 %
1715 25-12-2014 06:48:17 9.8 C 72 %
1716 25-12-2014 07:00:17 9.8 C 71 %
1717 25-12-2014 07:12:17 9.7 C 71 %
1718 25-12-2014 07:24:17 9.7 C 70 %
1719 25-12-2014 07:36:17 9.6 C 70 %
1720 25-12-2014 07:48:17 9.6 C 69 %
1721 25-12-2014 08:00:17 9.5 C 69 %
1722 25-12-2014 08:12:17 9.5 C 68 %
1723 25-12-2014 08:24:17 9.5 C 68 %
1724 25-12-2014 08:36:17 9.4 C 68 %
1725 25-12-2014 08:48:17 9.4 C 68 %
Sensor: Nr:Datum:Temp:Feuchte:
G-T/H 1726 25-12-2014 09:00:17 9.4 C 67 %
1727 25-12-2014 09:12:17 9.4 C 67 %
1728 25-12-2014 09:24:17 9.3 C 67 %
1729 25-12-2014 09:36:17 9.3 C 67 %
1730 25-12-2014 09:48:17 9.3 C 67 %
1731 25-12-2014 10:00:17 9.4 C 67 %
1732 25-12-2014 10:12:17 9.5 C 68 %
1733 25-12-2014 10:24:17 9.5 C 68 %
1734 25-12-2014 10:36:17 9.5 C 69 %
1735 25-12-2014 10:48:17 9.5 C 68 %
1736 25-12-2014 11:00:17 9.4 C 68 %
1737 25-12-2014 11:12:17 9.4 C 68 %
1738 25-12-2014 11:24:17 9.4 C 68 %
1739 25-12-2014 11:36:17 9.5 C 68 %
1740 25-12-2014 11:48:17 9.4 C 68 %
1741 25-12-2014 12:00:17 9.4 C 68 %
1742 25-12-2014 12:12:17 9.5 C 68 %
1743 25-12-2014 12:24:17 9.5 C 69 %
1744 25-12-2014 12:36:17 9.5 C 69 %
1745 25-12-2014 12:48:17 9.5 C 70 %
1746 25-12-2014 13:00:17 9.5 C 70 %
1747 25-12-2014 13:12:17 9.5 C 70 %
1748 25-12-2014 13:24:17 9.5 C 70 %
1749 25-12-2014 13:36:17 9.5 C 70 %
1750 25-12-2014 13:48:17 9.6 C 71 %
Sensor: Nr:Datum:Temp:Feuchte:
G-T/H 1751 25-12-2014 14:00:17 9.5 C 71 %
1752 25-12-2014 14:12:17 9.6 C 71 %
1753 25-12-2014 14:24:17 9.6 C 71 %
1754 25-12-2014 14:36:17 9.6 C 71 %
1755 25-12-2014 14:48:17 9.6 C 71 %
1756 25-12-2014 15:00:17 9.6 C 71 %
1757 25-12-2014 15:12:17 9.6 C 72 %
1758 25-12-2014 15:24:17 9.6 C 72 %
1759 25-12-2014 15:36:18 9.5 C 71 %
1760 25-12-2014 15:48:17 9.5 C 70 %
1761 25-12-2014 16:00:17 9.5 C 69 %
1762 25-12-2014 16:12:17 9.4 C 69 %
1763 25-12-2014 16:24:17 9.5 C 70 %
1764 25-12-2014 16:36:17 9.5 C 70 %
1765 25-12-2014 16:48:17 9.5 C 70 %
1766 25-12-2014 17:00:17 9.5 C 70 %
1767 25-12-2014 17:12:17 9.5 C 71 %
1768 25-12-2014 17:24:17 9.5 C 71 %
1769 25-12-2014 17:36:17 9.5 C 71 %
1770 25-12-2014 17:48:17 9.5 C 71 %
1771 25-12-2014 18:00:17 9.5 C 71 %
1772 25-12-2014 18:12:17 9.5 C 71 %
1773 25-12-2014 18:24:17 9.4 C 71 %
1774 25-12-2014 18:36:17 9.4 C 71 %
1775 25-12-2014 18:48:17 9.3 C 70 %
Sensor: Nr:Datum:Temp:Feuchte:
G-T/H 1776 25-12-2014 19:00:17 9.3 C 70 %
1777 25-12-2014 19:12:17 9.2 C 70 %
1778 25-12-2014 19:24:17 9.2 C 70 %
1779 25-12-2014 19:36:17 9.3 C 70 %
1780 25-12-2014 19:48:17 9.3 C 70 %
1781 25-12-2014 20:00:17 9.4 C 70 %
1782 25-12-2014 20:12:17 9.3 C 71 %
1783 25-12-2014 20:24:17 9.4 C 71 %
1784 25-12-2014 20:36:17 9.3 C 71 %
1785 25-12-2014 20:48:17 9.2 C 70 %
1786 25-12-2014 21:00:17 9.2 C 70 %
1787 25-12-2014 21:12:17 9.2 C 70 %
1788 25-12-2014 21:24:17 9.3 C 70 %
1789 25-12-2014 21:36:17 9.3 C 70 %
1790 25-12-2014 21:48:17 9.3 C 70 %
1791 25-12-2014 22:00:17 9.3 C 70 %
1792 25-12-2014 22:12:17 9.3 C 71 %
1793 25-12-2014 22:24:17 9.3 C 71 %
1794 25-12-2014 22:36:17 9.3 C 71 %
1795 25-12-2014 22:48:17 9.3 C 71 %
1796 25-12-2014 23:00:17 9.2 C 71 %
1797 25-12-2014 23:12:17 9.2 C 71 %
1798 25-12-2014 23:24:17 9.1 C 70 %
1799 25-12-2014 23:36:17 9 C 70 %
1800 25-12-2014 23:48:17 9 C 69 %
Sensor: Nr:Datum:Temp:Feuchte:
G-T/H 1801 26-12-2014 00:00:17 8.9 C 70 %
1802 26-12-2014 00:12:17 8.9 C 69 %
1803 26-12-2014 00:24:17 8.7 C 69 %
1804 26-12-2014 00:36:17 8.8 C 69 %
1805 26-12-2014 00:48:17 8.7 C 69 %
1806 26-12-2014 01:00:17 8.7 C 68 %
1807 26-12-2014 01:12:17 8.7 C 68 %
1808 26-12-2014 01:24:17 8.7 C 68 %
1809 26-12-2014 01:36:17 8.6 C 68 %
1810 26-12-2014 01:48:17 8.6 C 68 %
1811 26-12-2014 02:00:17 8.6 C 68 %
1812 26-12-2014 02:12:17 8.6 C 68 %
1813 26-12-2014 02:24:17 8.6 C 68 %
1814 26-12-2014 02:36:17 8.6 C 68 %
1815 26-12-2014 02:48:17 8.5 C 68 %
1816 26-12-2014 03:00:17 8.5 C 68 %
1817 26-12-2014 03:12:17 8.5 C 68 %
1818 26-12-2014 03:24:17 8.5 C 68 %
1819 26-12-2014 03:36:17 8.5 C 68 %
1820 26-12-2014 03:48:17 8.5 C 68 %
1821 26-12-2014 04:00:17 8.5 C 68 %
1822 26-12-2014 04:12:17 8.4 C 68 %
1823 26-12-2014 04:24:17 8.4 C 68 %
1824 26-12-2014 04:36:17 8.4 C 68 %
1825 26-12-2014 04:48:17 8.4 C 68 %
Sensor: Nr:Datum:Temp:Feuchte:
G-T/H 1826 26-12-2014 05:00:17 8.4 C 68 %
1827 26-12-2014 05:12:17 8.4 C 67 %
1828 26-12-2014 05:24:17 8.4 C 67 %
1829 26-12-2014 05:36:17 8.4 C 67 %
1830 26-12-2014 05:48:17 8.4 C 67 %
1831 26-12-2014 06:00:17 8.4 C 67 %
1832 26-12-2014 06:12:17 8.4 C 67 %
1833 26-12-2014 06:24:17 8.5 C 68 %
1834 26-12-2014 06:36:17 8.5 C 68 %
1835 26-12-2014 06:48:17 8.5 C 69 %
1836 26-12-2014 07:00:17 8.6 C 69 %
1837 26-12-2014 07:12:17 8.6 C 69 %
1838 26-12-2014 07:24:17 8.6 C 69 %
1839 26-12-2014 07:36:17 8.6 C 69 %
1840 26-12-2014 07:48:17 8.6 C 70 %
1841 26-12-2014 08:00:17 8.7 C 70 %
1842 26-12-2014 08:12:17 8.7 C 70 %
1843 26-12-2014 08:24:17 8.7 C 70 %
1844 26-12-2014 08:36:17 8.6 C 70 %
1845 26-12-2014 08:48:17 8.7 C 70 %
1846 26-12-2014 09:00:17 8.6 C 70 %
1847 26-12-2014 09:12:17 8.7 C 70 %
1848 26-12-2014 09:24:17 8.6 C 70 %
1849 26-12-2014 09:36:17 8.6 C 70 %
1850 26-12-2014 09:48:17 8.7 C 70 %
Sensor: Nr:Datum:Temp:Feuchte:
G-T/H 1851 26-12-2014 10:00:17 8.6 C 71 %
1852 26-12-2014 10:12:17 8.7 C 71 %
1853 26-12-2014 10:24:17 8.6 C 71 %
1854 26-12-2014 10:36:17 7.8 C 68 %
1855 26-12-2014 10:48:17 8 C 67 %
1856 26-12-2014 11:00:17 8.1 C 67 %
1857 26-12-2014 11:12:17 8.3 C 68 %
1858 26-12-2014 11:24:17 8.4 C 68 %
1859 26-12-2014 11:36:17 8.4 C 69 %
1860 26-12-2014 11:48:17 8.4 C 69 %
1861 26-12-2014 12:00:17 8.5 C 69 %
1862 26-12-2014 12:12:17 8.5 C 70 %
1863 26-12-2014 12:24:17 8.5 C 70 %
1864 26-12-2014 12:36:17 8.5 C 70 %
1865 26-12-2014 12:48:17 8.5 C 70 %
1866 26-12-2014 13:00:17 8.5 C 70 %
1867 26-12-2014 13:12:17 8.5 C 70 %
1868 26-12-2014 13:24:17 8.5 C 70 %
1869 26-12-2014 13:36:17 8.6 C 71 %
1870 26-12-2014 13:48:17 8.6 C 71 %
1871 26-12-2014 14:00:17 8.6 C 71 %
1872 26-12-2014 14:12:17 8.6 C 71 %
1873 26-12-2014 14:24:17 8.6 C 71 %
1874 26-12-2014 14:36:17 8.6 C 71 %
1875 26-12-2014 14:48:17 8.6 C 71 %
Sensor: Nr:Datum:Temp:Feuchte:
G-T/H 1876 26-12-2014 15:00:17 8.6 C 71 %
1877 26-12-2014 15:12:17 8.6 C 71 %
1878 26-12-2014 15:24:17 8.6 C 71 %
1879 26-12-2014 15:36:17 8.6 C 71 %
1880 26-12-2014 15:48:17 8.6 C 71 %
1881 26-12-2014 16:00:17 8.6 C 71 %
1882 26-12-2014 16:12:17 8.6 C 72 %
1883 26-12-2014 16:24:17 8.6 C 72 %
1884 26-12-2014 16:36:17 8.6 C 72 %
1885 26-12-2014 16:48:17 8.5 C 71 %
1886 26-12-2014 17:00:17 8.5 C 71 %
1887 26-12-2014 17:12:17 8.5 C 70 %
1888 26-12-2014 17:24:17 8.4 C 70 %
1889 26-12-2014 17:36:17 8.4 C 70 %
1890 26-12-2014 17:48:17 8.4 C 70 %
1891 26-12-2014 18:00:17 8.4 C 70 %
1892 26-12-2014 18:12:17 8.3 C 69 %
1893 26-12-2014 18:24:17 8.2 C 69 %
1894 26-12-2014 18:36:17 8.2 C 69 %
1895 26-12-2014 18:48:17 8.2 C 68 %
1896 26-12-2014 19:00:17 8.2 C 68 %
1897 26-12-2014 19:12:17 8.1 C 68 %
1898 26-12-2014 19:24:17 8.3 C 69 %
1899 26-12-2014 19:36:17 8.5 C 70 %
1900 26-12-2014 19:48:17 8.6 C 70 %
Sensor: Nr:Datum:Temp:Feuchte:
G-T/H 1901 26-12-2014 20:00:17 8.7 C 71 %
1902 26-12-2014 20:12:17 8.7 C 71 %
1903 26-12-2014 20:24:17 8.8 C 71 %
1904 26-12-2014 20:36:17 8.8 C 71 %
1905 26-12-2014 20:48:17 8.8 C 71 %
1906 26-12-2014 21:00:17 8.8 C 71 %
1907 26-12-2014 21:12:17 8.8 C 71 %
1908 26-12-2014 21:24:17 8.8 C 70 %
1909 26-12-2014 21:36:17 8.8 C 70 %
1910 26-12-2014 21:48:17 8.8 C 70 %
1911 26-12-2014 22:00:17 8.7 C 70 %
1912 26-12-2014 22:12:17 8.7 C 69 %
1913 26-12-2014 22:24:17 8.7 C 69 %
1914 26-12-2014 22:36:17 8.7 C 69 %
1915 26-12-2014 22:48:17 8.6 C 69 %
1916 26-12-2014 23:00:17 8.6 C 68 %
1917 26-12-2014 23:12:17 8.6 C 68 %
1918 26-12-2014 23:24:17 8.6 C 69 %
1919 26-12-2014 23:36:17 8.5 C 68 %
1920 26-12-2014 23:48:16 8.5 C 68 %
1921 27-12-2014 00:00:17 8.5 C 68 %
1922 27-12-2014 00:12:17 8.5 C 68 %
1923 27-12-2014 00:24:17 8.4 C 68 %
1924 27-12-2014 00:36:17 8.4 C 68 %
1925 27-12-2014 00:48:17 8.4 C 68 %
Sensor: Nr:Datum:Temp:Feuchte:
G-T/H 1926 27-12-2014 01:00:17 8.3 C 68 %
1927 27-12-2014 01:12:17 8.3 C 68 %
1928 27-12-2014 01:24:17 8.3 C 68 %
1929 27-12-2014 01:36:17 8.3 C 67 %
1930 27-12-2014 01:48:17 8.2 C 67 %
1931 27-12-2014 02:00:17 8.2 C 67 %
1932 27-12-2014 02:12:17 8.2 C 67 %
1933 27-12-2014 02:24:17 8.1 C 67 %
1934 27-12-2014 02:36:17 8.1 C 67 %
1935 27-12-2014 02:48:17 8.1 C 67 %
1936 27-12-2014 03:00:17 8.1 C 67 %
1937 27-12-2014 03:12:17 8.1 C 67 %
1938 27-12-2014 03:24:17 8.1 C 67 %
1939 27-12-2014 03:36:17 8 C 67 %
1940 27-12-2014 03:48:17 8 C 67 %
1941 27-12-2014 04:00:17 8 C 67 %
1942 27-12-2014 04:12:17 8 C 67 %
1943 27-12-2014 04:24:17 8 C 67 %
1944 27-12-2014 04:36:17 8 C 67 %
1945 27-12-2014 04:48:17 8 C 67 %
1946 27-12-2014 05:00:17 7.9 C 67 %
1947 27-12-2014 05:12:17 8 C 66 %
1948 27-12-2014 05:24:17 7.9 C 67 %
1949 27-12-2014 05:36:17 7.9 C 67 %
1950 27-12-2014 05:48:17 7.9 C 67 %
Sensor: Nr:Datum:Temp:Feuchte:
G-T/H 1951 27-12-2014 06:00:17 7.9 C 67 %
1952 27-12-2014 06:12:17 7.9 C 67 %
1953 27-12-2014 06:24:17 7.8 C 67 %
1954 27-12-2014 06:36:17 7.8 C 67 %
1955 27-12-2014 06:48:17 7.8 C 67 %
1956 27-12-2014 07:00:17 7.9 C 67 %
1957 27-12-2014 07:12:17 7.8 C 67 %
1958 27-12-2014 07:24:17 7.8 C 67 %
1959 27-12-2014 07:36:17 7.8 C 67 %
1960 27-12-2014 07:48:16 7.8 C 67 %
1961 27-12-2014 08:00:17 7.7 C 66 %
1962 27-12-2014 08:12:17 7.7 C 66 %
1963 27-12-2014 08:24:17 7.7 C 66 %
1964 27-12-2014 08:36:17 7.7 C 66 %
1965 27-12-2014 08:48:17 7.6 C 66 %
1966 27-12-2014 09:00:17 7.7 C 66 %
1967 27-12-2014 09:12:17 7.8 C 67 %
1968 27-12-2014 09:24:17 7.8 C 67 %
1969 27-12-2014 09:36:17 7.7 C 67 %
1970 27-12-2014 09:48:17 7.6 C 66 %
1971 27-12-2014 10:00:17 7.6 C 66 %
1972 27-12-2014 10:12:17 7.5 C 66 %
1973 27-12-2014 10:24:17 7.5 C 66 %
1974 27-12-2014 10:36:17 7.5 C 66 %
1975 27-12-2014 10:48:17 7.5 C 66 %
Sensor: Nr:Datum:Temp:Feuchte:
G-T/H 1976 27-12-2014 11:00:17 7.5 C 67 %
1977 27-12-2014 11:12:17 7.6 C 67 %
1978 27-12-2014 11:24:17 7.6 C 68 %
1979 27-12-2014 11:36:17 7.6 C 68 %
1980 27-12-2014 11:48:17 7.5 C 67 %
1981 27-12-2014 12:00:17 7.6 C 67 %
1982 27-12-2014 12:12:17 7.8 C 67 %
1983 27-12-2014 12:24:17 8 C 68 %
1984 27-12-2014 12:36:17 8.1 C 69 %
1985 27-12-2014 12:48:17 8.2 C 69 %
1986 27-12-2014 13:00:17 8.2 C 70 %
1987 27-12-2014 13:12:18 8.3 C 70 %
1988 27-12-2014 13:24:17 8.3 C 70 %
1989 27-12-2014 13:36:17 8.3 C 71 %
1990 27-12-2014 13:48:17 8.4 C 71 %
1991 27-12-2014 14:00:17 8.3 C 71 %
1992 27-12-2014 14:12:17 8.3 C 71 %
1993 27-12-2014 14:24:17 8.2 C 71 %
1994 27-12-2014 14:36:17 8.2 C 71 %
1995 27-12-2014 14:48:17 8.2 C 70 %
1996 27-12-2014 15:00:17 8.2 C 70 %
1997 27-12-2014 15:12:17 8.1 C 70 %
1998 27-12-2014 15:24:17 8.1 C 70 %
1999 27-12-2014 15:36:17 8 C 69 %
2000 27-12-2014 15:48:17 8 C 69 %
Sensor: Nr:Datum:Temp:Feuchte:
G-T/H 2001 27-12-2014 16:00:17 8 C 69 %
2002 27-12-2014 16:12:17 7.9 C 70 %
2003 27-12-2014 16:24:17 7.9 C 70 %
2004 27-12-2014 16:36:17 7.8 C 70 %
2005 27-12-2014 16:48:17 7.8 C 70 %
2006 27-12-2014 17:00:17 7.8 C 70 %
2007 27-12-2014 17:12:17 7.8 C 70 %
2008 27-12-2014 17:24:17 7.8 C 70 %
2009 27-12-2014 17:36:17 7.8 C 70 %
2010 27-12-2014 17:48:17 7.9 C 71 %
2011 27-12-2014 18:00:17 7.9 C 71 %
2012 27-12-2014 18:12:17 7.8 C 72 %
2013 27-12-2014 18:24:17 7.9 C 72 %
2014 27-12-2014 18:36:17 7.9 C 72 %
2015 27-12-2014 18:48:17 7.9 C 72 %
2016 27-12-2014 19:00:17 7.9 C 72 %
2017 27-12-2014 19:12:17 7.8 C 72 %
2018 27-12-2014 19:24:17 7.7 C 71 %
2019 27-12-2014 19:36:17 7.6 C 70 %
2020 27-12-2014 19:48:17 7.6 C 70 %
2021 27-12-2014 20:00:17 7.6 C 69 %
2022 27-12-2014 20:12:17 7.5 C 69 %
2023 27-12-2014 20:24:17 7.5 C 68 %
2024 27-12-2014 20:36:17 7.5 C 68 %
2025 27-12-2014 20:48:17 7.4 C 68 %
Sensor: Nr:Datum:Temp:Feuchte:
G-T/H 2026 27-12-2014 21:00:17 7.4 C 67 %
2027 27-12-2014 21:12:18 7.4 C 67 %
2028 27-12-2014 21:24:17 7.4 C 67 %
2029 27-12-2014 21:36:17 7.3 C 67 %
2030 27-12-2014 21:48:17 7.3 C 66 %
2031 27-12-2014 22:00:17 7.3 C 66 %
2032 27-12-2014 22:12:17 7.3 C 66 %
2033 27-12-2014 22:24:17 7.2 C 66 %
2034 27-12-2014 22:36:17 7.2 C 65 %
2035 27-12-2014 22:48:17 7.3 C 66 %
2036 27-12-2014 23:00:17 7.3 C 67 %
2037 27-12-2014 23:12:17 7.4 C 67 %
2038 27-12-2014 23:24:17 7.4 C 68 %
2039 27-12-2014 23:36:17 7.4 C 68 %
2040 27-12-2014 23:48:17 7.4 C 68 %
2041 28-12-2014 00:00:17 7.4 C 68 %
2042 28-12-2014 00:12:17 7.4 C 68 %
2043 28-12-2014 00:24:17 7.4 C 69 %
2044 28-12-2014 00:36:17 7.4 C 69 %
2045 28-12-2014 00:48:17 7.4 C 69 %
2046 28-12-2014 01:00:17 7.4 C 69 %
2047 28-12-2014 01:12:17 7.4 C 69 %
2048 28-12-2014 01:24:17 7.4 C 69 %
2049 28-12-2014 01:36:17 7.4 C 69 %
2050 28-12-2014 01:48:17 7.4 C 69 %
Sensor: Nr:Datum:Temp:Feuchte:
G-T/H 2051 28-12-2014 02:00:17 7.4 C 69 %
2052 28-12-2014 02:12:17 7.4 C 69 %
2053 28-12-2014 02:24:17 7.4 C 69 %
2054 28-12-2014 02:36:17 7.4 C 69 %
2055 28-12-2014 02:48:17 7.4 C 69 %
2056 28-12-2014 03:00:17 7.4 C 69 %
2057 28-12-2014 03:12:17 7.4 C 69 %
2058 28-12-2014 03:24:17 7.4 C 69 %
2059 28-12-2014 03:36:17 7.4 C 69 %
2060 28-12-2014 03:48:17 7.4 C 69 %
2061 28-12-2014 04:00:17 7.4 C 69 %
2062 28-12-2014 04:12:17 7.3 C 68 %
2063 28-12-2014 04:24:17 7.3 C 68 %
2064 28-12-2014 04:36:17 7.3 C 68 %
2065 28-12-2014 04:48:17 7.3 C 68 %
2066 28-12-2014 05:00:17 7.3 C 68 %
2067 28-12-2014 05:12:17 7.3 C 68 %
2068 28-12-2014 05:24:17 7.2 C 68 %
2069 28-12-2014 05:36:17 7.2 C 68 %
2070 28-12-2014 05:48:17 7.2 C 68 %
2071 28-12-2014 06:00:17 7.2 C 68 %
2072 28-12-2014 06:12:17 7.1 C 67 %
2073 28-12-2014 06:24:16 6.9 C 66 %
2074 28-12-2014 06:36:17 6.8 C 65 %
2075 28-12-2014 06:48:16 6.8 C 64 %
Sensor: Nr:Datum:Temp:Feuchte:
G-T/H 2076 28-12-2014 07:00:17 6.7 C 63 %
2077 28-12-2014 07:12:17 6.7 C 63 %
2078 28-12-2014 07:24:17 6.6 C 62 %
2079 28-12-2014 07:36:17 6.6 C 62 %
2080 28-12-2014 07:48:17 6.5 C 61 %
2081 28-12-2014 08:00:17 6.5 C 61 %
2082 28-12-2014 08:12:17 6.4 C 61 %
2083 28-12-2014 08:24:17 6.4 C 60 %
2084 28-12-2014 08:36:17 6.3 C 60 %
2085 28-12-2014 08:48:17 6.3 C 60 %
2086 28-12-2014 09:00:17 6.3 C 59 %
2087 28-12-2014 09:12:17 6.3 C 60 %
2088 28-12-2014 09:24:17 6.4 C 61 %
2089 28-12-2014 09:36:17 6.5 C 62 %
2090 28-12-2014 09:48:17 6.5 C 62 %
2091 28-12-2014 10:00:17 6.4 C 61 %
2092 28-12-2014 10:12:17 6.3 C 61 %
2093 28-12-2014 10:24:17 6.2 C 60 %
2094 28-12-2014 10:36:17 6.2 C 59 %
2095 28-12-2014 10:48:17 6.2 C 59 %
2096 28-12-2014 11:00:17 6.3 C 60 %
2097 28-12-2014 11:12:17 6.4 C 61 %
2098 28-12-2014 11:24:17 6.4 C 61 %
2099 28-12-2014 11:36:17 6.4 C 62 %
2100 28-12-2014 11:48:17 6.2 C 60 %
Sensor: Nr:Datum:Temp:Feuchte:
G-T/H 2101 28-12-2014 12:00:17 6.2 C 59 %
2102 28-12-2014 12:12:17 6.1 C 58 %
2103 28-12-2014 12:24:17 6.1 C 58 %
2104 28-12-2014 12:36:17 6.2 C 59 %
2105 28-12-2014 12:48:17 6.3 C 60 %
2106 28-12-2014 13:00:17 6.3 C 61 %
2107 28-12-2014 13:12:17 6.1 C 59 %
2108 28-12-2014 13:25:16 6 C 59 %
2109 28-12-2014 13:36:17 6.1 C 60 %
2110 28-12-2014 13:48:17 6.2 C 61 %
2111 28-12-2014 14:01:17 6.2 C 62 %
2112 28-12-2014 14:13:17 6.2 C 62 %
2113 28-12-2014 14:24:17 6.2 C 62 %
2114 28-12-2014 14:36:17 6.1 C 60 %
2115 28-12-2014 14:49:17 5.7 C 57 %
2116 28-12-2014 15:00:17 6.1 C 57 %
2117 28-12-2014 15:12:17 6.4 C 58 %
2118 28-12-2014 15:24:17 6.6 C 59 %
2119 28-12-2014 15:36:17 6.8 C 60 %
2120 28-12-2014 15:49:16 6.9 C 61 %
2121 28-12-2014 16:00:17 7 C 60 %
2122 28-12-2014 16:12:17 7 C 61 %
2123 28-12-2014 16:24:17 7 C 61 %
2124 28-12-2014 16:36:17 6.9 C 60 %
2125 28-12-2014 16:49:17 6.9 C 59 %
Sensor: Nr:Datum:Temp:Feuchte:
G-T/H 2126 28-12-2014 17:00:17 6.8 C 58 %
2127 28-12-2014 17:12:17 6.9 C 58 %
2128 28-12-2014 17:24:17 7 C 58 %
2129 28-12-2014 17:36:17 7 C 58 %
2130 28-12-2014 17:49:17 6.9 C 59 %
2131 28-12-2014 18:01:17 6.9 C 59 %
2132 28-12-2014 18:13:17 6.9 C 60 %
2133 28-12-2014 18:24:17 6.9 C 60 %
2134 28-12-2014 18:36:17 6.8 C 60 %
2135 28-12-2014 18:48:17 6.8 C 61 %
2136 28-12-2014 19:00:17 6.8 C 61 %
2137 28-12-2014 19:12:17 6.7 C 61 %
2138 28-12-2014 19:24:17 6.6 C 60 %
2139 28-12-2014 19:37:17 6.5 C 59 %
2140 28-12-2014 19:49:17 6.4 C 59 %
2141 28-12-2014 20:01:17 6.5 C 59 %
2142 28-12-2014 20:13:17 6.5 C 60 %
2143 28-12-2014 20:25:17 6.6 C 60 %
2144 28-12-2014 20:36:17 6.6 C 61 %
2145 28-12-2014 20:49:17 6.6 C 61 %
2146 28-12-2014 21:01:17 6.5 C 60 %
2147 28-12-2014 21:12:17 6.3 C 59 %
2148 28-12-2014 21:25:17 6.3 C 59 %
2149 28-12-2014 21:37:17 6.3 C 59 %
2150 28-12-2014 21:49:16 6.4 C 60 %
Sensor: Nr:Datum:Temp:Feuchte:
G-T/H 2151 28-12-2014 22:01:17 6.4 C 60 %
2152 28-12-2014 22:12:17 6.4 C 61 %
2153 28-12-2014 22:24:17 6.3 C 60 %
2154 28-12-2014 22:37:17 6.2 C 59 %
2155 28-12-2014 22:49:17 6.1 C 58 %
2156 28-12-2014 23:01:17 6.2 C 59 %
2157 28-12-2014 23:13:17 6.2 C 59 %
2158 28-12-2014 23:25:17 6.3 C 60 %
2159 28-12-2014 23:37:17 6.3 C 60 %
2160 28-12-2014 23:49:17 6.3 C 61 %
2161 29-12-2014 00:01:17 6.3 C 61 %
2162 29-12-2014 00:13:17 6.3 C 61 %
2163 29-12-2014 00:25:17 6.3 C 61 %
2164 29-12-2014 00:37:17 6.3 C 62 %
2165 29-12-2014 00:48:17 6.3 C 62 %